Provisional Data: Susquehanna River at Kirkwood, NY


Please select a monitoring station.
Please select start date.
Please select start date.

<
Toggle Unit: C/F Toggle Unit: C/F
Sample Time Temperature (C) Temperature (F) Specific Conductivity (mS/cm) pH   Turbidity (NTU+) DO (mg/L)
12/4/2020 12:00:00 AM 4.19 39.542 0.184 8.48 6.45 13.24
12/4/2020 12:15:00 AM 4.19 39.542 0.184 8.48 6.47 13.24
12/4/2020 12:30:00 AM 4.19 39.542 0.184 8.51 6.81 13.24
12/4/2020 12:45:00 AM 4.19 39.542 0.184 8.53 6.5 13.25
12/4/2020 1:00:00 AM 4.2 39.56 0.184 8.57 6.92 13.24
12/4/2020 1:15:00 AM 4.2 39.56 0.184 8.53 6.28 13.25
12/4/2020 1:30:00 AM 4.2 39.56 0.184 8.53 6.99 13.26
12/4/2020 1:45:00 AM 4.2 39.56 0.184 8.51 6.51 13.25
12/4/2020 2:00:00 AM 4.2 39.56 0.184 8.53 6.46 13.26
12/4/2020 2:15:00 AM 4.2 39.56 0.184 8.56 6.62 13.25
12/4/2020 2:30:00 AM 4.2 39.56 0.184 8.59 6.51 13.25
12/4/2020 2:45:00 AM 4.19 39.542 0.184 8.63 6.37 13.25
12/4/2020 3:00:00 AM 4.19 39.542 0.184 8.59 6.75 13.24
12/4/2020 3:15:00 AM 4.18 39.524 0.184 8.57 6.56 13.23
12/4/2020 3:30:00 AM 4.17 39.506 0.184 8.56 6.66 13.22
12/4/2020 3:45:00 AM 4.16 39.488 0.184 8.56 6.4 13.22
12/4/2020 4:00:00 AM 4.15 39.47 0.184 8.58 6.66 13.21
12/4/2020 4:15:00 AM 4.13 39.434 0.184 8.55 6.76 13.2
12/4/2020 4:30:00 AM 4.12 39.416 0.184 8.55 6.87 13.18
12/4/2020 4:45:00 AM 4.1 39.38 0.184 8.54 6.61 13.18
12/4/2020 5:00:00 AM 4.09 39.362 0.184 8.52 6.59 13.15
12/4/2020 5:15:00 AM 4.08 39.344 0.184 8.47 7.07 13.14
12/4/2020 5:30:00 AM 4.06 39.308 0.184 8.42 6.56 13.13
12/4/2020 5:45:00 AM 4.04 39.272 0.184 8.42 7.6 13.11
12/4/2020 6:00:00 AM 4.03 39.254 0.184 8.43 6.78 13.09
12/4/2020 6:15:00 AM 4.02 39.236 0.184 8.41 6.41 13.08
12/4/2020 6:30:00 AM 4 39.2 0.184 8.44 6.64 13.07
12/4/2020 6:45:00 AM 3.99 39.182 0.184 8.46 6.57 13.06
12/4/2020 7:00:00 AM 3.98 39.164 0.184 8.45 6.36 13.04
12/4/2020 7:15:00 AM 3.96 39.128 0.184 8.44 6.62 13.03
12/4/2020 7:30:00 AM 3.95 39.11 0.184 8.45 6.76 13.02
12/4/2020 7:45:00 AM 3.94 39.092 0.184 8.43 6.14 13
12/4/2020 8:00:00 AM 3.93 39.074 0.184 8.43 6.62 12.99
12/4/2020 8:15:00 AM 3.92 39.056 0.184 8.42 6.47 12.98
12/4/2020 8:30:00 AM 3.92 39.056 0.184 8.41 6.29 12.98
12/4/2020 8:45:00 AM 3.91 39.038 0.184 8.42 6.13 12.97
12/4/2020 9:00:00 AM 3.9 39.02 0.184 8.46 6.47 12.98
12/4/2020 9:15:00 AM 3.9 39.02 0.184 8.51 8.41 12.99
12/4/2020 9:30:00 AM 3.91 39.038 0.184 8.53 6.51 13.01
12/4/2020 9:45:00 AM 3.92 39.056 0.184 8.55 6.57 13.04
12/4/2020 10:00:00 AM 3.93 39.074 0.184 8.58 6.62 13.06
12/4/2020 10:15:00 AM 3.94 39.092 0.184 8.56 6.08 13.1
12/4/2020 10:30:00 AM 3.96 39.128 0.183 8.56 6.17 13.15
12/4/2020 10:45:00 AM 3.98 39.164 0.183 8.53 6.14 13.19
12/4/2020 11:00:00 AM 4 39.2 0.183 8.51 6.19 13.25
12/4/2020 11:15:00 AM 4.01 39.218 0.183 8.54 6.24 13.3
12/4/2020 11:30:00 AM 4.02 39.236 0.183 8.54 6.63 13.34
12/4/2020 11:45:00 AM 4.03 39.254 0.183 8.56 6.3 13.39
12/4/2020 12:00:00 PM 4.05 39.29 0.183 8.59 6.3 13.42
12/4/2020 12:15:00 PM 4.07 39.326 0.183 8.62 6.45 13.46
12/4/2020 12:30:00 PM 4.08 39.344 0.182 8.67 6.69 13.5
12/4/2020 12:45:00 PM 4.1 39.38 0.182 8.68 6.85 13.52
12/4/2020 1:00:00 PM 4.12 39.416 0.182 8.68 6.27 13.57
12/4/2020 1:15:00 PM 4.15 39.47 0.182 8.67 6.36 13.61
12/4/2020 1:30:00 PM 4.21 39.578 0.182 8.67 6.39 13.66
12/4/2020 1:45:00 PM 4.3 39.74 0.182 8.68 6.46 13.7
12/4/2020 2:00:00 PM 4.35 39.83 0.181 8.69 6.32 13.76
12/4/2020 2:15:00 PM 4.41 39.938 0.181 8.7 6.22 13.79
12/4/2020 2:30:00 PM 4.48 40.064 0.181 8.73 6.63 13.83
12/4/2020 2:45:00 PM 4.52 40.136 0.181 8.73 6.47 13.86
12/4/2020 3:00:00 PM 4.51 40.118 0.181 8.74 6.28 13.88
12/4/2020 3:15:00 PM 4.52 40.136 0.181 8.79 6.34 13.89
12/4/2020 3:30:00 PM 4.54 40.172 0.181 8.8 6.49 13.89
12/4/2020 3:45:00 PM 4.55 40.19 0.181 8.77 6.52 13.87
12/4/2020 4:00:00 PM 4.56 40.208 0.181 8.73 6.32 13.86
12/4/2020 4:15:00 PM 4.57 40.226 0.181 8.69 6.1 13.84
12/4/2020 4:30:00 PM 4.58 40.244 0.18 8.67 6.16 13.81
12/4/2020 4:45:00 PM 4.58 40.244 0.18 8.63 6.06 13.76
12/4/2020 5:00:00 PM 4.58 40.244 0.18 8.61 6.27 13.73
12/4/2020 5:15:00 PM 4.58 40.244 0.18 8.54 6.26 13.69
12/4/2020 5:30:00 PM 4.57 40.226 0.18 8.5 6.3 13.64
12/4/2020 5:45:00 PM 4.56 40.208 0.18 8.47 6.31 13.6
12/4/2020 6:00:00 PM 4.55 40.19 0.18 8.49 6.57 13.55
12/4/2020 6:15:00 PM 4.53 40.154 0.18 8.47 6.8 13.51
12/4/2020 6:30:00 PM 4.51 40.118 0.18 8.44 6.48 13.46
12/4/2020 6:45:00 PM 4.5 40.1 0.18 8.43 6.22 13.42
12/4/2020 7:00:00 PM 4.48 40.064 0.18 8.41 6.17 13.38
12/4/2020 7:15:00 PM 4.47 40.046 0.18 8.43 6.31 13.34
12/4/2020 7:30:00 PM 4.46 40.028 0.18 8.39 7.88 13.29
12/4/2020 7:45:00 PM 4.46 40.028 0.18 8.38 6.24 13.26
12/4/2020 8:00:00 PM 4.45 40.01 0.18 8.38 6.07 13.23
12/4/2020 8:15:00 PM 4.45 40.01 0.18 8.38 7.7 13.2
12/4/2020 8:30:00 PM 4.45 40.01 0.18 8.37 6.29 13.17
12/4/2020 8:45:00 PM 4.46 40.028 0.18 8.35 6.47 13.15
12/4/2020 9:00:00 PM 4.47 40.046 0.18 8.37 6.34 13.14
12/4/2020 9:15:00 PM 4.47 40.046 0.18 8.37 6.99 13.13
12/4/2020 9:30:00 PM 4.48 40.064 0.18 8.4 6.42 13.13
12/4/2020 9:45:00 PM 4.48 40.064 0.18 8.45 6.48 13.12
12/4/2020 10:00:00 PM 4.49 40.082 0.18 8.54 6.39 13.12
12/4/2020 10:15:00 PM 4.49 40.082 0.18 8.57 6.51 13.12
12/4/2020 10:30:00 PM 4.55 40.19 0.18 8.63 7.56 13.05
12/4/2020 10:45:00 PM 4.48 40.064 0.18 8.61 7.05 13.1
12/4/2020 11:00:00 PM 4.48 40.064 0.179 8.63 6.67 13.11
12/4/2020 11:15:00 PM 4.48 40.064 0.179 8.59 6.3 13.11
12/4/2020 11:30:00 PM 4.48 40.064 0.179 8.56 6.55 13.13
12/4/2020 11:45:00 PM 4.48 40.064 0.179 8.58 6.46 13.11
12/5/2020 12:00:00 AM 4.48 40.064 0.179 8.57 7.24 13.11
12/5/2020 12:15:00 AM 4.48 40.064 0.179 8.59 6.45 13.12
12/5/2020 12:30:00 AM 4.49 40.082 0.179 8.55 6.24 13.12
12/5/2020 12:45:00 AM 4.49 40.082 0.179 8.58 6.47 13.13
12/5/2020 1:00:00 AM 4.49 40.082 0.179 8.56 6.28 13.1
12/5/2020 1:15:00 AM 4.5 40.1 0.179 8.5 6.37 13.11
12/5/2020 1:30:00 AM 4.5 40.1 0.179 8.54 6.18 13.11
12/5/2020 1:45:00 AM 4.5 40.1 0.179 8.53 6.34 13.11
12/5/2020 2:00:00 AM 4.5 40.1 0.179 8.51 6.25 13.12
12/5/2020 2:15:00 AM 4.5 40.1 0.179 8.52 6.58 13.1
12/5/2020 2:30:00 AM 4.51 40.118 0.179 8.53 7.43 13.13
12/5/2020 2:45:00 AM 4.51 40.118 0.179 8.5 6.41 13.11
12/5/2020 3:00:00 AM 4.51 40.118 0.179 8.49 6.72 13.09
12/5/2020 3:15:00 AM 4.51 40.118 0.179 8.47 6.85 13.09
12/5/2020 3:30:00 AM 4.51 40.118 0.179 8.51 6.33 13.12
12/5/2020 3:45:00 AM 4.51 40.118 0.179 8.55 7.25 13.11
12/5/2020 4:00:00 AM 4.51 40.118 0.179 8.56 6.49 13.11
12/5/2020 4:15:00 AM 4.5 40.1 0.179 8.58 6.39 13.1
12/5/2020 4:30:00 AM 4.49 40.082 0.179 8.57 6.3 13.1
12/5/2020 4:45:00 AM 4.49 40.082 0.179 8.54 6.38 13.09
12/5/2020 5:00:00 AM 4.48 40.064 0.179 8.48 6.12 13.08
12/5/2020 5:15:00 AM 4.47 40.046 0.179 8.48 6.72 13.06
12/5/2020 5:30:00 AM 4.46 40.028 0.179 8.44 6.32 13.05
12/5/2020 5:45:00 AM 4.45 40.01 0.179 8.43 6.41 13.03
12/5/2020 6:00:00 AM 4.44 39.992 0.179 8.39 6.36 13
12/5/2020 6:15:00 AM 4.43 39.974 0.179 8.37 6.34 13.01
12/5/2020 6:30:00 AM 4.42 39.956 0.179 8.35 6.41 12.98
12/5/2020 6:45:00 AM 4.42 39.956 0.179 8.33 7.34 12.98
12/5/2020 7:00:00 AM 4.4 39.92 0.179 8.33 7.85 12.97
12/5/2020 7:15:00 AM 4.39 39.902 0.179 8.36 6.63 12.95
12/5/2020 7:30:00 AM 4.38 39.884 0.179 8.38 6.82 12.93
12/5/2020 7:45:00 AM 4.36 39.848 0.179 8.37 6.34 12.91
12/5/2020 8:00:00 AM 4.35 39.83 0.179 8.38 6.69 12.89
12/5/2020 8:15:00 AM 4.34 39.812 0.18 8.4 6.14 12.91
12/5/2020 8:30:00 AM 4.33 39.794 0.18 8.4 6.45 12.89
12/5/2020 8:45:00 AM 4.32 39.776 0.18 8.45 6.35 12.89
12/5/2020 9:00:00 AM 4.32 39.776 0.18 8.5 6.35 12.9
12/5/2020 9:15:00 AM 4.32 39.776 0.18 8.53 6.05 12.91
12/5/2020 9:30:00 AM 4.31 39.758 0.18 8.54 6.15 12.94
12/5/2020 9:45:00 AM 4.31 39.758 0.18 8.54 6.18 12.96
12/5/2020 10:00:00 AM 4.3 39.74 0.18 8.55 6.17 12.97
12/5/2020 10:15:00 AM 4.29 39.722 0.18 8.59 6.08 12.99
12/5/2020 10:30:00 AM 4.29 39.722 0.18 8.57 6.29 13.03
12/5/2020 10:45:00 AM 4.28 39.704 0.18 8.53 5.99 13.03
12/5/2020 11:00:00 AM 4.28 39.704 0.18 8.52 6.02 13.07
12/5/2020 11:15:00 AM 4.28 39.704 0.18 8.49 6.03 13.1
12/5/2020 11:30:00 AM 4.28 39.704 0.18 8.52 5.91 13.12
12/5/2020 11:45:00 AM 4.28 39.704 0.18 8.53 6.23 13.18
12/5/2020 12:00:00 PM 4.28 39.704 0.18 8.53 6.02 13.23
12/5/2020 12:15:00 PM 4.31 39.758 0.18 8.53 6.1 13.29
12/5/2020 12:30:00 PM 4.32 39.776 0.179 8.53 6.53 13.34
12/5/2020 12:45:00 PM 4.3 39.74 0.179 8.5 6.71 13.36
12/5/2020 1:00:00 PM 4.3 39.74 0.179 8.51 6.46 13.36
12/5/2020 1:15:00 PM 4.29 39.722 0.179 8.48 6.18 13.41
12/5/2020 1:30:00 PM 4.27 39.686 0.179 8.49 6.3 13.41
12/5/2020 1:45:00 PM 4.27 39.686 0.179 8.49 6.42 13.44
12/5/2020 2:00:00 PM 4.28 39.704 0.179 8.49 6.17 13.46
12/5/2020 2:15:00 PM 4.28 39.704 0.179 8.46 6.42 13.48
12/5/2020 2:30:00 PM 4.26 39.668 0.179 8.43 11.89 13.53
12/5/2020 2:45:00 PM 4.26 39.668 0.179 8.41 8.57 13.55
12/5/2020 3:00:00 PM 4.25 39.65 0.179 8.4 8.33 13.56
12/5/2020 3:15:00 PM 4.23 39.614 0.179 8.42 6.67 13.55
12/5/2020 3:30:00 PM 4.21 39.578 0.179 8.43 6.45 13.52
12/5/2020 3:45:00 PM 4.18 39.524 0.179 8.42 6.14 13.51
12/5/2020 4:00:00 PM 4.16 39.488 0.179 8.42 6.39 13.48
12/5/2020 4:15:00 PM 4.13 39.434 0.179 8.42 6.26 13.43
12/5/2020 4:30:00 PM 4.1 39.38 0.179 8.42 6.76 13.41
12/5/2020 4:45:00 PM 4.08 39.344 0.179 8.43 6.4 13.37
12/5/2020 5:00:00 PM 4.05 39.29 0.179 8.42 6.83 13.34
12/5/2020 5:15:00 PM 4.03 39.254 0.179 8.41 6.39 13.32
12/5/2020 5:30:00 PM 4.02 39.236 0.179 8.42 6.28 13.3
12/5/2020 5:45:00 PM 4 39.2 0.179 8.42 6.62 13.27
12/5/2020 6:00:00 PM 3.99 39.182 0.179 8.41 6.29 13.25
12/5/2020 6:15:00 PM 3.98 39.164 0.179 8.38 6.27 13.22
12/5/2020 6:30:00 PM 3.97 39.146 0.179 8.39 6.11 13.2
12/5/2020 6:45:00 PM 3.95 39.11 0.179 8.38 6.16 13.19
12/5/2020 7:00:00 PM 3.94 39.092 0.179 8.4 6.08 13.15
12/5/2020 7:15:00 PM 3.93 39.074 0.179 8.39 6.12 13.14
12/5/2020 7:30:00 PM 3.92 39.056 0.179 8.37 6.21 13.12
12/5/2020 7:45:00 PM 3.91 39.038 0.179 8.37 6.09 13.1
12/5/2020 8:00:00 PM 3.9 39.02 0.179 8.36 6.52 13.09
12/5/2020 8:15:00 PM 3.89 39.002 0.179 8.36 6.19 13.07
12/5/2020 8:30:00 PM 3.89 39.002 0.179 8.37 6.32 13.06
12/5/2020 8:45:00 PM 3.88 38.984 0.179 8.36 6.51 13.06
12/5/2020 9:00:00 PM 3.87 38.966 0.179 8.37 6.12 13.05
12/5/2020 9:15:00 PM 3.86 38.948 0.179 8.37 6.37 13.05
12/5/2020 9:30:00 PM 3.85 38.93 0.179 8.36 6.42 13.05
12/5/2020 9:45:00 PM 3.85 38.93 0.179 8.35 6.24 13.03
12/5/2020 10:00:00 PM 3.85 38.93 0.179 8.37 6.08 13.04
12/5/2020 10:15:00 PM 3.84 38.912 0.179 8.38 6.17 13.04
12/5/2020 10:30:00 PM 3.84 38.912 0.179 8.38 6.18 13.04
12/5/2020 10:45:00 PM 3.84 38.912 0.179 8.4 6.19 13.04
12/5/2020 11:00:00 PM 3.83 38.894 0.179 8.4 6.26 13.05
12/5/2020 11:15:00 PM 3.83 38.894 0.179 8.4 6.25 13.05
12/5/2020 11:30:00 PM 3.82 38.876 0.179 8.4 6.34 13.05
12/5/2020 11:45:00 PM 3.81 38.858 0.179 8.39 6.37 13.04
12/6/2020 12:00:00 AM 3.8 38.84 0.179 8.39 6.41 13.04
12/6/2020 12:15:00 AM 3.79 38.822 0.18 8.39 7.64 13.04
12/6/2020 12:30:00 AM 3.78 38.804 0.18 8.39 8.54 13.04
12/6/2020 12:45:00 AM 3.77 38.786 0.18 8.38 6.61 13.05
12/6/2020 1:00:00 AM 3.76 38.768 0.18 8.39 6.67 13.07
12/6/2020 1:15:00 AM 3.75 38.75 0.18 8.38 6.44 13.06
12/6/2020 1:30:00 AM 3.74 38.732 0.18 8.37 6.44 13.07
12/6/2020 1:45:00 AM 3.72 38.696 0.18 8.38 6.53 13.07
12/6/2020 2:00:00 AM 3.71 38.678 0.18 8.39 9.87 13.08
12/6/2020 2:15:00 AM 3.69 38.642 0.18 8.38 6.84 13.07
12/6/2020 2:30:00 AM 3.67 38.606 0.18 8.36 6.62 13.08
12/6/2020 2:45:00 AM 3.66 38.588 0.18 8.38 6.61 13.09
12/6/2020 3:00:00 AM 3.64 38.552 0.18 8.37 6.37 13.09
12/6/2020 3:15:00 AM 3.63 38.534 0.18 8.38 6.51 13.09
12/6/2020 3:30:00 AM 3.61 38.498 0.18 8.38 6.3 13.09
12/6/2020 3:45:00 AM 3.59 38.462 0.18 8.37 6.32 13.09
12/6/2020 4:00:00 AM 3.57 38.426 0.18 8.36 6.5 13.09
12/6/2020 4:15:00 AM 3.55 38.39 0.18 8.34 6.42 13.1
12/6/2020 4:30:00 AM 3.54 38.372 0.18 8.36 6.51 13.1
12/6/2020 4:45:00 AM 3.52 38.336 0.18 8.37 6.33 13.09
12/6/2020 5:00:00 AM 3.5 38.3 0.18 8.36 6.42 13.1
12/6/2020 5:15:00 AM 3.47 38.246 0.18 8.37 6.61 13.1
12/6/2020 5:30:00 AM 3.44 38.192 0.181 8.35 6.81 13.1
12/6/2020 5:45:00 AM 3.42 38.156 0.181 8.35 9.08 13.11
12/6/2020 6:00:00 AM 3.4 38.12 0.181 8.33 8.48 13.1
12/6/2020 6:15:00 AM 3.38 38.084 0.181 8.37 7.94 13.09
12/6/2020 6:30:00 AM 3.36 38.048 0.181 8.36 7.22 13.1
12/6/2020 6:45:00 AM 3.32 37.976 0.181 8.37 7.45 13.1
12/6/2020 7:00:00 AM 3.31 37.958 0.181 8.36 6.86 13.1
12/6/2020 7:15:00 AM 3.29 37.922 0.181 8.35 7.44 13.1
12/6/2020 7:30:00 AM 3.27 37.886 0.181 8.37 6.72 13.1
12/6/2020 7:45:00 AM 3.25 37.85 0.181 8.36 6.62 13.1
12/6/2020 8:00:00 AM 3.23 37.814 0.181 8.36 6.64 13.1
12/6/2020 8:15:00 AM 3.22 37.796 0.181 8.34 6.37 13.11
12/6/2020 8:30:00 AM 3.21 37.778 0.182 8.34 6.29 13.11
12/6/2020 8:45:00 AM 3.21 37.778 0.182 8.33 6.43 13.12
12/6/2020 9:00:00 AM 3.21 37.778 0.182 8.33 6.18 13.14
12/6/2020 9:15:00 AM 3.21 37.778 0.182 8.33 6.12 13.17
12/6/2020 9:30:00 AM 3.2 37.76 0.182 8.33 6.2 13.2
12/6/2020 9:45:00 AM 3.2 37.76 0.182 8.34 6.1 13.23
12/6/2020 10:00:00 AM 3.2 37.76 0.182 8.36 5.93 13.29
12/6/2020 10:15:00 AM 3.21 37.778 0.182 8.35 6.07 13.31
12/6/2020 10:30:00 AM 3.2 37.76 0.182 8.38 6.27 13.35
12/6/2020 10:45:00 AM 3.19 37.742 0.182 8.4 6.87 13.39
12/6/2020 11:00:00 AM 3.2 37.76 0.182 8.39 6.37 13.42
12/6/2020 11:15:00 AM 3.22 37.796 0.182 8.41 8.16 13.47
12/6/2020 11:30:00 AM 3.22 37.796 0.182 8.41 7.21 13.52
12/6/2020 11:45:00 AM 3.23 37.814 0.182 8.42 6.65 13.56
12/6/2020 12:00:00 PM 3.25 37.85 0.182 8.45 6.58 13.62
12/6/2020 12:15:00 PM 3.25 37.85 0.182 8.46 6.55 13.67
12/6/2020 12:30:00 PM 3.25 37.85 0.182 8.48 7.01 13.73
12/6/2020 12:45:00 PM 3.28 37.904 0.182 8.51 6.98 13.71
12/6/2020 1:00:00 PM 3.25 37.85 0.183 8.53 6.72 13.82
12/6/2020 1:15:00 PM 3.24 37.832 0.183 8.55 6.45 13.87
12/6/2020 1:30:00 PM 3.23 37.814 0.183 8.55 7.45 13.9
12/6/2020 1:45:00 PM 3.22 37.796 0.183 8.56 7.03 13.93
12/6/2020 2:00:00 PM 3.2 37.76 0.183 8.58 7.02 13.95
12/6/2020 2:15:00 PM 3.19 37.742 0.183 8.57 6.65 13.97
12/6/2020 2:30:00 PM 3.17 37.706 0.183 8.56 6.65 13.99
12/6/2020 2:45:00 PM 3.16 37.688 0.183 8.57 6.72 14
12/6/2020 3:00:00 PM 3.14 37.652 0.183 8.6 6.42 14.01
12/6/2020 3:15:00 PM 3.12 37.616 0.183 8.58 6.16 14.02
12/6/2020 3:30:00 PM 3.11 37.598 0.183 8.59 6.07 14.03
12/6/2020 3:45:00 PM 3.08 37.544 0.183 8.61 6.04 14.03
12/6/2020 4:00:00 PM 3.06 37.508 0.183 8.6 6.13 14.03
12/6/2020 4:15:00 PM 3.03 37.454 0.183 8.63 5.9 14.03
12/6/2020 4:30:00 PM 2.99 37.382 0.183 8.65 5.97 14.01
12/6/2020 4:45:00 PM 2.96 37.328 0.184 8.66 5.81 13.99
12/6/2020 5:00:00 PM 2.94 37.292 0.184 8.65 6.1 13.95
12/6/2020 5:15:00 PM 2.92 37.256 0.184 8.64 5.87 13.91
12/6/2020 5:30:00 PM 2.9 37.22 0.184 8.61 5.93 13.87
12/6/2020 5:45:00 PM 2.87 37.166 0.184 8.59 5.88 13.83
12/6/2020 6:00:00 PM 2.84 37.112 0.184 8.58 5.72 13.79
12/6/2020 6:15:00 PM 2.81 37.058 0.184 8.56 6.65 13.76
12/6/2020 6:30:00 PM 2.79 37.022 0.184 8.56 5.96 13.73
12/6/2020 6:45:00 PM 2.76 36.968 0.184 8.54 5.88 13.71
12/6/2020 7:00:00 PM 2.75 36.95 0.184 8.53 5.84 13.68
12/6/2020 7:15:00 PM 2.74 36.932 0.184 8.54 5.77 13.65
12/6/2020 7:30:00 PM 2.73 36.914 0.184 8.52 6.08 13.62
12/6/2020 7:45:00 PM 2.72 36.896 0.184 8.51 6.03 13.59
12/6/2020 8:00:00 PM 2.72 36.896 0.184 8.51 5.8 13.57
12/6/2020 8:15:00 PM 2.71 36.878 0.184 8.51 5.74 13.54
12/6/2020 8:30:00 PM 2.7 36.86 0.184 8.5 7.58 13.51
12/6/2020 8:45:00 PM 2.69 36.842 0.184 8.51 6.08 13.5
12/6/2020 9:00:00 PM 2.68 36.824 0.184 8.5 5.91 13.48
12/6/2020 9:15:00 PM 2.67 36.806 0.184 8.47 5.86 13.47
12/6/2020 9:30:00 PM 2.66 36.788 0.184 8.46 5.77 13.46
12/6/2020 9:45:00 PM 2.65 36.77 0.184 8.46 5.78 13.45
12/6/2020 10:00:00 PM 2.65 36.77 0.184 8.47 5.7 13.45
12/6/2020 10:15:00 PM 2.64 36.752 0.184 8.48 5.76 13.44
12/6/2020 10:30:00 PM 2.64 36.752 0.184 8.47 5.75 13.44
12/6/2020 10:45:00 PM 2.63 36.734 0.184 8.46 5.8 13.45
12/6/2020 11:00:00 PM 2.63 36.734 0.185 8.46 5.8 13.44
12/6/2020 11:15:00 PM 2.62 36.716 0.185 8.46 5.79 13.44
12/6/2020 11:30:00 PM 2.62 36.716 0.185 8.43 5.95 13.46
12/6/2020 11:45:00 PM 2.62 36.716 0.185 8.44 6.4 13.46
12/7/2020 12:00:00 AM 2.62 36.716 0.185 8.44 6.32 13.45
12/7/2020 12:15:00 AM 2.61 36.698 0.185 8.46 5.89 13.47
12/7/2020 12:30:00 AM 2.6 36.68 0.185 8.44 5.83 13.46
12/7/2020 12:45:00 AM 2.59 36.662 0.185 8.44 5.87 13.48
12/7/2020 1:00:00 AM 2.59 36.662 0.185 8.47 5.89 13.47
12/7/2020 1:15:00 AM 2.58 36.644 0.185 8.47 5.98 13.48
12/7/2020 1:30:00 AM 2.56 36.608 0.185 8.47 6.35 13.48
12/7/2020 1:45:00 AM 2.55 36.59 0.185 8.45 6.06 13.49
12/7/2020 2:00:00 AM 2.54 36.572 0.185 8.45 6.08 13.49
12/7/2020 2:15:00 AM 2.53 36.554 0.185 8.42 5.93 13.5
12/7/2020 2:30:00 AM 2.53 36.554 0.185 8.44 5.88 13.49
12/7/2020 2:45:00 AM 2.52 36.536 0.185 8.41 5.82 13.51
12/7/2020 3:00:00 AM 2.51 36.518 0.185 8.41 5.85 13.51
12/7/2020 3:15:00 AM 2.5 36.5 0.185 8.42 5.75 13.52
12/7/2020 3:30:00 AM 2.49 36.482 0.185 8.43 5.78 13.51
12/7/2020 3:45:00 AM 2.48 36.464 0.185 8.43 5.7 13.52
12/7/2020 4:00:00 AM 2.47 36.446 0.185 8.45 5.67 13.53
12/7/2020 4:15:00 AM 2.46 36.428 0.185 8.43 5.71 13.54
12/7/2020 4:30:00 AM 2.45 36.41 0.185 8.43 5.91 13.53
12/7/2020 4:45:00 AM 2.44 36.392 0.186 8.4 5.73 13.53
12/7/2020 5:00:00 AM 2.44 36.392 0.186 8.37 5.86 13.52
12/7/2020 5:15:00 AM 2.43 36.374 0.186 8.36 5.66 13.52
12/7/2020 5:30:00 AM 2.43 36.374 0.186 8.36 5.78 13.53
12/7/2020 5:45:00 AM 2.42 36.356 0.186 8.36 5.72 13.52
12/7/2020 6:00:00 AM 2.42 36.356 0.186 8.32 5.77 13.5
12/7/2020 6:15:00 AM 2.41 36.338 0.186 8.32 5.81 13.5
12/7/2020 6:30:00 AM 2.4 36.32 0.186 8.34 6.09 13.5
12/7/2020 6:45:00 AM 2.39 36.302 0.186 8.34 6.42 13.51
12/7/2020 7:00:00 AM 2.38 36.284 0.186 8.32 5.71 13.51
12/7/2020 7:15:00 AM 2.38 36.284 0.186 8.31 5.69 13.52
12/7/2020 7:30:00 AM 2.37 36.266 0.186 8.31 5.84 13.51
12/7/2020 7:45:00 AM 2.36 36.248 0.186 8.31 5.74 13.51
12/7/2020 8:00:00 AM 2.36 36.248 0.186 8.32 5.63 13.51
12/7/2020 8:15:00 AM 2.35 36.23 0.186 8.33 5.73 13.52
12/7/2020 8:30:00 AM 2.35 36.23 0.186 8.33 5.62 13.53
12/7/2020 8:45:00 AM 2.34 36.212 0.186 8.34 5.94 13.53
12/7/2020 9:00:00 AM 2.35 36.23 0.186 8.35 6.05 13.58
12/7/2020 9:15:00 AM 2.36 36.248 0.186 8.37 5.95 13.63
12/7/2020 9:30:00 AM 2.37 36.266 0.186 8.37 6.02 13.67
12/7/2020 9:45:00 AM 2.39 36.302 0.186 8.41 6 13.72
12/7/2020 10:00:00 AM 2.4 36.32 0.186 8.42 5.84 13.78
12/7/2020 10:15:00 AM 2.45 36.41 0.186 8.44 5.78 13.82
12/7/2020 10:30:00 AM 2.49 36.482 0.186 8.45 5.7 13.87
12/7/2020 10:45:00 AM 2.54 36.572 0.186 8.46 7.68 13.92
12/7/2020 11:00:00 AM 2.57 36.626 0.186 8.48 7.53 13.98
12/7/2020 11:15:00 AM 2.62 36.716 0.186 8.49 6.5 14.02
12/7/2020 11:30:00 AM 2.63 36.734 0.186 8.51 6.3 14.07
12/7/2020 11:45:00 AM 2.63 36.734 0.186 8.51 5.93 14.1
12/7/2020 12:00:00 PM 2.64 36.752 0.186 8.54 6.02 14.17
12/7/2020 12:15:00 PM 2.66 36.788 0.186 8.54 5.66 14.19
12/7/2020 12:30:00 PM 2.68 36.824 0.187 8.56 5.73 14.24
12/7/2020 12:45:00 PM 2.69 36.842 0.187 8.56 6.4 14.28
12/7/2020 1:00:00 PM 2.71 36.878 0.187 8.58 5.79 14.32
12/7/2020 1:15:00 PM 2.74 36.932 0.187 8.58 5.75 14.37
12/7/2020 1:30:00 PM 2.76 36.968 0.187 8.61 5.78 14.41
12/7/2020 1:45:00 PM 2.8 37.04 0.187 8.62 5.8 14.45
12/7/2020 2:00:00 PM 2.83 37.094 0.187 8.63 6.08 14.48
12/7/2020 2:15:00 PM 2.84 37.112 0.187 8.64 6.19 14.5
12/7/2020 2:30:00 PM 2.84 37.112 0.187 8.63 6.75 14.53
12/7/2020 2:45:00 PM 2.83 37.094 0.187 8.65 6.68 14.53
12/7/2020 3:00:00 PM 2.81 37.058 0.187 8.67 6.3 14.54
12/7/2020 3:15:00 PM 2.8 37.04 0.187 8.66 6.33 14.53
12/7/2020 3:30:00 PM 2.77 36.986 0.187 8.64 6.24 14.52
12/7/2020 3:45:00 PM 2.74 36.932 0.187 8.64 6.52 14.5
12/7/2020 4:00:00 PM 2.7 36.86 0.188 8.62 6.03 14.47
12/7/2020 4:15:00 PM 2.66 36.788 0.188 8.6 6.77 14.44
12/7/2020 4:30:00 PM 2.61 36.698 0.188 8.59 5.96 14.39
12/7/2020 4:45:00 PM 2.57 36.626 0.188 8.58 6.3 14.33
12/7/2020 5:00:00 PM 2.53 36.554 0.188 8.56 6.33 14.28
12/7/2020 5:15:00 PM 2.5 36.5 0.188 8.53 6.12 14.23
12/7/2020 5:30:00 PM 2.47 36.446 0.188 8.53 5.8 14.18
12/7/2020 5:45:00 PM 2.44 36.392 0.188 8.53 5.97 14.14
12/7/2020 6:00:00 PM 2.41 36.338 0.189 8.5 5.66 14.09
12/7/2020 6:15:00 PM 2.38 36.284 0.189 8.51 5.64 14.05
12/7/2020 6:30:00 PM 2.35 36.23 0.189 8.49 5.49 14.02
12/7/2020 6:45:00 PM 2.32 36.176 0.189 8.49 5.6 13.98
12/7/2020 7:00:00 PM 2.3 36.14 0.189 8.48 5.47 13.94
12/7/2020 7:15:00 PM 2.28 36.104 0.189 8.44 5.46 13.9
12/7/2020 7:30:00 PM 2.27 36.086 0.189 8.45 5.62 13.87
12/7/2020 7:45:00 PM 2.25 36.05 0.189 8.43 5.55 13.85
12/7/2020 8:00:00 PM 2.23 36.014 0.189 8.45 5.52 13.82
12/7/2020 8:15:00 PM 2.22 35.996 0.189 8.44 5.46 13.79
12/7/2020 8:30:00 PM 2.21 35.978 0.189 8.42 5.57 13.76
12/7/2020 8:45:00 PM 2.2 35.96 0.189 8.4 5.72 13.75
12/7/2020 9:00:00 PM 2.19 35.942 0.189 8.4 5.67 13.74
12/7/2020 9:15:00 PM 2.18 35.924 0.189 8.39 5.66 13.72
12/7/2020 9:30:00 PM 2.17 35.906 0.189 8.4 8.76 13.72
12/7/2020 9:45:00 PM 2.17 35.906 0.189 8.4 5.83 13.71
12/7/2020 10:00:00 PM 2.16 35.888 0.189 8.41 5.73 13.69
12/7/2020 10:15:00 PM 2.15 35.87 0.189 8.4 5.79 13.7
12/7/2020 10:30:00 PM 2.24 36.032 0.189 8.43 7.5 13.63
12/7/2020 10:45:00 PM 2.15 35.87 0.189 8.39 5.84 13.72
12/7/2020 11:00:00 PM 2.14 35.852 0.189 8.4 5.78 13.72
12/7/2020 11:15:00 PM 2.13 35.834 0.189 8.41 5.75 13.72
12/7/2020 11:30:00 PM 2.13 35.834 0.189 8.39 5.82 13.74
12/7/2020 11:45:00 PM 2.12 35.816 0.189 8.43 5.69 13.74
12/8/2020 12:00:00 AM 2.12 35.816 0.189 8.42 6.12 13.75
12/8/2020 12:15:00 AM 2.12 35.816 0.189 8.41 5.82 13.75
12/8/2020 12:30:00 AM 2.11 35.798 0.189 8.42 5.91 13.75
12/8/2020 12:45:00 AM 2.11 35.798 0.189 8.41 5.79 13.76
12/8/2020 1:00:00 AM 2.1 35.78 0.189 8.42 5.79 13.76
12/8/2020 1:15:00 AM 2.1 35.78 0.189 8.41 5.84 13.77
12/8/2020 1:30:00 AM 2.07 35.726 0.189 8.39 6 13.76
12/8/2020 1:45:00 AM 2.07 35.726 0.189 8.4 5.87 13.77
12/8/2020 2:00:00 AM 2.05 35.69 0.189 8.42 7.86 13.78
12/8/2020 2:15:00 AM 2.04 35.672 0.189 8.41 6.25 13.79
12/8/2020 2:30:00 AM 2.04 35.672 0.189 8.42 5.91 13.79
12/8/2020 2:45:00 AM 2.03 35.654 0.189 8.4 5.99 13.79
12/8/2020 3:00:00 AM 2.01 35.618 0.189 8.4 5.89 13.8
12/8/2020 3:15:00 AM 2 35.6 0.189 8.4 6.37 13.81
12/8/2020 3:30:00 AM 1.99 35.582 0.189 8.4 6.53 13.82
12/8/2020 3:45:00 AM 1.98 35.564 0.189 8.39 5.96 13.82
12/8/2020 4:00:00 AM 1.96 35.528 0.189 8.38 5.78 13.83
12/8/2020 4:15:00 AM 1.95 35.51 0.189 8.38 5.58 13.83
12/8/2020 4:30:00 AM 1.94 35.492 0.189 8.37 5.69 13.84
12/8/2020 4:45:00 AM 1.94 35.492 0.189 8.37 5.68 13.84
12/8/2020 5:00:00 AM 1.92 35.456 0.189 8.38 5.65 13.84
12/8/2020 5:15:00 AM 1.92 35.456 0.189 8.37 5.63 13.84
12/8/2020 5:30:00 AM 1.91 35.438 0.189 8.35 5.71 13.84
12/8/2020 5:45:00 AM 1.9 35.42 0.189 8.35 5.6 13.84
12/8/2020 6:00:00 AM 1.89 35.402 0.189 8.35 5.6 13.84
12/8/2020 6:15:00 AM 1.88 35.384 0.189 8.34 5.59 13.83
12/8/2020 6:30:00 AM 1.88 35.384 0.189 8.35 14.13 13.82
12/8/2020 6:45:00 AM 1.88 35.384 0.189 8.36 5.71 13.81
12/8/2020 7:00:00 AM 1.87 35.366 0.189 8.37 5.58 13.8
12/8/2020 7:15:00 AM 1.86 35.348 0.189 8.42 5.63 13.79
12/8/2020 7:30:00 AM 1.85 35.33 0.189 8.44 5.51 13.8
12/8/2020 7:45:00 AM 1.84 35.312 0.189 8.44 5.66 13.79
12/8/2020 8:00:00 AM 1.83 35.294 0.189 8.44 5.79 13.8
12/8/2020 8:15:00 AM 1.82 35.276 0.19 8.46 5.68 13.79
12/8/2020 8:30:00 AM 1.81 35.258 0.19 8.47 5.74 13.81
12/8/2020 8:45:00 AM 1.81 35.258 0.19 8.48 5.92 13.81
12/8/2020 9:00:00 AM 1.81 35.258 0.19 8.5 5.94 13.83
12/8/2020 9:15:00 AM 1.82 35.276 0.19 8.53 6.36 13.85
12/8/2020 9:30:00 AM 1.82 35.276 0.19 8.52 5.99 13.9
12/8/2020 9:45:00 AM 1.82 35.276 0.19 8.56 5.92 13.93
12/8/2020 10:00:00 AM 1.83 35.294 0.189 8.55 5.9 13.98
12/8/2020 10:15:00 AM 1.85 35.33 0.189 8.59 5.84 14.03
12/8/2020 10:30:00 AM 1.86 35.348 0.189 8.58 5.99 14.07
12/8/2020 10:45:00 AM 1.88 35.384 0.189 8.59 6.06 14.13
12/8/2020 11:00:00 AM 1.91 35.438 0.189 8.62 6.08 14.17
12/8/2020 11:15:00 AM 1.95 35.51 0.189 8.63 6.59 14.21
12/8/2020 11:30:00 AM 1.98 35.564 0.189 8.63 6.37 14.26
12/8/2020 11:45:00 AM 2.01 35.618 0.189 8.66 6.17 14.3
12/8/2020 12:00:00 PM 2.03 35.654 0.189 8.64 5.74 14.34
12/8/2020 12:15:00 PM 2.06 35.708 0.189 8.66 5.73 14.39
12/8/2020 12:30:00 PM 2.09 35.762 0.189 8.69 5.56 14.43
12/8/2020 12:45:00 PM 2.09 35.762 0.189 8.68 5.59 14.46
12/8/2020 1:00:00 PM 2.09 35.762 0.189 8.68 5.65 14.51
12/8/2020 1:15:00 PM 2.11 35.798 0.189 8.69 5.62 14.55
12/8/2020 1:30:00 PM 2.12 35.816 0.189 8.72 5.6 14.59
12/8/2020 1:45:00 PM 2.15 35.87 0.189 8.74 5.69 14.62
12/8/2020 2:00:00 PM 2.2 35.96 0.189 8.76 5.81 14.65
12/8/2020 2:15:00 PM 2.26 36.068 0.189 8.75 5.68 14.69
12/8/2020 2:30:00 PM 2.3 36.14 0.189 8.77 5.74 14.72
12/8/2020 2:45:00 PM 2.32 36.176 0.189 8.78 5.63 14.75
12/8/2020 3:00:00 PM 2.33 36.194 0.189 8.8 5.66 14.77
12/8/2020 3:15:00 PM 2.33 36.194 0.189 8.81 5.73 14.78
12/8/2020 3:30:00 PM 2.3 36.14 0.189 8.81 5.78 14.81
12/8/2020 3:45:00 PM 2.27 36.086 0.189 8.79 5.69 14.81
12/8/2020 4:00:00 PM 2.23 36.014 0.189 8.81 5.74 14.8
12/8/2020 4:15:00 PM 2.17 35.906 0.19 8.76 6.35 14.78
12/8/2020 4:30:00 PM 2.12 35.816 0.19 8.76 5.66 14.74
12/8/2020 4:45:00 PM 2.06 35.708 0.19 8.71 5.71 14.7
12/8/2020 5:00:00 PM 2 35.6 0.19 8.67 5.63 14.66
12/8/2020 5:15:00 PM 1.95 35.51 0.19 8.67 5.66 14.62
12/8/2020 5:30:00 PM 1.9 35.42 0.19 8.63 5.69 14.57
12/8/2020 5:45:00 PM 1.85 35.33 0.19 8.61 5.64 14.5
12/8/2020 6:00:00 PM 1.81 35.258 0.19 8.6 5.75 14.47
12/8/2020 6:15:00 PM 1.77 35.186 0.19 8.59 6.09 14.42
12/8/2020 6:30:00 PM 1.74 35.132 0.19 8.59 5.91 14.37
12/8/2020 6:45:00 PM 1.71 35.078 0.19 8.56 5.69 14.34
12/8/2020 7:00:00 PM 1.67 35.006 0.19 8.53 5.64 14.31
12/8/2020 7:15:00 PM 1.65 34.97 0.19 8.51 5.6 14.27
12/8/2020 7:30:00 PM 1.63 34.934 0.191 8.5 5.62 14.23
12/8/2020 7:45:00 PM 1.6 34.88 0.191 8.48 5.88 14.19
12/8/2020 8:00:00 PM 1.58 34.844 0.191 8.47 5.71 14.16
12/8/2020 8:15:00 PM 1.55 34.79 0.191 8.47 5.93 14.13
12/8/2020 8:30:00 PM 1.53 34.754 0.191 8.49 5.73 14.1
12/8/2020 8:45:00 PM 1.51 34.718 0.191 8.5 5.66 14.06
12/8/2020 9:00:00 PM 1.49 34.682 0.191 8.51 5.69 14.04
12/8/2020 9:15:00 PM 1.47 34.646 0.191 8.49 5.69 14.03
12/8/2020 9:30:00 PM 1.47 34.646 0.191 8.54 5.79 14.02
12/8/2020 9:45:00 PM 1.47 34.646 0.191 8.53 5.68 13.99
12/8/2020 10:00:00 PM 1.46 34.628 0.191 8.5 5.8 13.99
12/8/2020 10:15:00 PM 1.47 34.646 0.191 8.55 5.66 13.97
12/8/2020 10:30:00 PM 1.56 34.808 0.191 8.56 6.71 13.89
12/8/2020 10:45:00 PM 1.49 34.682 0.191 8.54 5.68 13.97
12/8/2020 11:00:00 PM 1.5 34.7 0.19 8.54 5.6 13.96
12/8/2020 11:15:00 PM 1.5 34.7 0.19 8.55 5.73 13.96
12/8/2020 11:30:00 PM 1.51 34.718 0.19 8.55 5.7 13.96
12/8/2020 11:45:00 PM 1.52 34.736 0.19 8.57 5.68 13.97
12/9/2020 12:00:00 AM 1.53 34.754 0.19 8.57 5.74 13.96
12/9/2020 12:15:00 AM 1.53 34.754 0.19 8.61 5.7 13.96
12/9/2020 12:30:00 AM 1.54 34.772 0.19 8.6 5.66 13.97
12/9/2020 12:45:00 AM 1.55 34.79 0.19 8.61 5.68 13.97
12/9/2020 1:00:00 AM 1.55 34.79 0.19 8.61 5.7 13.97
12/9/2020 1:15:00 AM 1.56 34.808 0.19 8.61 5.74 13.98
12/9/2020 1:30:00 AM 1.57 34.826 0.19 8.64 5.79 13.98
12/9/2020 1:45:00 AM 1.57 34.826 0.19 8.62 8.97 13.99
12/9/2020 2:00:00 AM 1.58 34.844 0.19 8.61 6.42 13.98
12/9/2020 2:15:00 AM 1.59 34.862 0.19 8.62 5.97 13.98
12/9/2020 2:30:00 AM 1.6 34.88 0.19 8.59 5.99 13.99
12/9/2020 2:45:00 AM 1.61 34.898 0.19 8.6 5.83 14
12/9/2020 3:00:00 AM 1.62 34.916 0.19 8.58 5.67 13.98
12/9/2020 3:15:00 AM 1.63 34.934 0.19 8.57 5.85 13.99
12/9/2020 3:30:00 AM 1.65 34.97 0.19 8.55 5.7 13.98
12/9/2020 3:45:00 AM 1.67 35.006 0.19 8.55 5.58 13.98
12/9/2020 4:00:00 AM 1.74 35.132 0.191 8.55 5.64 13.92
12/9/2020 4:15:00 AM 1.71 35.078 0.19 8.53 5.68 13.96
12/9/2020 4:30:00 AM 1.76 35.168 0.191 8.56 5.67 13.96
12/9/2020 4:45:00 AM 1.68 35.024 0.19 8.56 5.75 13.99
12/9/2020 5:00:00 AM 1.68 35.024 0.19 8.54 6.2 14
12/9/2020 5:15:00 AM 1.69 35.042 0.19 8.57 6.06 14
12/9/2020 5:30:00 AM 1.69 35.042 0.19 8.56 5.99 14
12/9/2020 5:45:00 AM 1.69 35.042 0.19 8.56 6.02 14
12/9/2020 6:00:00 AM 1.69 35.042 0.19 8.57 5.78 14
12/9/2020 6:15:00 AM 1.69 35.042 0.19 8.57 5.91 14
12/9/2020 6:30:00 AM 1.68 35.024 0.19 8.6 5.81 14
12/9/2020 6:45:00 AM 1.68 35.024 0.19 8.6 5.6 14.01
12/9/2020 7:00:00 AM 1.68 35.024 0.19 8.57 5.66 13.99
12/9/2020 7:15:00 AM 1.67 35.006 0.19 8.56 5.54 13.99
12/9/2020 7:30:00 AM 1.66 34.988 0.19 8.55 5.59 13.98
12/9/2020 7:45:00 AM 1.66 34.988 0.19 8.53 5.98 13.98
12/9/2020 8:00:00 AM 1.64 34.952 0.19 8.51 5.64 13.97
12/9/2020 8:15:00 AM 1.61 34.898 0.19 8.51 6.49 13.98
12/9/2020 8:30:00 AM 1.58 34.844 0.19 8.49 6.1 13.98
12/9/2020 8:45:00 AM 1.52 34.736 0.19 8.48 14.25 13.98
12/9/2020 9:00:00 AM 1.46 34.628 0.19 8.46 16.76 13.99
12/9/2020 9:15:00 AM 1.43 34.574 0.19 8.47 8.95 14
12/9/2020 9:30:00 AM 1.41 34.538 0.19 8.49 11.61 14.04
12/9/2020 9:45:00 AM 1.39 34.502 0.19 8.5 7.18 14.06
12/9/2020 10:00:00 AM 1.36 34.448 0.19 8.49 15.84 14.1
12/9/2020 10:15:00 AM 1.36 34.448 0.19 8.51 15.55 14.15
12/9/2020 10:30:00 AM 1.37 34.466 0.19 8.55 10.58 14.19
12/9/2020 10:45:00 AM 1.4 34.52 0.189 8.58 6.74 14.24
12/9/2020 11:00:00 AM 1.42 34.556 0.189 8.6 6.06 14.29
12/9/2020 11:15:00 AM 1.45 34.61 0.189 8.63 5.86 14.34
12/9/2020 11:30:00 AM 1.47 34.646 0.189 8.63 5.94 14.39
12/9/2020 11:45:00 AM 1.49 34.682 0.189 8.65 5.77 14.42
12/9/2020 12:00:00 PM 1.5 34.7 0.189 8.65 5.82 14.48
12/9/2020 12:15:00 PM 1.53 34.754 0.189 8.68 5.95 14.51
12/9/2020 12:30:00 PM 1.56 34.808 0.189 8.68 6.06 14.55
12/9/2020 12:45:00 PM 1.57 34.826 0.189 8.69 5.93 14.6
12/9/2020 1:00:00 PM 1.58 34.844 0.189 8.7 5.94 14.63
12/9/2020 1:15:00 PM 1.59 34.862 0.19 8.7 5.99 14.66
12/9/2020 1:30:00 PM 1.62 34.916 0.191 8.72 5.9 14.7
12/9/2020 1:45:00 PM 1.62 34.916 0.194 8.73 6.07 14.73
12/9/2020 2:00:00 PM 1.63 34.934 0.197 8.76 6.05 14.75
12/9/2020 2:15:00 PM 1.65 34.97 0.2 8.8 5.92 14.78
12/9/2020 2:30:00 PM 1.65 34.97 0.202 8.85 6 14.79
12/9/2020 2:45:00 PM 1.65 34.97 0.203 8.89 6.02 14.79
12/9/2020 3:00:00 PM 1.66 34.988 0.203 8.91 5.87 14.81
12/9/2020 3:15:00 PM 1.66 34.988 0.202 8.91 6.18 14.79
12/9/2020 3:30:00 PM 1.66 34.988 0.202 8.94 6.29 14.75
12/9/2020 3:45:00 PM 1.66 34.988 0.201 8.91 6.25 14.72
12/9/2020 4:00:00 PM 1.66 34.988 0.201 8.92 6.28 14.69
12/9/2020 4:15:00 PM 1.65 34.97 0.2 8.9 6.04 14.64
12/9/2020 4:30:00 PM 1.65 34.97 0.199 8.88 6.19 14.6
12/9/2020 4:45:00 PM 1.65 34.97 0.199 8.89 6.27 14.55
12/9/2020 5:00:00 PM 1.64 34.952 0.198 8.87 6.16 14.5
12/9/2020 5:15:00 PM 1.63 34.934 0.197 8.86 6.03 14.46
12/9/2020 5:30:00 PM 1.63 34.934 0.196 8.83 6.28 14.42
12/9/2020 5:45:00 PM 1.62 34.916 0.195 8.81 5.88 14.38
12/9/2020 6:00:00 PM 1.62 34.916 0.195 8.79 6.05 14.33
12/9/2020 6:15:00 PM 1.61 34.898 0.194 8.77 6.04 14.28
12/9/2020 6:30:00 PM 1.6 34.88 0.194 8.73 5.82 14.25
12/9/2020 6:45:00 PM 1.6 34.88 0.193 8.71 6.51 14.21
12/9/2020 7:00:00 PM 1.6 34.88 0.193 8.69 5.73 14.18
12/9/2020 7:15:00 PM 1.59 34.862 0.193 8.67 5.75 14.14
12/9/2020 7:30:00 PM 1.59 34.862 0.193 8.65 7.22 14.1
12/9/2020 7:45:00 PM 1.59 34.862 0.193 8.64 6.38 14.07
12/9/2020 8:00:00 PM 1.6 34.88 0.193 8.67 5.7 14.05
12/9/2020 8:15:00 PM 1.6 34.88 0.193 8.69 5.77 14.02
12/9/2020 8:30:00 PM 1.61 34.898 0.192 8.73 5.71 14
12/9/2020 8:45:00 PM 1.62 34.916 0.192 8.76 5.78 13.99
12/9/2020 9:00:00 PM 1.63 34.934 0.192 8.78 5.81 13.97
12/9/2020 9:15:00 PM 1.64 34.952 0.192 8.83 5.93 13.96
12/9/2020 9:30:00 PM 1.65 34.97 0.192 8.85 5.98 13.94
12/9/2020 9:45:00 PM 1.66 34.988 0.192 8.83 5.83 13.94
12/9/2020 10:00:00 PM 1.67 35.006 0.192 8.82 6.54 13.93
12/9/2020 10:15:00 PM 1.68 35.024 0.192 8.82 5.84 13.92
12/9/2020 10:30:00 PM 2.26 36.068 0.197 8.74 7.06 13.6
12/9/2020 10:45:00 PM 1.7 35.06 0.192 8.82 6 13.91
12/9/2020 11:00:00 PM 1.7 35.06 0.192 8.77 6.05 13.92
12/9/2020 11:15:00 PM 1.71 35.078 0.192 8.78 5.92 13.91
12/9/2020 11:30:00 PM 1.72 35.096 0.192 8.76 5.95 13.92
12/9/2020 11:45:00 PM 1.73 35.114 0.192 8.73 5.99 13.92
12/10/2020 12:00:00 AM 1.73 35.114 0.192 8.76 6.04 13.92
12/10/2020 12:15:00 AM 1.74 35.132 0.193 8.79 5.84 13.93
12/10/2020 12:30:00 AM 1.75 35.15 0.193 8.8 5.8 13.93
12/10/2020 12:45:00 AM 1.75 35.15 0.194 8.8 5.88 13.93
12/10/2020 1:00:00 AM 1.75 35.15 0.194 8.78 5.85 13.93
12/10/2020 1:15:00 AM 1.75 35.15 0.194 8.78 5.77 13.94
12/10/2020 1:30:00 AM 1.76 35.168 0.194 8.78 5.82 13.94
12/10/2020 1:45:00 AM 1.76 35.168 0.194 8.77 5.81 13.95
12/10/2020 2:00:00 AM 1.77 35.186 0.194 8.76 5.86 13.95
12/10/2020 2:15:00 AM 1.77 35.186 0.193 8.71 5.9 13.96
12/10/2020 2:30:00 AM 1.77 35.186 0.193 8.66 5.83 13.96
12/10/2020 2:45:00 AM 1.78 35.204 0.194 8.63 5.88 13.96
12/10/2020 3:00:00 AM 1.78 35.204 0.194 8.59 5.82 13.97
12/10/2020 3:15:00 AM 1.78 35.204 0.195 8.56 5.86 13.97
12/10/2020 3:30:00 AM 1.79 35.222 0.195 8.54 5.93 13.98
12/10/2020 3:45:00 AM 1.79 35.222 0.195 8.49 5.91 13.98
12/10/2020 4:00:00 AM 1.8 35.24 0.195 8.47 5.91 13.98
12/10/2020 4:15:00 AM 1.8 35.24 0.195 8.47 6.1 13.99
12/10/2020 4:30:00 AM 1.8 35.24 0.194 8.44 5.86 13.99
12/10/2020 4:45:00 AM 1.8 35.24 0.194 8.43 5.8 13.99
12/10/2020 5:00:00 AM 1.8 35.24 0.194 8.44 5.86 14
12/10/2020 5:15:00 AM 1.8 35.24 0.193 8.45 5.85 14
12/10/2020 5:30:00 AM 1.81 35.258 0.193 8.47 5.87 14
12/10/2020 5:45:00 AM 1.81 35.258 0.193 8.49 5.84 14
12/10/2020 6:00:00 AM 1.81 35.258 0.193 8.51 5.85 14.01
12/10/2020 6:15:00 AM 1.81 35.258 0.193 8.49 5.82 14
12/10/2020 6:30:00 AM 1.81 35.258 0.193 8.49 5.95 14
12/10/2020 6:45:00 AM 1.81 35.258 0.193 8.48 5.68 14
12/10/2020 7:00:00 AM 1.81 35.258 0.193 8.48 5.81 14
12/10/2020 7:15:00 AM 1.81 35.258 0.193 8.48 5.73 13.99
12/10/2020 7:30:00 AM 1.82 35.276 0.193 8.49 5.72 13.99
12/10/2020 7:45:00 AM 1.82 35.276 0.193 8.48 6.03 13.99
12/10/2020 8:00:00 AM 1.83 35.294 0.193 8.49 5.74 13.99
12/10/2020 8:15:00 AM 1.83 35.294 0.193 8.49 5.76 14
12/10/2020 8:30:00 AM 1.84 35.312 0.193 8.5 5.71 14.01
12/10/2020 8:45:00 AM 1.86 35.348 0.193 8.52 5.96 14.03
12/10/2020 9:00:00 AM 1.88 35.384 0.193 8.51 5.78 14.06
12/10/2020 9:15:00 AM 1.9 35.42 0.192 8.51 5.92 14.1
12/10/2020 9:30:00 AM 1.92 35.456 0.192 8.51 5.91 14.15
12/10/2020 9:45:00 AM 1.95 35.51 0.192 8.53 6.06 14.2
12/10/2020 10:00:00 AM 1.96 35.528 0.192 8.54 5.99 14.26
12/10/2020 10:15:00 AM 1.99 35.582 0.192 8.57 6.13 14.32
12/10/2020 10:30:00 AM 2.05 35.69 0.192 8.59 8.1 14.38
12/10/2020 10:45:00 AM 2.11 35.798 0.192 8.6 6.88 14.44
12/10/2020 11:00:00 AM 2.17 35.906 0.192 8.61 6.5 14.49
12/10/2020 11:15:00 AM 2.23 36.014 0.192 8.61 6.06 14.55
12/10/2020 11:30:00 AM 2.27 36.086 0.192 8.61 6.05 14.59
12/10/2020 11:45:00 AM 2.32 36.176 0.192 8.62 6.16 14.64
12/10/2020 12:00:00 PM 2.37 36.266 0.192 8.65 5.89 14.68
12/10/2020 12:15:00 PM 2.4 36.32 0.192 8.64 5.91 14.72
12/10/2020 12:30:00 PM 2.41 36.338 0.192 8.65 5.99 14.77
12/10/2020 12:45:00 PM 2.44 36.392 0.192 8.65 5.91 14.81
12/10/2020 1:00:00 PM 2.47 36.446 0.192 8.67 5.88 14.86
12/10/2020 1:15:00 PM 2.49 36.482 0.191 8.68 5.94 14.9
12/10/2020 1:30:00 PM 2.51 36.518 0.191 8.69 5.89 14.94
12/10/2020 1:45:00 PM 2.54 36.572 0.191 8.72 5.81 14.97
12/10/2020 2:00:00 PM 2.55 36.59 0.191 8.73 5.68 15.01
12/10/2020 2:15:00 PM 2.57 36.626 0.191 8.75 5.72 15.04
12/10/2020 2:30:00 PM 2.58 36.644 0.191 8.77 5.65 15.06
12/10/2020 2:45:00 PM 2.58 36.644 0.191 8.77 5.68 15.08
12/10/2020 3:00:00 PM 2.59 36.662 0.191 8.79 5.75 15.09
12/10/2020 3:15:00 PM 2.59 36.662 0.191 8.78 5.73 15.09
12/10/2020 3:30:00 PM 2.58 36.644 0.191 8.78 6.16 15.09
12/10/2020 3:45:00 PM 2.57 36.626 0.191 8.77 5.82 15.09
12/10/2020 4:00:00 PM 2.56 36.608 0.191 8.78 5.83 15.07
12/10/2020 4:15:00 PM 2.54 36.572 0.191 8.75 5.72 15.05
12/10/2020 4:30:00 PM 2.52 36.536 0.191 8.72 5.99 15.01
12/10/2020 4:45:00 PM 2.49 36.482 0.191 8.69 5.83 14.96
12/10/2020 5:00:00 PM 2.47 36.446 0.191 8.7 5.9 14.91
12/10/2020 5:15:00 PM 2.44 36.392 0.191 8.69 5.71 14.85
12/10/2020 5:30:00 PM 2.4 36.32 0.191 8.7 5.72 14.79
12/10/2020 5:45:00 PM 2.36 36.248 0.191 8.64 5.8 14.72
12/10/2020 6:00:00 PM 2.32 36.176 0.191 8.61 5.81 14.67
12/10/2020 6:15:00 PM 2.28 36.104 0.191 8.57 6.23 14.61
12/10/2020 6:30:00 PM 2.24 36.032 0.191 8.57 5.77 14.57
12/10/2020 6:45:00 PM 2.2 35.96 0.191 8.53 5.77 14.52
12/10/2020 7:00:00 PM 2.16 35.888 0.192 8.5 5.62 14.48
12/10/2020 7:15:00 PM 2.13 35.834 0.192 8.49 5.65 14.44
12/10/2020 7:30:00 PM 2.1 35.78 0.192 8.48 5.69 14.4
12/10/2020 7:45:00 PM 2.07 35.726 0.192 8.47 5.68 14.36
12/10/2020 8:00:00 PM 2.05 35.69 0.192 8.47 6.01 14.32
12/10/2020 8:15:00 PM 2.02 35.636 0.192 8.46 5.66 14.28
12/10/2020 8:30:00 PM 2 35.6 0.192 8.45 5.67 14.25
12/10/2020 8:45:00 PM 1.98 35.564 0.192 8.44 5.7 14.22
12/10/2020 9:00:00 PM 1.95 35.51 0.192 8.42 5.6 14.19
12/10/2020 9:15:00 PM 1.93 35.474 0.192 8.43 6.04 14.16
12/10/2020 9:30:00 PM 1.91 35.438 0.192 8.51 5.75 14.14
12/10/2020 9:45:00 PM 1.89 35.402 0.192 8.69 5.63 14.12
12/10/2020 10:00:00 PM 1.86 35.348 0.192 8.76 5.66 14.11
12/10/2020 10:15:00 PM 1.84 35.312 0.192 8.77 5.54 14.09
12/10/2020 10:30:00 PM 2.02 35.636 0.194 8.8 7.51 13.89
12/10/2020 10:45:00 PM 1.8 35.24 0.192 8.81 5.74 14.06
12/10/2020 11:00:00 PM 1.78 35.204 0.192 8.75 5.65 14.06
12/10/2020 11:15:00 PM 1.76 35.168 0.193 8.73 5.59 14.06
12/10/2020 11:30:00 PM 1.75 35.15 0.193 8.73 5.6 14.06
12/10/2020 11:45:00 PM 1.73 35.114 0.193 8.66 5.65 14.06
12/11/2020 12:00:00 AM 1.71 35.078 0.193 8.59 5.71 14.07
12/11/2020 12:15:00 AM 1.7 35.06 0.193 8.54 5.75 14.07
12/11/2020 12:30:00 AM 1.68 35.024 0.193 8.54 5.71 14.08
12/11/2020 12:45:00 AM 1.67 35.006 0.193 8.51 5.67 14.09
12/11/2020 1:00:00 AM 1.65 34.97 0.193 8.5 5.67 14.1
12/11/2020 1:15:00 AM 1.64 34.952 0.193 8.49 6 14.1
12/11/2020 1:30:00 AM 1.64 34.952 0.193 8.46 5.97 14.11
12/11/2020 1:45:00 AM 1.62 34.916 0.193 8.44 6.03 14.12
12/11/2020 2:00:00 AM 1.61 34.898 0.193 8.44 5.94 14.13
12/11/2020 2:15:00 AM 1.61 34.898 0.193 8.44 6.11 14.13
12/11/2020 2:30:00 AM 1.61 34.898 0.193 8.44 6.72 14.13
12/11/2020 2:45:00 AM 1.6 34.88 0.193 8.44 6.01 14.14
12/11/2020 3:00:00 AM 1.59 34.862 0.193 8.47 6.5 14.15
12/11/2020 3:15:00 AM 1.58 34.844 0.193 8.46 6.03 14.15
12/11/2020 3:30:00 AM 1.57 34.826 0.193 8.5 6.05 14.15
12/11/2020 3:45:00 AM 1.56 34.808 0.193 8.54 6.25 14.16
12/11/2020 4:00:00 AM 1.55 34.79 0.193 8.57 5.99 14.16
12/11/2020 4:15:00 AM 1.54 34.772 0.193 8.61 5.95 14.17
12/11/2020 4:30:00 AM 1.53 34.754 0.193 8.62 5.93 14.18
12/11/2020 4:45:00 AM 1.52 34.736 0.193 8.6 9.66 14.18
12/11/2020 5:00:00 AM 1.51 34.718 0.193 8.58 6 14.18
12/11/2020 5:15:00 AM 1.5 34.7 0.193 8.57 6.75 14.19
12/11/2020 5:30:00 AM 1.49 34.682 0.193 8.55 6.99 14.19
12/11/2020 5:45:00 AM 1.48 34.664 0.194 8.52 6.45 14.19
12/11/2020 6:00:00 AM 1.48 34.664 0.194 8.5 23.77 14.19
12/11/2020 6:15:00 AM 1.48 34.664 0.194 8.46 5.95 14.2
12/11/2020 6:30:00 AM 1.47 34.646 0.194 8.44 5.7 14.2
12/11/2020 6:45:00 AM 1.46 34.628 0.194 8.43 5.66 14.19
12/11/2020 7:00:00 AM 1.45 34.61 0.194 8.42 5.62 14.2
12/11/2020 7:15:00 AM 1.44 34.592 0.194 8.46 5.66 14.2
12/11/2020 7:30:00 AM 1.43 34.574 0.194 8.43 11.32 14.2
12/11/2020 7:45:00 AM 1.42 34.556 0.194 8.41 11.95 14.2
12/11/2020 8:00:00 AM 1.42 34.556 0.194 8.42 8.79 14.21
12/11/2020 8:15:00 AM 1.42 34.556 0.194 8.42 7.63 14.22
12/11/2020 8:30:00 AM 1.42 34.556 0.194 8.42 5.85 14.25
12/11/2020 8:45:00 AM 1.44 34.592 0.194 8.45 6.08 14.29
12/11/2020 9:00:00 AM 1.46 34.628 0.194 8.47 6.44 14.34
12/11/2020 9:15:00 AM 1.5 34.7 0.194 8.49 6.61 14.4
12/11/2020 9:30:00 AM 1.54 34.772 0.194 8.52 6.04 14.45
12/11/2020 9:45:00 AM 1.59 34.862 0.194 8.52 5.6 14.52
12/11/2020 10:00:00 AM 1.65 34.97 0.194 8.54 5.52 14.57
12/11/2020 10:15:00 AM 1.73 35.114 0.193 8.56 5.4 14.63
12/11/2020 10:30:00 AM 1.81 35.258 0.193 8.59 5.46 14.69
12/11/2020 10:45:00 AM 1.92 35.456 0.193 8.61 5.44 14.74
12/11/2020 11:00:00 AM 2.02 35.636 0.193 8.63 5.75 14.79
12/11/2020 11:15:00 AM 2.11 35.798 0.193 8.64 5.63 14.84
12/11/2020 11:30:00 AM 2.2 35.96 0.193 8.65 6.08 14.88
12/11/2020 11:45:00 AM 2.3 36.14 0.193 8.65 8.18 14.93
12/11/2020 12:00:00 PM 2.4 36.32 0.193 8.66 12.92 14.96
12/11/2020 12:15:00 PM 2.49 36.482 0.193 8.67 7.6 15.01
12/11/2020 12:30:00 PM 2.57 36.626 0.193 8.7 5.84 15.06
12/11/2020 12:45:00 PM 2.67 36.806 0.193 8.71 10.22 15.1
12/11/2020 1:00:00 PM 2.77 36.986 0.193 8.72 7.77 15.15
12/11/2020 1:15:00 PM 2.86 37.148 0.193 8.74 6.62 15.18
12/11/2020 1:30:00 PM 2.97 37.346 0.193 8.76 8.16 15.22
12/11/2020 1:45:00 PM 3.06 37.508 0.192 8.78 8.18 15.25
12/11/2020 2:00:00 PM 3.11 37.598 0.192 8.77 6.27 15.27
12/11/2020 2:15:00 PM 3.17 37.706 0.192 8.78 6.22 15.29
12/11/2020 2:30:00 PM 3.21 37.778 0.192 8.81 6.07 15.31
12/11/2020 2:45:00 PM 3.23 37.814 0.192 8.8 6.09 15.32
12/11/2020 3:00:00 PM 3.25 37.85 0.192 8.81 6.11 15.33
12/11/2020 3:15:00 PM 3.24 37.832 0.192 8.82 6.22 15.33
12/11/2020 3:30:00 PM 3.21 37.778 0.192 8.81 6.05 15.32
12/11/2020 3:45:00 PM 3.18 37.724 0.192 8.8 6.15 15.31
12/11/2020 4:00:00 PM 3.14 37.652 0.193 8.8 6.2 15.3
12/11/2020 4:15:00 PM 3.08 37.544 0.193 8.78 6.24 15.26
12/11/2020 4:30:00 PM 3.03 37.454 0.193 8.76 6.31 15.22
12/11/2020 4:45:00 PM 2.96 37.328 0.193 8.74 6.21 15.16
12/11/2020 5:00:00 PM 2.9 37.22 0.193 8.72 6.17 15.1
12/11/2020 5:15:00 PM 2.84 37.112 0.193 8.7 6.15 15.03
12/11/2020 5:30:00 PM 2.77 36.986 0.193 8.66 9.99 14.96
12/11/2020 5:45:00 PM 2.72 36.896 0.193 8.64 7.71 14.88
12/11/2020 6:00:00 PM 2.67 36.806 0.194 8.61 6.4 14.82
12/11/2020 6:15:00 PM 2.61 36.698 0.194 8.59 6.2 14.76
12/11/2020 6:30:00 PM 2.56 36.608 0.194 8.57 6.08 14.71
12/11/2020 6:45:00 PM 2.5 36.5 0.194 8.57 9.52 14.65
12/11/2020 7:00:00 PM 2.45 36.41 0.194 8.55 6.54 14.61
12/11/2020 7:15:00 PM 2.4 36.32 0.194 8.52 6.85 14.56
12/11/2020 7:30:00 PM 2.36 36.248 0.194 8.49 6.37 14.52
12/11/2020 7:45:00 PM 2.31 36.158 0.194 8.46 6.64 14.47
12/11/2020 8:00:00 PM 2.28 36.104 0.194 8.45 8 14.43
12/11/2020 8:15:00 PM 2.24 36.032 0.194 8.45 6.31 14.39
12/11/2020 8:30:00 PM 2.21 35.978 0.194 8.46 6.19 14.35
12/11/2020 8:45:00 PM 2.18 35.924 0.194 8.44 6.27 14.31
12/11/2020 9:00:00 PM 2.16 35.888 0.194 8.42 6.24 14.28
12/11/2020 9:15:00 PM 2.14 35.852 0.194 8.4 6.27 14.24
12/11/2020 9:30:00 PM 2.11 35.798 0.195 8.38 6.3 14.21
12/11/2020 9:45:00 PM 2.1 35.78 0.195 8.38 6.31 14.19
12/11/2020 10:00:00 PM 2.08 35.744 0.195 8.37 6.34 14.17
12/11/2020 10:15:00 PM 2.07 35.726 0.195 8.37 6.32 14.15
12/11/2020 10:30:00 PM 2.25 36.05 0.196 8.4 9.82 13.96
12/11/2020 10:45:00 PM 2.06 35.708 0.195 8.41 6.51 14.12
12/11/2020 11:00:00 PM 2.05 35.69 0.195 8.4 6.5 14.12
12/11/2020 11:15:00 PM 2.05 35.69 0.195 8.38 6.66 14.12
12/11/2020 11:30:00 PM 2.05 35.69 0.195 8.39 6.71 14.11
12/11/2020 11:45:00 PM 2.04 35.672 0.195 8.38 8.22 14.1
12/12/2020 12:00:00 AM 2.04 35.672 0.195 8.37 6.74 14.11
12/12/2020 12:15:00 AM 2.04 35.672 0.195 8.41 8.15 14.11
12/12/2020 12:30:00 AM 2.04 35.672 0.195 8.4 6.42 14.12
12/12/2020 12:45:00 AM 2.03 35.654 0.195 8.4 6.43 14.12
12/12/2020 1:00:00 AM 2.03 35.654 0.195 8.39 6.42 14.13
12/12/2020 1:15:00 AM 2.02 35.636 0.195 8.38 6.48 14.14
12/12/2020 1:30:00 AM 2.01 35.618 0.195 8.38 6.34 14.14
12/12/2020 1:45:00 AM 2.01 35.618 0.195 8.38 6.47 14.15
12/12/2020 2:00:00 AM 2.01 35.618 0.195 8.4 7.28 14.15
12/12/2020 2:15:00 AM 2 35.6 0.195 8.41 6.99 14.16
12/12/2020 2:30:00 AM 2 35.6 0.195 8.4 6.39 14.16
12/12/2020 2:45:00 AM 2 35.6 0.195 8.4 7.35 14.16
12/12/2020 3:00:00 AM 2.01 35.618 0.195 8.41 9.77 14.17
12/12/2020 3:15:00 AM 2.01 35.618 0.195 8.39 6.58 14.17
12/12/2020 3:30:00 AM 2.01 35.618 0.195 8.42 6.53 14.17
12/12/2020 3:45:00 AM 2.02 35.636 0.195 8.42 6.39 14.17
12/12/2020 4:00:00 AM 2.01 35.618 0.195 8.4 6.69 14.17
12/12/2020 4:15:00 AM 2 35.6 0.195 8.4 6.42 14.17
12/12/2020 4:30:00 AM 2.01 35.618 0.195 8.39 6.36 14.17
12/12/2020 4:45:00 AM 2.01 35.618 0.195 8.4 6.78 14.17
12/12/2020 5:00:00 AM 2.01 35.618 0.195 8.41 7.87 14.17
12/12/2020 5:15:00 AM 2 35.6 0.195 8.4 6.4 14.17
12/12/2020 5:30:00 AM 2 35.6 0.195 8.42 6.32 14.17
12/12/2020 5:45:00 AM 2 35.6 0.195 8.41 6.28 14.17
12/12/2020 6:00:00 AM 2 35.6 0.195 8.4 6.41 14.18
12/12/2020 6:15:00 AM 1.98 35.564 0.195 8.4 6.48 14.18
12/12/2020 6:30:00 AM 1.98 35.564 0.195 8.41 21.13 14.17
12/12/2020 6:45:00 AM 1.98 35.564 0.195 8.39 9.22 14.15
12/12/2020 7:00:00 AM 1.98 35.564 0.195 8.42 5.61 14.17
12/12/2020 7:15:00 AM 1.98 35.564 0.195 8.45 5.71 14.17
12/12/2020 7:30:00 AM 1.98 35.564 0.195 8.45 6.35 14.17
12/12/2020 7:45:00 AM 1.99 35.582 0.195 8.46 7.19 14.17
12/12/2020 8:00:00 AM 1.99 35.582 0.195 8.49 5.88 14.16
12/12/2020 8:15:00 AM 2 35.6 0.195 8.6 5.7 14.17
12/12/2020 8:30:00 AM 2 35.6 0.195 8.64 5.69 14.17
12/12/2020 8:45:00 AM 2.02 35.636 0.195 8.66 5.65 14.19
12/12/2020 9:00:00 AM 2.03 35.654 0.195 8.68 5.72 14.21
12/12/2020 9:15:00 AM 2.05 35.69 0.195 8.74 5.83 14.24
12/12/2020 9:30:00 AM 2.08 35.744 0.195 8.77 5.85 14.28
12/12/2020 9:45:00 AM 2.1 35.78 0.195 8.79 5.81 14.34
12/12/2020 10:00:00 AM 2.14 35.852 0.195 8.79 6.09 14.38
12/12/2020 10:15:00 AM 2.18 35.924 0.195 8.76 6.24 14.45
12/12/2020 10:30:00 AM 2.21 35.978 0.195 8.76 6.26 14.52
12/12/2020 10:45:00 AM 2.26 36.068 0.195 8.77 6.13 14.58
12/12/2020 11:00:00 AM 2.3 36.14 0.195 8.77 5.92 14.64
12/12/2020 11:15:00 AM 2.43 36.374 0.197 8.78 20.54 14.68
12/12/2020 11:30:00 AM 2.36 36.248 0.195 8.77 6.11 14.73
12/12/2020 11:45:00 AM 2.39 36.302 0.195 8.8 5.97 14.79
12/12/2020 12:00:00 PM 2.41 36.338 0.195 8.79 6.05 14.82
12/12/2020 12:15:00 PM 2.43 36.374 0.195 8.78 6.23 14.85
12/12/2020 12:30:00 PM 2.45 36.41 0.194 8.74 6.6 14.89
12/12/2020 12:45:00 PM 2.46 36.428 0.194 8.77 6.78 14.92
12/12/2020 1:00:00 PM 2.48 36.464 0.194 8.81 6.63 14.96
12/12/2020 1:15:00 PM 2.51 36.518 0.194 8.81 6.36 15
12/12/2020 1:30:00 PM 2.55 36.59 0.194 8.81 6.43 15.02
12/12/2020 1:45:00 PM 2.59 36.662 0.194 8.82 6.44 15.06
12/12/2020 2:00:00 PM 2.63 36.734 0.194 8.79 6.52 15.09
12/12/2020 2:15:00 PM 2.68 36.824 0.194 8.77 6.51 15.12
12/12/2020 2:30:00 PM 2.71 36.878 0.194 8.76 6.43 15.15
12/12/2020 2:45:00 PM 2.74 36.932 0.194 8.79 6.52 15.17
12/12/2020 3:00:00 PM 2.77 36.986 0.194 8.81 6.78 15.19
12/12/2020 3:15:00 PM 2.8 37.04 0.194 8.83 6.87 15.2
12/12/2020 3:30:00 PM 2.82 37.076 0.194 8.83 7.18 15.19
12/12/2020 3:45:00 PM 2.84 37.112 0.194 8.83 6.42 15.16
12/12/2020 4:00:00 PM 2.84 37.112 0.194 8.85 6.31 15.14
12/12/2020 4:15:00 PM 2.85 37.13 0.194 8.9 6.33 15.1
12/12/2020 4:30:00 PM 2.85 37.13 0.194 8.93 7.15 15.04
12/12/2020 4:45:00 PM 2.85 37.13 0.194 8.93 6.65 14.97
12/12/2020 5:00:00 PM 2.86 37.148 0.194 8.9 6.62 14.91
12/12/2020 5:15:00 PM 2.85 37.13 0.195 8.9 6.19 14.83
12/12/2020 5:30:00 PM 2.85 37.13 0.195 8.85 5.99 14.76
12/12/2020 5:45:00 PM 2.83 37.094 0.195 8.83 5.88 14.69
12/12/2020 6:00:00 PM 2.84 37.112 0.195 8.84 5.9 14.62
12/12/2020 6:15:00 PM 2.83 37.094 0.195 8.8 5.84 14.56
12/12/2020 6:30:00 PM 2.83 37.094 0.195 8.77 5.78 14.5
12/12/2020 6:45:00 PM 2.82 37.076 0.195 8.76 6.25 14.45
12/12/2020 7:00:00 PM 2.82 37.076 0.195 8.74 6.06 14.4
12/12/2020 7:15:00 PM 2.81 37.058 0.195 8.73 8.17 14.35
12/12/2020 7:30:00 PM 2.8 37.04 0.195 8.76 5.86 14.31
12/12/2020 7:45:00 PM 2.79 37.022 0.195 8.72 5.85 14.26
12/12/2020 8:00:00 PM 2.79 37.022 0.195 8.71 5.75 14.22
12/12/2020 8:15:00 PM 2.78 37.004 0.195 8.7 5.82 14.18
12/12/2020 8:30:00 PM 2.79 37.022 0.195 8.69 5.67 14.14
12/12/2020 8:45:00 PM 2.79 37.022 0.195 8.65 6.01 14.1
12/12/2020 9:00:00 PM 2.79 37.022 0.195 8.65 6.13 14.07
12/12/2020 9:15:00 PM 2.78 37.004 0.195 8.61 5.91 14.04
12/12/2020 9:30:00 PM 2.79 37.022 0.195 8.63 5.82 14.01
12/12/2020 9:45:00 PM 2.78 37.004 0.195 8.62 5.82 13.99
12/12/2020 10:00:00 PM 2.78 37.004 0.195 8.6 5.7 13.96
12/12/2020 10:15:00 PM 2.79 37.022 0.195 8.62 5.87 13.94
12/12/2020 10:30:00 PM 2.79 37.022 0.195 8.58 5.77 13.92
12/12/2020 10:45:00 PM 2.79 37.022 0.195 8.59 5.84 13.9
12/12/2020 11:00:00 PM 2.79 37.022 0.195 8.57 5.82 13.89
12/12/2020 11:15:00 PM 2.8 37.04 0.195 8.56 5.88 13.88
12/12/2020 11:30:00 PM 2.82 37.076 0.195 8.56 5.78 13.87
12/12/2020 11:45:00 PM 2.82 37.076 0.195 8.54 5.9 13.86
12/13/2020 12:00:00 AM 2.82 37.076 0.195 8.55 5.93 13.86
12/13/2020 12:15:00 AM 2.82 37.076 0.195 8.52 6.06 13.85
12/13/2020 12:30:00 AM 2.83 37.094 0.195 8.51 5.85 13.85
12/13/2020 12:45:00 AM 2.83 37.094 0.195 8.5 5.75 13.85
12/13/2020 1:00:00 AM 2.84 37.112 0.195 8.53 5.82 13.84
12/13/2020 1:15:00 AM 2.85 37.13 0.195 8.51 6.5 13.84
12/13/2020 1:30:00 AM 2.87 37.166 0.195 8.49 5.9 13.84
12/13/2020 1:45:00 AM 2.89 37.202 0.194 8.5 5.8 13.84
12/13/2020 2:00:00 AM 2.91 37.238 0.194 8.53 5.77 13.83
12/13/2020 2:15:00 AM 2.93 37.274 0.194 8.51 6.57 13.83
12/13/2020 2:30:00 AM 2.95 37.31 0.194 8.51 5.61 13.83
12/13/2020 2:45:00 AM 2.95 37.31 0.194 8.6 5.62 13.83
12/13/2020 3:00:00 AM 2.96 37.328 0.194 8.7 5.62 13.82
12/13/2020 3:15:00 AM 2.97 37.346 0.194 8.8 5.52 13.82
12/13/2020 3:30:00 AM 2.99 37.382 0.194 8.89 5.53 13.82
12/13/2020 3:45:00 AM 3 37.4 0.194 8.94 5.56 13.81
12/13/2020 4:00:00 AM 3.02 37.436 0.194 9 5.56 13.8
12/13/2020 4:15:00 AM 3.04 37.472 0.194 9.09 5.54 13.8
12/13/2020 4:30:00 AM 3.06 37.508 0.194 9.09 5.57 13.79
12/13/2020 4:45:00 AM 3.07 37.526 0.194 9.01 5.55 13.79
12/13/2020 5:00:00 AM 3.09 37.562 0.194 9 5.51 13.78
12/13/2020 5:15:00 AM 3.1 37.58 0.194 8.89 5.5 13.78
12/13/2020 5:30:00 AM 3.19 37.742 0.195 8.88 6.33 13.69
12/13/2020 5:45:00 AM 3.1 37.58 0.194 8.74 5.59 13.77
12/13/2020 6:00:00 AM 3.1 37.58 0.194 8.68 5.57 13.76
12/13/2020 6:15:00 AM 3.09 37.562 0.194 8.63 5.59 13.75
12/13/2020 6:30:00 AM 3.08 37.544 0.194 8.57 10.47 13.75
12/13/2020 6:45:00 AM 3.07 37.526 0.194 8.53 6.46 13.75
12/13/2020 7:00:00 AM 3.06 37.508 0.194 8.52 5.58 13.75
12/13/2020 7:15:00 AM 3.06 37.508 0.194 8.51 5.49 13.74
12/13/2020 7:30:00 AM 3.06 37.508 0.194 8.52 5.63 13.74
12/13/2020 7:45:00 AM 3.07 37.526 0.194 8.53 5.5 13.74
12/13/2020 8:00:00 AM 3.09 37.562 0.194 8.47 5.51 13.74
12/13/2020 8:15:00 AM 3.12 37.616 0.194 8.49 5.54 13.74
12/13/2020 8:30:00 AM 3.16 37.688 0.194 8.49 5.57 13.76
12/13/2020 8:45:00 AM 3.17 37.706 0.194 8.5 5.59 13.79
12/13/2020 9:00:00 AM 3.22 37.796 0.194 8.51 5.51 13.82
12/13/2020 9:15:00 AM 3.25 37.85 0.194 8.53 5.48 13.87
12/13/2020 9:30:00 AM 3.28 37.904 0.194 8.56 5.51 13.93
12/13/2020 9:45:00 AM 3.31 37.958 0.194 8.58 5.41 13.97
12/13/2020 10:00:00 AM 3.34 38.012 0.194 8.59 5.45 14.03
12/13/2020 10:15:00 AM 3.38 38.084 0.194 8.62 5.46 14.1
12/13/2020 10:30:00 AM 3.41 38.138 0.194 8.62 5.44 14.16
12/13/2020 10:45:00 AM 3.47 38.246 0.194 8.66 6.2 14.21
12/13/2020 11:00:00 AM 3.51 38.318 0.194 8.68 5.39 14.26
12/13/2020 11:15:00 AM 3.56 38.408 0.194 8.69 5.64 14.31
12/13/2020 11:30:00 AM 3.6 38.48 0.194 8.72 5.51 14.38
12/13/2020 11:45:00 AM 3.66 38.588 0.194 8.74 5.77 14.44
12/13/2020 12:00:00 PM 3.68 38.624 0.194 8.74 6.76 14.48
12/13/2020 12:15:00 PM 3.71 38.678 0.194 8.74 6.57 14.53
12/13/2020 12:30:00 PM 3.74 38.732 0.194 8.74 6.08 14.56
12/13/2020 12:45:00 PM 3.78 38.804 0.194 8.75 5.68 14.59
12/13/2020 1:00:00 PM 3.8 38.84 0.194 8.76 5.64 14.61
12/13/2020 1:15:00 PM 3.79 38.822 0.194 8.76 5.46 14.6
12/13/2020 1:30:00 PM 3.81 38.858 0.194 8.76 5.4 14.62
12/13/2020 1:45:00 PM 3.82 38.876 0.194 8.8 5.51 14.64
12/13/2020 2:00:00 PM 3.85 38.93 0.194 8.81 5.32 14.65
12/13/2020 2:15:00 PM 3.86 38.948 0.194 8.82 5.44 14.65
12/13/2020 2:30:00 PM 3.88 38.984 0.194 8.83 5.35 14.67
12/13/2020 2:45:00 PM 3.88 38.984 0.194 8.86 5.42 14.67
12/13/2020 3:00:00 PM 3.87 38.966 0.194 8.87 5.4 14.67
12/13/2020 3:15:00 PM 3.87 38.966 0.194 8.86 5.61 14.68
12/13/2020 3:30:00 PM 3.86 38.948 0.194 8.89 5.59 14.67
12/13/2020 3:45:00 PM 3.85 38.93 0.194 8.89 5.45 14.64
12/13/2020 4:00:00 PM 3.82 38.876 0.194 8.9 5.5 14.6
12/13/2020 4:15:00 PM 3.8 38.84 0.194 8.93 5.43 14.56
12/13/2020 4:30:00 PM 3.77 38.786 0.194 8.92 5.51 14.52
12/13/2020 4:45:00 PM 3.73 38.714 0.195 8.99 5.55 14.45
12/13/2020 5:00:00 PM 3.69 38.642 0.195 9.02 5.54 14.39
12/13/2020 5:15:00 PM 3.65 38.57 0.195 8.93 5.67 14.33
12/13/2020 5:30:00 PM 3.61 38.498 0.195 8.89 5.54 14.26
12/13/2020 5:45:00 PM 3.58 38.444 0.195 8.84 5.77 14.2
12/13/2020 6:00:00 PM 3.55 38.39 0.195 8.81 6.02 14.14
12/13/2020 6:15:00 PM 3.52 38.336 0.195 8.79 6 14.08
12/13/2020 6:30:00 PM 3.49 38.282 0.195 8.76 5.67 14.02
12/13/2020 6:45:00 PM 3.47 38.246 0.196 8.75 5.56 13.96
12/13/2020 7:00:00 PM 3.45 38.21 0.196 8.83 5.43 13.92
12/13/2020 7:15:00 PM 3.43 38.174 0.196 8.91 5.54 13.87
12/13/2020 7:30:00 PM 3.41 38.138 0.196 8.86 5.44 13.83
12/13/2020 7:45:00 PM 3.39 38.102 0.196 8.77 5.43 13.79
12/13/2020 8:00:00 PM 3.38 38.084 0.196 8.75 5.5 13.75
12/13/2020 8:15:00 PM 3.36 38.048 0.196 8.72 5.47 13.72
12/13/2020 8:30:00 PM 3.35 38.03 0.196 8.7 5.5 13.69
12/13/2020 8:45:00 PM 3.33 37.994 0.196 8.7 5.53 13.66
12/13/2020 9:00:00 PM 3.32 37.976 0.196 8.68 5.63 13.63
12/13/2020 9:15:00 PM 3.3 37.94 0.196 8.68 5.48 13.61
12/13/2020 9:30:00 PM 3.29 37.922 0.196 8.66 5.56 13.58
12/13/2020 9:45:00 PM 3.28 37.904 0.196 8.69 5.54 13.56
12/13/2020 10:00:00 PM 3.27 37.886 0.197 8.68 5.64 13.54
12/13/2020 10:15:00 PM 3.26 37.868 0.197 8.65 5.61 13.53
12/13/2020 10:30:00 PM 3.25 37.85 0.197 8.65 5.56 13.52
12/13/2020 10:45:00 PM 3.25 37.85 0.197 8.62 5.69 13.51
12/13/2020 11:00:00 PM 3.24 37.832 0.197 8.64 5.52 13.5
12/13/2020 11:15:00 PM 3.24 37.832 0.197 8.64 6.05 13.49
12/13/2020 11:30:00 PM 3.23 37.814 0.197 8.69 5.75 13.49
12/13/2020 11:45:00 PM 3.36 38.048 0.198 8.67 6.97 13.37
12/14/2020 12:00:00 AM 3.23 37.814 0.197 8.64 5.83 13.48
12/14/2020 12:15:00 AM 3.23 37.814 0.197 8.65 5.7 13.49
12/14/2020 12:30:00 AM 3.22 37.796 0.197 8.67 5.73 13.49
12/14/2020 12:45:00 AM 3.22 37.796 0.198 8.64 5.67 13.49
12/14/2020 1:00:00 AM 3.22 37.796 0.198 8.67 6 13.5
12/14/2020 1:15:00 AM 3.23 37.814 0.198 8.71 5.77 13.49
12/14/2020 1:30:00 AM 3.23 37.814 0.198 8.74 5.69 13.5
12/14/2020 1:45:00 AM 3.23 37.814 0.198 8.7 5.71 13.51
12/14/2020 2:00:00 AM 3.23 37.814 0.198 8.71 5.72 13.5
12/14/2020 2:15:00 AM 3.24 37.832 0.198 8.74 5.59 13.51
12/14/2020 2:30:00 AM 3.24 37.832 0.198 8.67 5.71 13.51
12/14/2020 2:45:00 AM 3.24 37.832 0.199 8.7 5.73 13.51
12/14/2020 3:00:00 AM 3.25 37.85 0.199 8.69 5.73 13.52
12/14/2020 3:15:00 AM 3.25 37.85 0.199 8.71 5.63 13.52
12/14/2020 3:30:00 AM 3.25 37.85 0.199 8.69 10.24 13.51
12/14/2020 3:45:00 AM 3.26 37.868 0.199 8.7 7.06 13.52
12/14/2020 4:00:00 AM 3.26 37.868 0.199 8.71 6.8 13.51
12/14/2020 4:15:00 AM 3.27 37.886 0.199 8.71 5.86 13.52
12/14/2020 4:30:00 AM 3.27 37.886 0.2 8.71 8.72 13.51
12/14/2020 4:45:00 AM 3.28 37.904 0.2 8.68 5.75 13.51
12/14/2020 5:00:00 AM 3.29 37.922 0.2 8.69 5.6 13.52
12/14/2020 5:15:00 AM 3.3 37.94 0.2 8.68 5.74 13.51
12/14/2020 5:30:00 AM 3.3 37.94 0.2 8.66 5.6 13.51
12/14/2020 5:45:00 AM 3.31 37.958 0.2 8.68 6.17 13.51
12/14/2020 6:00:00 AM 3.32 37.976 0.2 8.69 5.73 13.51
12/14/2020 6:15:00 AM 3.32 37.976 0.201 8.66 5.63 13.5
12/14/2020 6:30:00 AM 3.33 37.994 0.201 8.65 5.81 13.5
12/14/2020 6:45:00 AM 3.34 38.012 0.201 8.64 5.63 13.49
12/14/2020 7:00:00 AM 3.34 38.012 0.201 8.66 5.8 13.49
12/14/2020 7:15:00 AM 3.34 38.012 0.201 8.67 5.95 13.48
12/14/2020 7:30:00 AM 3.32 37.976 0.201 8.67 5.68 13.48
12/14/2020 7:45:00 AM 3.31 37.958 0.201 8.69 5.63 13.47
12/14/2020 8:00:00 AM 3.32 37.976 0.201 8.65 5.55 13.46
12/14/2020 8:15:00 AM 3.32 37.976 0.202 8.67 5.59 13.47
12/14/2020 8:30:00 AM 3.32 37.976 0.202 8.65 5.53 13.47
12/14/2020 8:45:00 AM 3.31 37.958 0.202 8.64 5.5 13.48
12/14/2020 9:00:00 AM 3.3 37.94 0.202 8.65 5.66 13.5
12/14/2020 9:15:00 AM 3.3 37.94 0.202 8.63 5.48 13.52
12/14/2020 9:30:00 AM 3.31 37.958 0.202 8.62 5.59 13.56
12/14/2020 9:45:00 AM 3.31 37.958 0.202 8.63 5.61 13.6
12/14/2020 10:00:00 AM 3.33 37.994 0.202 8.65 5.73 13.66
12/14/2020 10:15:00 AM 3.35 38.03 0.202 8.68 5.76 13.71
12/14/2020 10:30:00 AM 3.36 38.048 0.202 8.71 5.73 13.78
12/14/2020 10:45:00 AM 3.38 38.084 0.202 8.68 5.67 13.84
12/14/2020 11:00:00 AM 3.4 38.12 0.202 8.71 5.61 13.9
12/14/2020 11:15:00 AM 3.41 38.138 0.202 8.72 5.59 13.96
12/14/2020 11:30:00 AM 3.43 38.174 0.202 8.73 5.53 14.01
12/14/2020 11:45:00 AM 3.45 38.21 0.202 8.79 5.5 14.06
12/14/2020 12:00:00 PM 3.47 38.246 0.202 8.79 5.52 14.11
12/14/2020 12:15:00 PM 3.48 38.264 0.202 8.78 5.4 14.15
12/14/2020 12:30:00 PM 3.49 38.282 0.203 8.82 5.49 14.18
12/14/2020 12:45:00 PM 3.5 38.3 0.203 8.83 5.47 14.23
12/14/2020 1:00:00 PM 3.51 38.318 0.203 8.82 5.51 14.25
12/14/2020 1:15:00 PM 3.51 38.318 0.203 8.84 5.58 14.27
12/14/2020 1:30:00 PM 3.51 38.318 0.203 8.87 5.72 14.29
12/14/2020 1:45:00 PM 3.52 38.336 0.203 8.85 5.84 14.31
12/14/2020 2:00:00 PM 3.53 38.354 0.203 8.87 6.07 14.33
12/14/2020 2:15:00 PM 3.54 38.372 0.203 8.88 5.68 14.33
12/14/2020 2:30:00 PM 3.55 38.39 0.203 8.89 5.58 14.36
12/14/2020 2:45:00 PM 3.56 38.408 0.203 8.87 5.54 14.38
12/14/2020 3:00:00 PM 3.56 38.408 0.203 8.87 5.46 14.4
12/14/2020 3:15:00 PM 3.56 38.408 0.203 8.89 5.57 14.41
12/14/2020 3:30:00 PM 3.56 38.408 0.203 8.9 5.41 14.42
12/14/2020 3:45:00 PM 3.92 39.056 0.206 8.7 11.03 14.02
12/14/2020 4:00:00 PM 3.56 38.408 0.203 8.87 5.53 14.38
12/14/2020 4:15:00 PM 3.54 38.372 0.203 8.87 5.45 14.36
12/14/2020 4:30:00 PM 3.53 38.354 0.203 8.86 5.5 14.31
12/14/2020 4:45:00 PM 3.52 38.336 0.204 8.84 5.52 14.26
12/14/2020 5:00:00 PM 3.51 38.318 0.204 8.81 5.6 14.19
12/14/2020 5:15:00 PM 3.48 38.264 0.204 8.8 5.51 14.12
12/14/2020 5:30:00 PM 3.45 38.21 0.204 8.77 5.58 14.05
12/14/2020 5:45:00 PM 3.44 38.192 0.204 8.76 5.51 13.98
12/14/2020 6:00:00 PM 3.4 38.12 0.204 8.74 5.69 13.92
12/14/2020 6:15:00 PM 3.37 38.066 0.204 8.73 5.54 13.87
12/14/2020 6:30:00 PM 3.35 38.03 0.204 8.69 5.51 13.81
12/14/2020 6:45:00 PM 3.31 37.958 0.204 8.7 5.63 13.76
12/14/2020 7:00:00 PM 3.28 37.904 0.204 8.67 5.94 13.71
12/14/2020 7:15:00 PM 3.24 37.832 0.204 8.68 6.35 13.67
12/14/2020 7:30:00 PM 3.2 37.76 0.204 8.66 6.65 13.64
12/14/2020 7:45:00 PM 3.18 37.724 0.204 8.65 6.09 13.6
12/14/2020 8:00:00 PM 3.14 37.652 0.204 8.63 6.2 13.56
12/14/2020 8:15:00 PM 3.1 37.58 0.204 8.63 7.38 13.53
12/14/2020 8:30:00 PM 3.07 37.526 0.204 8.62 6.33 13.51
12/14/2020 8:45:00 PM 3.01 37.418 0.205 8.62 6.43 13.48
12/14/2020 9:00:00 PM 2.95 37.31 0.205 8.6 6.32 13.46
12/14/2020 9:15:00 PM 2.9 37.22 0.205 8.58 6.25 13.45
12/14/2020 9:30:00 PM 2.86 37.148 0.205 8.58 6.57 13.44
12/14/2020 9:45:00 PM 2.81 37.058 0.205 8.57 6.21 13.42
12/14/2020 10:00:00 PM 2.76 36.968 0.205 8.56 6.65 13.41
12/14/2020 10:15:00 PM 2.71 36.878 0.205 8.54 6.25 13.4
12/14/2020 10:30:00 PM 2.83 37.094 0.206 8.53 7.35 13.26
12/14/2020 10:45:00 PM 2.61 36.698 0.205 8.55 6.8 13.4
12/14/2020 11:00:00 PM 2.56 36.608 0.205 8.56 6.89 13.39
12/14/2020 11:15:00 PM 2.53 36.554 0.205 8.56 6.46 13.4
12/14/2020 11:30:00 PM 2.48 36.464 0.205 8.56 6.55 13.41
12/14/2020 11:45:00 PM 2.44 36.392 0.205 8.54 6.36 13.42
12/15/2020 12:00:00 AM 2.4 36.32 0.205 8.54 6.4 13.43
12/15/2020 12:15:00 AM 2.36 36.248 0.205 8.53 6.09 13.43
12/15/2020 12:30:00 AM 2.32 36.176 0.205 8.51 6.13 13.45
12/15/2020 12:45:00 AM 2.3 36.14 0.205 8.5 6.05 13.45
12/15/2020 1:00:00 AM 2.28 36.104 0.205 8.51 6.11 13.47
12/15/2020 1:15:00 AM 2.28 36.104 0.205 8.5 6.17 13.48
12/15/2020 1:30:00 AM 2.27 36.086 0.205 8.48 6.43 13.49
12/15/2020 1:45:00 AM 2.26 36.068 0.205 8.49 6.08 13.51
12/15/2020 2:00:00 AM 2.24 36.032 0.205 8.48 6.06 13.51
12/15/2020 2:15:00 AM 2.22 35.996 0.205 8.5 5.96 13.52
12/15/2020 2:30:00 AM 2.2 35.96 0.205 8.49 5.85 13.53
12/15/2020 2:45:00 AM 2.19 35.942 0.205 8.51 5.96 13.54
12/15/2020 3:00:00 AM 2.17 35.906 0.205 8.51 5.89 13.54
12/15/2020 3:15:00 AM 2.16 35.888 0.205 8.54 5.76 13.55
12/15/2020 3:30:00 AM 2.14 35.852 0.205 8.57 5.86 13.57
12/15/2020 3:45:00 AM 2.13 35.834 0.205 8.62 5.91 13.58
12/15/2020 4:00:00 AM 2.13 35.834 0.205 8.61 5.93 13.58
12/15/2020 4:15:00 AM 2.11 35.798 0.205 8.59 5.96 13.59
12/15/2020 4:30:00 AM 2.1 35.78 0.205 8.58 5.89 13.6
12/15/2020 4:45:00 AM 2.09 35.762 0.205 8.58 5.85 13.61
12/15/2020 5:00:00 AM 2.09 35.762 0.205 8.55 5.79 13.61
12/15/2020 5:15:00 AM 2.09 35.762 0.205 8.53 5.88 13.61
12/15/2020 5:30:00 AM 2.09 35.762 0.205 8.53 5.82 13.62
12/15/2020 5:45:00 AM 2.09 35.762 0.205 8.53 5.8 13.62
12/15/2020 6:00:00 AM 2.09 35.762 0.205 8.51 5.86 13.62
12/15/2020 6:15:00 AM 2.08 35.744 0.205 8.49 5.84 13.62
12/15/2020 6:30:00 AM 2.08 35.744 0.205 8.5 9.47 13.63
12/15/2020 6:45:00 AM 2.07 35.726 0.205 8.5 7.17 13.64
12/15/2020 7:00:00 AM 2.06 35.708 0.205 8.48 6.27 13.65
12/15/2020 7:15:00 AM 2.04 35.672 0.205 8.48 6.07 13.65
12/15/2020 7:30:00 AM 2.05 35.69 0.205 8.48 6.06 13.66
12/15/2020 7:45:00 AM 2.05 35.69 0.205 8.47 5.99 13.66
12/15/2020 8:00:00 AM 2.05 35.69 0.205 8.47 5.88 13.67
12/15/2020 8:15:00 AM 2.05 35.69 0.206 8.48 5.88 13.69
12/15/2020 8:30:00 AM 2.05 35.69 0.206 8.5 5.86 13.72
12/15/2020 8:45:00 AM 2.05 35.69 0.206 8.5 5.82 13.76
12/15/2020 9:00:00 AM 2.05 35.69 0.206 8.51 5.93 13.81
12/15/2020 9:15:00 AM 2.06 35.708 0.206 8.52 5.77 13.88
12/15/2020 9:30:00 AM 2.07 35.726 0.206 8.55 5.84 13.95
12/15/2020 9:45:00 AM 2.07 35.726 0.222 7.58 2.39 13.36
12/15/2020 10:00:00 AM 2.09 35.762 0.212 7.66 2.37 13.37
12/15/2020 10:15:00 AM 2.11 35.798 0.208 7.72 2.34 13.41
12/15/2020 10:30:00 AM 2.11 35.798 0.209 7.73 2.41 13.48
12/15/2020 10:45:00 AM 2.1 35.78 0.21 7.74 2.42 13.53
12/15/2020 11:00:00 AM 2.1 35.78 0.211 7.75 3.28 13.59
12/15/2020 11:15:00 AM 2.13 35.834 0.206 7.79 2.42 13.66
12/15/2020 11:30:00 AM 2.17 35.906 0.204 7.81 4.78 13.71
12/15/2020 11:45:00 AM 2.21 35.978 0.206 7.82 5.7 13.78
12/15/2020 12:00:00 PM 2.24 36.032 0.202 7.85 3.17 13.82
12/15/2020 12:15:00 PM 2.27 36.086 0.204 7.87 2.62 13.89
12/15/2020 12:30:00 PM 2.29 36.122 0.201 7.89 2.76 13.94
12/15/2020 12:45:00 PM 2.31 36.158 0.202 7.91 2.58 14
12/15/2020 1:00:00 PM 2.3 36.14 0.198 7.94 2.5 14.06
12/15/2020 1:15:00 PM 2.29 36.122 0.2 7.95 2.41 14.08
12/15/2020 1:30:00 PM 2.27 36.086 0.199 7.96 2.37 14.13
12/15/2020 1:45:00 PM 2.26 36.068 0.2 7.98 2.81 14.19
12/15/2020 2:00:00 PM 2.24 36.032 0.198 8.01 2.52 14.22
12/15/2020 2:15:00 PM 2.26 36.068 0.2 8.03 2.31 14.26
12/15/2020 2:30:00 PM 2.29 36.122 0.203 8.01 2.3 14.3
12/15/2020 2:45:00 PM 2.26 36.068 0.198 8.06 2.33 14.33
12/15/2020 3:00:00 PM 2.22 35.996 0.201 8.05 2.42 14.36
12/15/2020 3:15:00 PM 2.22 35.996 0.198 8.08 2.35 14.38
12/15/2020 3:30:00 PM 2.17 35.906 0.2 8.07 2.63 14.4
12/15/2020 3:45:00 PM 2.1 35.78 0.197 8.09 4.17 14.39
12/15/2020 4:00:00 PM 2.05 35.69 0.203 8.07 4.6 14.39
12/15/2020 4:15:00 PM 1.99 35.582 0.198 8.09 6.08 14.37
12/15/2020 4:30:00 PM 1.92 35.456 0.2 8.08 3.06 14.34
12/15/2020 4:45:00 PM 1.86 35.348 0.203 8.04 4.95 14.3
12/15/2020 5:00:00 PM 1.8 35.24 0.199 8.04 4.55 14.24
12/15/2020 5:15:00 PM 1.75 35.15 0.2 8.02 2.7 14.18
12/15/2020 5:30:00 PM 1.69 35.042 0.198 8 2.43 14.13
12/15/2020 5:45:00 PM 1.63 34.934 0.201 7.96 2.31 14.06
12/15/2020 6:00:00 PM 1.57 34.826 0.2 7.95 2.33 14.01
12/15/2020 6:15:00 PM 1.52 34.736 0.199 7.93 2.36 13.96
12/15/2020 6:30:00 PM 1.48 34.664 0.2 7.9 2.37 13.91
12/15/2020 6:45:00 PM 1.45 34.61 0.2 7.89 2.42 13.87
12/15/2020 7:00:00 PM 1.42 34.556 0.199 7.88 2.3 13.83
12/15/2020 7:15:00 PM 1.38 34.484 0.201 7.85 2.28 13.78
12/15/2020 7:30:00 PM 1.34 34.412 0.199 7.85 2.36 13.75
12/15/2020 7:45:00 PM 1.31 34.358 0.2 7.82 2.52 13.71
12/15/2020 8:00:00 PM 1.28 34.304 0.199 7.83 2.36 13.68
12/15/2020 8:15:00 PM 1.26 34.268 0.201 7.8 2.36 13.64
12/15/2020 8:30:00 PM 1.23 34.214 0.2 7.79 2.23 13.61
12/15/2020 8:45:00 PM 1.22 34.196 0.2 7.79 2.25 13.57
12/15/2020 9:00:00 PM 1.2 34.16 0.199 7.78 2.73 13.54
12/15/2020 9:15:00 PM 1.18 34.124 0.201 7.74 3.99 13.51
12/15/2020 9:30:00 PM 1.16 34.088 0.198 7.77 2.63 13.49
12/15/2020 9:45:00 PM 1.14 34.052 0.2 7.75 2.32 13.46
12/15/2020 10:00:00 PM 1.14 34.052 0.199 7.75 2.36 13.44
12/15/2020 10:15:00 PM 1.12 34.016 0.199 7.74 2.4 13.43
12/15/2020 10:30:00 PM 1.38 34.484 0.2 7.66 3.84 13.18
12/15/2020 10:45:00 PM 1.1 33.98 0.2 7.73 2.42 13.4
12/15/2020 11:00:00 PM 1.08 33.944 0.2 7.74 2.68 13.39
12/15/2020 11:15:00 PM 1.07 33.926 0.199 7.74 2.45 13.39
12/15/2020 11:30:00 PM 1.07 33.926 0.199 7.73 2.26 13.38
12/15/2020 11:45:00 PM 1.07 33.926 0.199 7.74 2.24 13.38
12/16/2020 12:00:00 AM 1.06 33.908 0.2 7.74 2.41 13.38
12/16/2020 12:15:00 AM 1.06 33.908 0.2 7.72 2.39 13.38
12/16/2020 12:30:00 AM 1.04 33.872 0.199 7.73 2.33 13.37
12/16/2020 12:45:00 AM 1.04 33.872 0.199 7.74 2.33 13.38
12/16/2020 1:00:00 AM 1.03 33.854 0.199 7.73 2.31 13.38
12/16/2020 1:15:00 AM 1.03 33.854 0.199 7.74 2.36 13.38
12/16/2020 1:30:00 AM 1.02 33.836 0.199 7.73 2.27 13.4
12/16/2020 1:45:00 AM 1.02 33.836 0.2 7.72 3.01 13.39
12/16/2020 2:00:00 AM 1.01 33.818 0.199 7.74 2.92 13.4
12/16/2020 2:15:00 AM 1 33.8 0.199 7.74 2.46 13.41
12/16/2020 2:30:00 AM 0.98 33.764 0.2 7.74 2.32 13.41
12/16/2020 2:45:00 AM 0.97 33.746 0.199 7.74 2.36 13.42
12/16/2020 3:00:00 AM 0.97 33.746 0.201 7.73 2.34 13.42
12/16/2020 3:15:00 AM 0.94 33.692 0.199 7.74 3.38 13.43
12/16/2020 3:30:00 AM 0.92 33.656 0.2 7.73 2.54 13.44
12/16/2020 3:45:00 AM 0.93 33.674 0.199 7.75 2.61 13.43
12/16/2020 4:00:00 AM 0.92 33.656 0.199 7.74 2.57 13.44
12/16/2020 4:15:00 AM 0.92 33.656 0.2 7.74 2.28 13.44
12/16/2020 4:30:00 AM 0.92 33.656 0.199 7.76 2.32 13.44
12/16/2020 4:45:00 AM 0.9 33.62 0.201 7.74 2.2 13.45
12/16/2020 5:00:00 AM 0.89 33.602 0.199 7.76 2.4 13.45
12/16/2020 5:15:00 AM 0.89 33.602 0.2 7.75 2.36 13.46
12/16/2020 5:30:00 AM 0.88 33.584 0.2 7.75 2.92 13.47
12/16/2020 5:45:00 AM 0.87 33.566 0.2 7.75 2.31 13.47
12/16/2020 6:00:00 AM 0.87 33.566 0.2 7.76 2.24 13.48
12/16/2020 6:15:00 AM 0.88 33.584 0.2 7.76 2.42 13.48
12/16/2020 6:30:00 AM 0.88 33.584 0.2 7.77 2.32 13.48
12/16/2020 6:45:00 AM 0.88 33.584 0.2 7.77 2.26 13.49
12/16/2020 7:00:00 AM 0.87 33.566 0.201 7.77 2.33 13.49
12/16/2020 7:15:00 AM 0.87 33.566 0.201 7.77 2.3 13.49
12/16/2020 7:30:00 AM 0.86 33.548 0.2 7.78 2.82 13.5
12/16/2020 7:45:00 AM 0.87 33.566 0.201 7.78 2.55 13.5
12/16/2020 8:00:00 AM 0.89 33.602 0.2 7.79 2.78 13.51
12/16/2020 8:15:00 AM 0.91 33.638 0.201 7.79 2.58 13.51
12/16/2020 8:30:00 AM 0.92 33.656 0.202 7.78 2.48 13.54
12/16/2020 8:45:00 AM 0.93 33.674 0.2 7.8 2.32 13.56
12/16/2020 9:00:00 AM 0.95 33.71 0.201 7.8 2.23 13.59
12/16/2020 9:15:00 AM 0.96 33.728 0.2 7.82 2.24 13.63
12/16/2020 9:30:00 AM 0.98 33.764 0.201 7.82 2.39 13.68
12/16/2020 9:45:00 AM 0.99 33.782 0.2 7.84 2.4 13.73
12/16/2020 10:00:00 AM 1.01 33.818 0.201 7.85 2.48 13.78
12/16/2020 10:15:00 AM 1.07 33.926 0.201 7.87 2.53 13.84
12/16/2020 10:30:00 AM 1.1 33.98 0.2 7.89 2.75 13.9
12/16/2020 10:45:00 AM 1.15 34.07 0.201 7.91 2.38 13.95
12/16/2020 11:00:00 AM 1.18 34.124 0.202 7.92 2.49 14.01
12/16/2020 11:15:00 AM 1.23 34.214 0.201 7.94 2.4 14.07
12/16/2020 11:30:00 AM 1.26 34.268 0.201 7.96 2.31 14.12
12/16/2020 11:45:00 AM 1.27 34.286 0.202 7.96 2.33 14.16
12/16/2020 12:00:00 PM 1.28 34.304 0.201 7.99 2.39 14.22
12/16/2020 12:15:00 PM 1.28 34.304 0.201 8 2.35 14.23
12/16/2020 12:30:00 PM 1.27 34.286 0.201 8.02 2.35 14.27
12/16/2020 12:45:00 PM 1.26 34.268 0.202 8.01 2.25 14.3
12/16/2020 1:00:00 PM 1.24 34.232 0.201 8.03 2.31 14.32
12/16/2020 1:15:00 PM 1.23 34.214 0.201 8.04 2.31 14.33
12/16/2020 1:30:00 PM 1.22 34.196 0.201 8.06 2.3 14.35
12/16/2020 1:45:00 PM 1.2 34.16 0.202 8.06 2.28 14.37
12/16/2020 2:00:00 PM 1.18 34.124 0.202 8.08 2.31 14.39
12/16/2020 2:15:00 PM 1.18 34.124 0.202 8.08 2.34 14.39
12/16/2020 2:30:00 PM 1.16 34.088 0.203 8.07 2.43 14.4
12/16/2020 2:45:00 PM 1.15 34.07 0.201 8.08 2.46 14.41
12/16/2020 3:00:00 PM 1.11 33.998 0.202 8.09 2.39 14.4
12/16/2020 3:15:00 PM 1.08 33.944 0.202 8.08 2.34 14.38
12/16/2020 3:30:00 PM 1.05 33.89 0.201 8.07 2.33 14.35
12/16/2020 3:45:00 PM 1 33.8 0.203 8.06 2.31 14.32
12/16/2020 4:00:00 PM 0.95 33.71 0.202 8.05 2.28 14.28
12/16/2020 4:15:00 PM 0.9 33.62 0.202 8.04 2.32 14.23
12/16/2020 4:30:00 PM 0.85 33.53 0.202 8.03 2.29 14.19
12/16/2020 4:45:00 PM 0.81 33.458 0.203 8.01 2.48 14.15
12/16/2020 5:00:00 PM 0.74 33.332 0.202 7.99 2.56 14.1
12/16/2020 5:15:00 PM 0.66 33.188 0.202 7.98 2.29 14.05
12/16/2020 5:30:00 PM 0.58 33.044 0.202 7.96 2.2 14
12/16/2020 5:45:00 PM 0.48 32.864 0.202 7.93 2.26 13.96
12/16/2020 6:00:00 PM 0.42 32.756 0.202 7.9 2.42 13.92
12/16/2020 6:15:00 PM 0.38 32.684 0.202 7.89 2.27 13.88
12/16/2020 6:30:00 PM 0.33 32.594 0.202 7.87 2.24 13.85
12/16/2020 6:45:00 PM 0.27 32.486 0.202 7.86 2.2 13.82
12/16/2020 7:00:00 PM 0.2 32.36 0.203 7.85 2.27 13.8
12/16/2020 7:15:00 PM 0.16 32.288 0.202 7.84 2.57 13.77
12/16/2020 7:30:00 PM 0.1 32.18 0.202 7.83 2.32 13.75
12/16/2020 7:45:00 PM 0.04 32.072 0.202 7.82 2.33 13.73
12/16/2020 8:00:00 PM 0.02 32.036 0.203 7.8 2.45 13.72
12/16/2020 8:15:00 PM -0.02 31.964 0.202 7.8 2.47 13.71
12/16/2020 8:30:00 PM -0.04 31.928 0.202 7.79 2.49 13.68
12/16/2020 8:45:00 PM -0.06 31.892 0.202 7.79 2.55 13.67
12/16/2020 9:00:00 PM -0.07 31.874 0.201 7.78 2.42 13.66
12/16/2020 9:15:00 PM -0.08 31.856 0.202 7.77 2.44 13.64
12/16/2020 9:30:00 PM -0.08 31.856 0.202 7.78 3.62 13.65
12/16/2020 9:45:00 PM -0.08 31.856 0.202 7.78 2.43 13.65
12/16/2020 10:00:00 PM -0.08 31.856 0.202 7.77 2.44 13.64
12/16/2020 10:15:00 PM -0.08 31.856 0.201 7.77 2.43 13.62
12/16/2020 10:30:00 PM 0.14 32.252 0.202 7.63 3.75 13.24
12/16/2020 10:45:00 PM -0.07 31.874 0.202 7.75 3.33 13.61
12/16/2020 11:00:00 PM -0.07 31.874 0.201 7.76 2.66 13.63
12/16/2020 11:15:00 PM -0.08 31.856 0.201 7.78 2.76 13.64
12/16/2020 11:30:00 PM -0.08 31.856 0.202 7.77 2.93 13.63
12/16/2020 11:45:00 PM -0.08 31.856 0.202 7.77 3.11 13.64
12/17/2020 12:00:00 AM -0.08 31.856 0.202 7.77 2.98 13.65
12/17/2020 12:15:00 AM -0.07 31.874 0.202 7.77 2.77 13.65
12/17/2020 12:30:00 AM -0.07 31.874 0.202 7.77 2.9 13.64
12/17/2020 12:45:00 AM -0.05 31.91 0.202 7.75 23.89 13.62
12/17/2020 1:00:00 AM -0.06 31.892 0.202 7.72 73.17 13.61
12/17/2020 1:15:00 AM -0.07 31.874 0.202 7.74 15.93 13.63
12/17/2020 1:30:00 AM -0.07 31.874 0.202 7.73 10.98 13.65
12/17/2020 1:45:00 AM -0.06 31.892 0.203 7.73 7.99 13.64
12/17/2020 2:00:00 AM -0.04 31.928 0.203 7.73 5.85 13.62
12/17/2020 2:15:00 AM -0.05 31.91 0.203 7.72 5.69 13.62
12/17/2020 2:30:00 AM -0.04 31.928 0.203 7.72 9.22 13.62
12/17/2020 2:45:00 AM -0.04 31.928 0.202 7.72 5.54 13.64
12/17/2020 3:00:00 AM -0.05 31.91 0.202 7.73 5.02 13.65
12/17/2020 3:15:00 AM -0.05 31.91 0.202 7.73 4.48 13.64
12/17/2020 3:30:00 AM -0.05 31.91 0.202 7.73 4.67 13.66
12/17/2020 3:45:00 AM -0.05 31.91 0.202 7.73 4.29 13.64
12/17/2020 4:00:00 AM -0.05 31.91 0.202 7.71 3.96 13.65
12/17/2020 4:15:00 AM -0.05 31.91 0.202 7.73 4.24 13.64
12/17/2020 4:30:00 AM -0.05 31.91 0.202 7.73 4.35 13.66
12/17/2020 4:45:00 AM -0.05 31.91 0.202 7.72 3.94 13.64
12/17/2020 5:00:00 AM -0.05 31.91 0.202 7.72 3.88 13.66
12/17/2020 5:15:00 AM -0.05 31.91 0.202 7.73 3.89 13.65
12/17/2020 5:30:00 AM -0.05 31.91 0.202 7.73 3.61 13.66
12/17/2020 5:45:00 AM -0.06 31.892 0.202 7.72 3.58 13.66
12/17/2020 6:00:00 AM -0.04 31.928 0.202 7.72 5.33 13.62
12/17/2020 6:15:00 AM -0.04 31.928 0.202 7.72 5.26 13.66
12/17/2020 6:30:00 AM -0.05 31.91 0.202 7.71 3.68 13.67
12/17/2020 6:45:00 AM -0.05 31.91 0.202 7.72 3.42 13.68
12/17/2020 7:00:00 AM -0.05 31.91 0.202 7.72 3.47 13.68
12/17/2020 7:15:00 AM -0.05 31.91 0.202 7.72 3.62 13.69
12/17/2020 7:30:00 AM -0.04 31.928 0.202 7.72 3.27 13.68
12/17/2020 7:45:00 AM -0.04 31.928 0.202 7.72 3.27 13.68
12/17/2020 8:00:00 AM -0.04 31.928 0.202 7.71 3.17 13.67
12/17/2020 8:15:00 AM -0.03 31.946 0.202 7.72 3.33 13.67
12/17/2020 8:30:00 AM -0.02 31.964 0.202 7.72 3.42 13.66
12/17/2020 8:45:00 AM -0.02 31.964 0.202 7.72 3.51 13.66
12/17/2020 9:00:00 AM -0.01 31.982 0.203 7.71 3.35 13.64
12/17/2020 9:15:00 AM 0 32 0.203 7.71 3.51 13.63
12/17/2020 9:30:00 AM -0.01 31.982 0.204 7.71 3.46 13.65
12/17/2020 9:45:00 AM 0 32 0.204 7.7 3.87 13.63
12/17/2020 10:00:00 AM 0 32 0.205 7.7 3.43 13.63
12/17/2020 10:15:00 AM 0.01 32.018 0.205 7.71 3.2 13.65
12/17/2020 10:30:00 AM 0 32 0.207 7.71 3.19 13.69
12/17/2020 10:45:00 AM -0.01 31.982 0.207 7.72 3.02 13.74
12/17/2020 11:00:00 AM -0.02 31.964 0.208 7.73 3.24 13.84
12/17/2020 11:15:00 AM -0.01 31.982 0.206 7.75 3.37 13.92
12/17/2020 11:30:00 AM 0.01 32.018 0.206 7.77 3.73 14
12/17/2020 11:45:00 AM 0 32 0.204 7.8 3.59 14.11
12/17/2020 12:00:00 PM -0.01 31.982 0.203 7.83 3.47 14.25
12/17/2020 12:15:00 PM 0 32 0.202 7.85 3.02 14.34
12/17/2020 12:30:00 PM 0 32 0.202 7.88 3.05 14.39
12/17/2020 12:45:00 PM 0.01 32.018 0.202 7.89 3.03 14.41
12/17/2020 1:00:00 PM 0.01 32.018 0.202 7.92 3.12 14.43
12/17/2020 1:15:00 PM 0.02 32.036 0.202 7.93 3.23 14.48
12/17/2020 1:30:00 PM 0.02 32.036 0.202 7.96 3.12 14.52
12/17/2020 1:45:00 PM 0.02 32.036 0.202 7.97 2.94 14.58
12/17/2020 2:00:00 PM 0.01 32.018 0.202 8 3.18 14.63
12/17/2020 2:15:00 PM 0.02 32.036 0.202 8.01 3.19 14.68
12/17/2020 2:30:00 PM 0.02 32.036 0.202 8.03 3.09 14.71
12/17/2020 2:45:00 PM 0.02 32.036 0.202 8.04 3.19 14.74
12/17/2020 3:00:00 PM 0.01 32.018 0.202 8.05 3.25 14.78
12/17/2020 3:15:00 PM 0.01 32.018 0.202 8.05 3.3 14.8
12/17/2020 3:30:00 PM 0.01 32.018 0.202 8.07 3.04 14.82
12/17/2020 3:45:00 PM 0 32 0.202 8.07 3.27 14.83
12/17/2020 4:00:00 PM -0.01 31.982 0.202 8.07 2.96 14.84
12/17/2020 4:15:00 PM -0.02 31.964 0.202 8.07 3.06 14.85
12/17/2020 4:30:00 PM -0.03 31.946 0.202 8.07 3.08 14.84
12/17/2020 4:45:00 PM -0.04 31.928 0.203 8.08 3.07 14.84
12/17/2020 5:00:00 PM -0.04 31.928 0.203 8.07 3.21 14.8
12/17/2020 5:15:00 PM -0.05 31.91 0.203 8.06 3.25 14.78
12/17/2020 5:30:00 PM -0.06 31.892 0.203 8.05 3.34 14.74
12/17/2020 5:45:00 PM -0.06 31.892 0.203 8.04 3.35 14.69
12/17/2020 6:00:00 PM -0.06 31.892 0.203 8.02 3.25 14.65
12/17/2020 6:15:00 PM -0.06 31.892 0.203 8.01 3.26 14.61
12/17/2020 6:30:00 PM -0.07 31.874 0.204 7.99 3.83 14.53
12/17/2020 6:45:00 PM -0.07 31.874 0.204 7.96 3.82 14.48
12/17/2020 7:00:00 PM -0.07 31.874 0.204 7.95 3.8 14.45
12/17/2020 7:15:00 PM -0.07 31.874 0.204 7.94 3.95 14.39
12/17/2020 7:30:00 PM -0.08 31.856 0.204 7.9 3.76 14.33
12/17/2020 7:45:00 PM -0.08 31.856 0.204 7.89 4.11 14.28
12/17/2020 8:00:00 PM -0.08 31.856 0.204 7.88 6.55 14.22
12/17/2020 8:15:00 PM -0.08 31.856 0.205 7.86 4.31 14.17
12/17/2020 8:30:00 PM -0.08 31.856 0.205 7.85 4.25 14.14
12/17/2020 8:45:00 PM -0.08 31.856 0.205 7.83 4.12 14.08
12/17/2020 9:00:00 PM -0.08 31.856 0.205 7.82 4.24 14.03
12/17/2020 9:15:00 PM -0.07 31.874 0.205 7.82 6.21 14
12/17/2020 9:30:00 PM -0.08 31.856 0.206 7.79 7.75 13.93
12/17/2020 9:45:00 PM -0.08 31.856 0.206 7.78 5.64 13.89
12/17/2020 10:00:00 PM -0.08 31.856 0.206 7.77 4.93 13.85
12/17/2020 10:15:00 PM -0.08 31.856 0.206 7.77 5.31 13.81
12/17/2020 10:30:00 PM -0.07 31.874 0.206 7.75 4.88 13.79
12/17/2020 10:45:00 PM -0.08 31.856 0.206 7.75 5.17 13.75
12/17/2020 11:00:00 PM -0.08 31.856 0.206 7.74 5.89 13.74
12/17/2020 11:15:00 PM -0.08 31.856 0.206 7.73 6.36 13.7
12/17/2020 11:30:00 PM -0.07 31.874 0.206 7.72 5.69 13.69
12/17/2020 11:45:00 PM -0.08 31.856 0.206 7.72 6.85 13.67
12/18/2020 12:00:00 AM -0.07 31.874 0.206 7.71 5.56 13.66
12/18/2020 12:15:00 AM -0.07 31.874 0.206 7.7 5.52 13.64
12/18/2020 12:30:00 AM -0.08 31.856 0.206 7.7 5.74 13.64
12/18/2020 12:45:00 AM -0.07 31.874 0.206 7.7 5.67 13.62
12/18/2020 1:00:00 AM -0.07 31.874 0.207 7.69 5.25 13.61
12/18/2020 1:15:00 AM 0.06 32.108 0.208 7.69 5.18 13.6
12/18/2020 1:30:00 AM -0.01 31.982 0.207 7.67 5.37 13.53
12/18/2020 1:45:00 AM -0.06 31.892 0.207 7.68 5.24 13.58
12/18/2020 2:00:00 AM -0.07 31.874 0.207 7.68 5.36 13.58
12/18/2020 2:15:00 AM -0.07 31.874 0.207 7.68 5.29 13.6
12/18/2020 2:30:00 AM -0.07 31.874 0.207 7.67 5.34 13.59
12/18/2020 2:45:00 AM -0.07 31.874 0.207 7.67 5.23 13.59
12/18/2020 3:00:00 AM -0.07 31.874 0.207 7.67 5.01 13.6
12/18/2020 3:15:00 AM -0.07 31.874 0.207 7.67 4.87 13.59
12/18/2020 3:30:00 AM -0.07 31.874 0.207 7.66 4.85 13.6
12/18/2020 3:45:00 AM -0.07 31.874 0.207 7.66 4.91 13.6
12/18/2020 4:00:00 AM -0.07 31.874 0.207 7.67 5.17 13.62
12/18/2020 4:15:00 AM -0.07 31.874 0.207 7.66 6.2 13.62
12/18/2020 4:30:00 AM -0.07 31.874 0.207 7.66 4.82 13.62
12/18/2020 4:45:00 AM -0.07 31.874 0.207 7.67 4.48 13.62
12/18/2020 5:00:00 AM -0.07 31.874 0.207 7.67 4.38 13.63
12/18/2020 5:15:00 AM -0.07 31.874 0.207 7.66 4.45 13.62
12/18/2020 5:30:00 AM -0.07 31.874 0.207 7.66 4.13 13.62
12/18/2020 5:45:00 AM -0.07 31.874 0.207 7.66 4.19 13.63
12/18/2020 6:00:00 AM -0.07 31.874 0.207 7.66 4.2 13.63
12/18/2020 6:15:00 AM -0.07 31.874 0.207 7.67 4.05 13.64
12/18/2020 6:30:00 AM -0.07 31.874 0.207 7.66 3.83 13.63
12/18/2020 6:45:00 AM -0.07 31.874 0.207 7.66 3.71 13.64
12/18/2020 7:00:00 AM -0.07 31.874 0.207 7.67 4 13.66
12/18/2020 7:15:00 AM -0.07 31.874 0.207 7.66 3.54 13.65
12/18/2020 7:30:00 AM -0.07 31.874 0.207 7.67 3.82 13.67
12/18/2020 7:45:00 AM -0.07 31.874 0.207 7.66 3.65 13.66
12/18/2020 8:00:00 AM -0.07 31.874 0.207 7.67 3.66 13.67
12/18/2020 8:15:00 AM -0.07 31.874 0.207 7.67 3.75 13.69
12/18/2020 8:30:00 AM -0.06 31.892 0.206 7.67 3.54 13.69
12/18/2020 8:45:00 AM -0.06 31.892 0.207 7.67 3.42 13.72
12/18/2020 9:00:00 AM -0.06 31.892 0.207 7.66 3.33 13.75
12/18/2020 9:15:00 AM -0.06 31.892 0.206 7.67 3.32 13.76
12/18/2020 9:30:00 AM -0.05 31.91 0.206 7.66 3.5 13.8
12/18/2020 9:45:00 AM -0.05 31.91 0.206 7.68 3.36 13.82
12/18/2020 10:00:00 AM -0.05 31.91 0.206 7.69 3.61 13.87
12/18/2020 10:15:00 AM -0.05 31.91 0.206 7.69 3.36 13.94
12/18/2020 10:30:00 AM -0.05 31.91 0.206 7.7 3.42 13.98
12/18/2020 10:45:00 AM -0.04 31.928 0.206 7.71 3.29 14.04
12/18/2020 11:00:00 AM -0.04 31.928 0.206 7.72 3.21 14.08
12/18/2020 11:15:00 AM -0.04 31.928 0.205 7.73 3.32 14.15
12/18/2020 11:30:00 AM -0.04 31.928 0.205 7.73 3.3 14.22
12/18/2020 11:45:00 AM -0.03 31.946 0.205 7.75 3.48 14.28
12/18/2020 12:00:00 PM -0.03 31.946 0.205 7.77 3.17 14.34
12/18/2020 12:15:00 PM -0.03 31.946 0.205 7.78 3.33 14.39
12/18/2020 12:30:00 PM -0.03 31.946 0.205 7.78 3.29 14.45
12/18/2020 12:45:00 PM -0.02 31.964 0.204 7.8 3.16 14.5
12/18/2020 1:00:00 PM -0.02 31.964 0.204 7.8 3.86 14.55
12/18/2020 1:15:00 PM -0.01 31.982 0.204 7.83 3.84 14.6
12/18/2020 1:30:00 PM -0.01 31.982 0.204 7.84 3.54 14.65
12/18/2020 1:45:00 PM 0 32 0.204 7.85 3.3 14.7
12/18/2020 2:00:00 PM 0.02 32.036 0.203 7.86 3.36 14.76
12/18/2020 2:15:00 PM 0.04 32.072 0.203 7.88 3.27 14.81
12/18/2020 2:30:00 PM 0.05 32.09 0.203 7.9 3.21 14.85
12/18/2020 2:45:00 PM 0.05 32.09 0.203 7.91 3.32 14.9
12/18/2020 3:00:00 PM 0.04 32.072 0.203 7.91 3.22 14.93
12/18/2020 3:15:00 PM 0.03 32.054 0.203 7.93 3.37 14.95
12/18/2020 3:30:00 PM 0.02 32.036 0.202 7.93 3.44 14.99
12/18/2020 3:45:00 PM 0.02 32.036 0.202 7.96 3.31 15.03
12/18/2020 4:00:00 PM 0.01 32.018 0.202 7.97 3.2 15.06
12/18/2020 4:15:00 PM 0 32 0.202 7.98 3.27 15.08
12/18/2020 4:30:00 PM -0.01 31.982 0.202 7.99 3.21 15.09
12/18/2020 4:45:00 PM -0.02 31.964 0.202 8 3.15 15.09
12/18/2020 5:00:00 PM -0.03 31.946 0.203 8 3.17 15.08
12/18/2020 5:15:00 PM -0.04 31.928 0.204 8 3.4 15.08
12/18/2020 5:30:00 PM -0.05 31.91 0.204 8.01 3.14 15.07
12/18/2020 5:45:00 PM -0.05 31.91 0.205 8 5.7 15.03
12/18/2020 6:00:00 PM -0.06 31.892 0.206 8 4.28 15.02
12/18/2020 6:15:00 PM -0.06 31.892 0.206 7.99 3.76 14.99
12/18/2020 6:30:00 PM -0.07 31.874 0.206 7.99 3.4 14.95
12/18/2020 6:45:00 PM -0.07 31.874 0.207 7.97 3.44 14.89
12/18/2020 7:00:00 PM -0.07 31.874 0.206 7.96 3.51 14.86
12/18/2020 7:15:00 PM -0.07 31.874 0.206 7.95 3.45 14.8
12/18/2020 7:30:00 PM -0.07 31.874 0.206 7.93 3.49 14.76
12/18/2020 7:45:00 PM -0.07 31.874 0.206 7.92 10.5 14.7
12/18/2020 8:00:00 PM -0.07 31.874 0.206 7.91 5.89 14.67
12/18/2020 8:15:00 PM -0.07 31.874 0.206 7.9 4.83 14.63
12/18/2020 8:30:00 PM -0.07 31.874 0.205 7.88 3.97 14.59
12/18/2020 8:45:00 PM -0.07 31.874 0.205 7.88 3.86 14.56
12/18/2020 9:00:00 PM -0.07 31.874 0.205 7.87 3.53 14.52
12/18/2020 9:15:00 PM -0.06 31.892 0.205 7.85 3.35 14.49
12/18/2020 9:30:00 PM -0.06 31.892 0.205 7.84 3.6 14.45
12/18/2020 9:45:00 PM -0.06 31.892 0.205 7.83 3.4 14.42
12/18/2020 10:00:00 PM -0.06 31.892 0.205 7.81 3.67 14.38
12/18/2020 10:15:00 PM -0.06 31.892 0.204 7.81 3.34 14.35
12/18/2020 10:30:00 PM 0.5 32.9 0.209 7.64 7.66 13.8
12/18/2020 10:45:00 PM 0.11 32.198 0.206 7.68 5.04 14.03
12/18/2020 11:00:00 PM -0.01 31.982 0.204 7.72 8.29 14.15
12/18/2020 11:15:00 PM -0.04 31.928 0.204 7.74 5.2 14.18
12/18/2020 11:30:00 PM -0.05 31.91 0.204 7.73 3.89 14.18
12/18/2020 11:45:00 PM -0.06 31.892 0.204 7.72 3.48 14.16
12/19/2020 12:00:00 AM -0.06 31.892 0.204 7.71 3.64 14.14
12/19/2020 12:15:00 AM -0.06 31.892 0.204 7.7 3.56 14.13
12/19/2020 12:30:00 AM -0.06 31.892 0.204 7.68 4.01 14.11
12/19/2020 12:45:00 AM -0.06 31.892 0.204 7.67 3.47 14.08
12/19/2020 1:00:00 AM -0.06 31.892 0.204 7.66 3.63 14.06
12/19/2020 1:15:00 AM -0.07 31.874 0.204 7.66 3.67 14.06
12/19/2020 1:30:00 AM -0.07 31.874 0.203 7.65 3.68 14.04
12/19/2020 1:45:00 AM -0.07 31.874 0.203 7.64 3.5 14.02
12/19/2020 2:00:00 AM -0.07 31.874 0.203 7.63 3.48 14.02
12/19/2020 2:15:00 AM -0.07 31.874 0.203 7.62 5.34 14.01
12/19/2020 2:30:00 AM -0.07 31.874 0.203 7.6 4.3 13.99
12/19/2020 2:45:00 AM -0.07 31.874 0.203 7.6 3.97 14
12/19/2020 3:00:00 AM -0.07 31.874 0.203 7.6 3.54 13.97
12/19/2020 3:15:00 AM -0.07 31.874 0.203 7.59 3.25 13.97
12/19/2020 3:30:00 AM -0.07 31.874 0.203 7.58 4.24 13.98
12/19/2020 3:45:00 AM -0.07 31.874 0.203 7.57 3.29 13.99
12/19/2020 4:00:00 AM -0.07 31.874 0.203 7.56 3.33 14
12/19/2020 4:15:00 AM -0.07 31.874 0.203 7.56 3.39 14
12/19/2020 4:30:00 AM -0.07 31.874 0.203 7.55 3.35 14
12/19/2020 4:45:00 AM -0.07 31.874 0.202 7.55 3.28 13.99
12/19/2020 5:00:00 AM -0.07 31.874 0.203 7.55 4.87 14
12/19/2020 5:15:00 AM -0.07 31.874 0.203 7.54 3.4 13.99
12/19/2020 5:30:00 AM -0.07 31.874 0.202 7.54 3.52 13.99
12/19/2020 5:45:00 AM -0.07 31.874 0.203 7.53 5.52 13.99
12/19/2020 6:00:00 AM -0.08 31.856 0.201 7.55 3.37 14.02
12/19/2020 6:15:00 AM -0.08 31.856 0.202 7.54 3.36 13.99
12/19/2020 6:30:00 AM -0.07 31.874 0.202 7.53 3.14 13.99
12/19/2020 6:45:00 AM -0.07 31.874 0.202 7.53 3.34 14
12/19/2020 7:00:00 AM -0.08 31.856 0.202 7.53 3.28 14.01
12/19/2020 7:15:00 AM -0.08 31.856 0.202 7.54 3.28 14.01
12/19/2020 7:30:00 AM -0.08 31.856 0.202 7.54 3.26 14
12/19/2020 7:45:00 AM -0.08 31.856 0.202 7.55 3.15 14.02
12/19/2020 8:00:00 AM -0.07 31.874 0.202 7.54 3.07 14
12/19/2020 8:15:00 AM -0.07 31.874 0.202 7.55 3.19 14.03
12/19/2020 8:30:00 AM -0.07 31.874 0.202 7.56 3.06 14.01
12/19/2020 8:45:00 AM -0.07 31.874 0.202 7.57 3.31 14
12/19/2020 9:00:00 AM -0.07 31.874 0.202 7.58 3.2 14.02
12/19/2020 9:15:00 AM -0.07 31.874 0.202 7.58 3.26 14.02
12/19/2020 9:30:00 AM -0.07 31.874 0.202 7.59 3.22 14.04
12/19/2020 9:45:00 AM -0.06 31.892 0.202 7.58 3.23 14.06
12/19/2020 10:00:00 AM -0.07 31.874 0.202 7.57 4.72 14.09
12/19/2020 10:15:00 AM -0.07 31.874 0.202 7.56 4.22 14.1
12/19/2020 10:30:00 AM -0.07 31.874 0.201 7.59 3.62 14.17
12/19/2020 10:45:00 AM -0.06 31.892 0.201 7.58 3.62 14.2
12/19/2020 11:00:00 AM -0.07 31.874 0.199 7.58 13.09 14.3
12/19/2020 11:15:00 AM -0.08 31.856 0.197 7.6 10.8 14.47
12/19/2020 11:30:00 AM -0.07 31.874 0.196 7.6 4.55 14.53
12/19/2020 11:45:00 AM -0.07 31.874 0.195 7.6 3.92 14.55
12/19/2020 12:00:00 PM -0.06 31.892 0.195 7.61 3.8 14.58
12/19/2020 12:15:00 PM -0.06 31.892 0.195 7.62 3.7 14.63
12/19/2020 12:30:00 PM -0.05 31.91 0.195 7.63 3.71 14.65
12/19/2020 12:45:00 PM -0.05 31.91 0.195 7.62 3.71 14.69
12/19/2020 1:00:00 PM -0.05 31.91 0.194 7.65 3.73 14.72
12/19/2020 1:15:00 PM -0.05 31.91 0.194 7.66 3.68 14.77
12/19/2020 1:30:00 PM -0.05 31.91 0.194 7.69 3.72 14.82
12/19/2020 1:45:00 PM -0.04 31.928 0.194 7.71 3.72 14.85
12/19/2020 2:00:00 PM -0.04 31.928 0.193 7.75 3.72 14.9
12/19/2020 2:15:00 PM -0.04 31.928 0.193 7.78 3.67 14.93
12/19/2020 2:30:00 PM -0.04 31.928 0.193 7.79 3.5 14.96
12/19/2020 2:45:00 PM -0.04 31.928 0.193 7.8 3.61 14.96
12/19/2020 3:00:00 PM -0.04 31.928 0.193 7.82 3.53 15
12/19/2020 3:15:00 PM -0.04 31.928 0.193 7.83 3.45 15.03
12/19/2020 3:30:00 PM -0.04 31.928 0.192 7.84 3.36 15.03
12/19/2020 3:45:00 PM -0.05 31.91 0.192 7.84 3.27 15.04
12/19/2020 4:00:00 PM -0.05 31.91 0.192 7.85 3.38 15.07
12/19/2020 4:15:00 PM -0.05 31.91 0.192 7.85 3.17 15.07
12/19/2020 4:30:00 PM -0.05 31.91 0.192 7.86 3.07 15.09
12/19/2020 4:45:00 PM -0.05 31.91 0.192 7.86 3.19 15.1
12/19/2020 5:00:00 PM -0.04 31.928 0.192 7.87 3.3 15.1
12/19/2020 5:15:00 PM -0.05 31.91 0.192 7.88 3.15 15.11
12/19/2020 5:30:00 PM -0.05 31.91 0.192 7.89 3.36 15.11
12/19/2020 5:45:00 PM -0.05 31.91 0.192 7.89 3.31 15.11
12/19/2020 6:00:00 PM -0.05 31.91 0.192 7.88 3.34 15.07
12/19/2020 6:15:00 PM -0.05 31.91 0.192 7.88 3.55 15.07
12/19/2020 6:30:00 PM -0.05 31.91 0.193 7.88 5.09 15.04
12/19/2020 6:45:00 PM -0.05 31.91 0.192 7.87 4.89 15.01
12/19/2020 7:00:00 PM -0.06 31.892 0.193 7.87 3.24 14.98
12/19/2020 7:15:00 PM -0.06 31.892 0.193 7.86 3.34 14.95
12/19/2020 7:30:00 PM -0.06 31.892 0.193 7.85 3.3 14.91
12/19/2020 7:45:00 PM -0.05 31.91 0.193 7.84 3.88 14.85
12/19/2020 8:00:00 PM -0.06 31.892 0.193 7.83 3.33 14.81
12/19/2020 8:15:00 PM -0.06 31.892 0.193 7.82 3.41 14.76
12/19/2020 8:30:00 PM -0.06 31.892 0.193 7.81 7.52 14.73
12/19/2020 8:45:00 PM -0.06 31.892 0.193 7.8 3.45 14.7
12/19/2020 9:00:00 PM -0.06 31.892 0.194 7.79 3.49 14.64
12/19/2020 9:15:00 PM -0.07 31.874 0.194 7.77 4.43 14.6
12/19/2020 9:30:00 PM -0.06 31.892 0.194 7.76 4.72 14.56
12/19/2020 9:45:00 PM -0.07 31.874 0.194 7.75 3.76 14.53
12/19/2020 10:00:00 PM -0.07 31.874 0.194 7.74 8.54 14.49
12/19/2020 10:15:00 PM -0.07 31.874 0.194 7.73 4.07 14.44
12/19/2020 10:30:00 PM -0.07 31.874 0.194 7.72 3.66 14.41
12/19/2020 10:45:00 PM -0.07 31.874 0.194 7.71 3.5 14.39
12/19/2020 11:00:00 PM -0.06 31.892 0.194 7.7 9.2 14.36
12/19/2020 11:15:00 PM -0.07 31.874 0.194 7.7 3.44 14.35
12/19/2020 11:30:00 PM -0.07 31.874 0.195 7.69 3.58 14.31
12/19/2020 11:45:00 PM -0.07 31.874 0.195 7.68 3.52 14.3
12/20/2020 12:00:00 AM -0.07 31.874 0.195 7.68 3.55 14.28
12/20/2020 12:15:00 AM -0.07 31.874 0.195 7.68 3.66 14.25
12/20/2020 12:30:00 AM -0.07 31.874 0.195 7.67 3.65 14.24
12/20/2020 12:45:00 AM -0.07 31.874 0.195 7.66 3.44 14.21
12/20/2020 1:00:00 AM -0.07 31.874 0.195 7.67 3.71 14.21
12/20/2020 1:15:00 AM -0.07 31.874 0.195 7.66 3.45 14.19
12/20/2020 1:30:00 AM -0.07 31.874 0.195 7.66 3.6 14.17
12/20/2020 1:45:00 AM -0.07 31.874 0.195 7.65 3.57 14.17
12/20/2020 2:00:00 AM -0.06 31.892 0.195 7.65 3.42 14.16
12/20/2020 2:15:00 AM -0.07 31.874 0.195 7.65 3.46 14.14
12/20/2020 2:30:00 AM -0.07 31.874 0.196 7.64 3.56 14.13
12/20/2020 2:45:00 AM -0.07 31.874 0.196 7.64 7.79 14.12
12/20/2020 3:00:00 AM -0.07 31.874 0.196 7.64 3.97 14.12
12/20/2020 3:15:00 AM -0.07 31.874 0.196 7.64 3.49 14.1
12/20/2020 3:30:00 AM -0.07 31.874 0.196 7.63 3.35 14.09
12/20/2020 3:45:00 AM -0.07 31.874 0.196 7.63 3.52 14.09
12/20/2020 4:00:00 AM -0.07 31.874 0.196 7.63 5.92 14.08
12/20/2020 4:15:00 AM -0.07 31.874 0.196 7.62 3.78 14.08
12/20/2020 4:30:00 AM -0.06 31.892 0.196 7.63 3.55 14.06
12/20/2020 4:45:00 AM -0.07 31.874 0.196 7.62 3.47 14.06
12/20/2020 5:00:00 AM -0.07 31.874 0.196 7.63 3.63 14.06
12/20/2020 5:15:00 AM -0.06 31.892 0.196 7.62 3.5 14.06
12/20/2020 5:30:00 AM -0.07 31.874 0.197 7.61 3.82 14.05
12/20/2020 5:45:00 AM -0.07 31.874 0.197 7.6 4.38 14.04
12/20/2020 6:00:00 AM -0.06 31.892 0.197 7.62 3.82 14.04
12/20/2020 6:15:00 AM -0.06 31.892 0.197 7.61 3.7 14.04
12/20/2020 6:30:00 AM -0.06 31.892 0.197 7.61 3.7 14.03
12/20/2020 6:45:00 AM -0.06 31.892 0.197 7.61 3.68 14.03
12/20/2020 7:00:00 AM -0.06 31.892 0.197 7.61 4.03 14.03
12/20/2020 7:15:00 AM -0.07 31.874 0.197 7.61 4.37 14.03
12/20/2020 7:30:00 AM -0.06 31.892 0.197 7.61 5.06 14.03
12/20/2020 7:45:00 AM -0.06 31.892 0.197 7.61 4.1 14.02
12/20/2020 8:00:00 AM -0.06 31.892 0.197 7.61 3.75 14.02
12/20/2020 8:15:00 AM -0.06 31.892 0.197 7.61 3.68 14.02
12/20/2020 8:30:00 AM -0.06 31.892 0.197 7.61 3.65 14.03
12/20/2020 8:45:00 AM -0.06 31.892 0.197 7.61 3.6 14.03
12/20/2020 9:00:00 AM -0.06 31.892 0.197 7.61 3.6 14.04
12/20/2020 9:15:00 AM -0.06 31.892 0.197 7.61 3.6 14.03
12/20/2020 9:30:00 AM -0.06 31.892 0.197 7.61 3.63 14.05
12/20/2020 9:45:00 AM -0.06 31.892 0.197 7.62 3.61 14.07
12/20/2020 10:00:00 AM -0.05 31.91 0.197 7.62 3.61 14.09
12/20/2020 10:15:00 AM -0.05 31.91 0.197 7.62 3.58 14.1
12/20/2020 10:30:00 AM -0.05 31.91 0.198 7.62 3.65 14.12
12/20/2020 10:45:00 AM -0.05 31.91 0.198 7.63 3.64 14.16
12/20/2020 11:00:00 AM -0.05 31.91 0.197 7.64 3.57 14.19
12/20/2020 11:15:00 AM -0.05 31.91 0.197 7.64 3.51 14.21
12/20/2020 11:30:00 AM -0.05 31.91 0.197 7.64 3.88 14.23
12/20/2020 11:45:00 AM -0.05 31.91 0.197 7.65 3.69 14.28
12/20/2020 12:00:00 PM -0.05 31.91 0.197 7.66 3.73 14.3
12/20/2020 12:15:00 PM -0.04 31.928 0.197 7.67 3.67 14.33
12/20/2020 12:30:00 PM -0.04 31.928 0.198 7.67 3.71 14.35
12/20/2020 12:45:00 PM -0.04 31.928 0.198 7.68 3.63 14.38
12/20/2020 1:00:00 PM -0.04 31.928 0.198 7.68 3.57 14.39
12/20/2020 1:15:00 PM -0.04 31.928 0.198 7.69 3.54 14.41
12/20/2020 1:30:00 PM -0.04 31.928 0.198 7.69 3.59 14.43
12/20/2020 1:45:00 PM -0.04 31.928 0.198 7.7 3.59 14.45
12/20/2020 2:00:00 PM -0.02 31.964 0.198 7.71 3.76 14.46
12/20/2020 2:15:00 PM -0.04 31.928 0.198 7.72 3.54 14.53
12/20/2020 2:30:00 PM -0.04 31.928 0.198 7.73 3.54 14.54
12/20/2020 2:45:00 PM -0.04 31.928 0.198 7.73 3.57 14.57
12/20/2020 3:00:00 PM -0.04 31.928 0.198 7.73 3.54 14.57
12/20/2020 3:15:00 PM -0.04 31.928 0.198 7.73 3.49 14.59
12/20/2020 3:30:00 PM -0.04 31.928 0.198 7.74 3.48 14.6
12/20/2020 3:45:00 PM -0.04 31.928 0.198 7.74 3.42 14.62
12/20/2020 4:00:00 PM -0.04 31.928 0.198 7.76 3.48 14.66
12/20/2020 4:15:00 PM -0.05 31.91 0.198 7.77 3.48 14.69
12/20/2020 4:30:00 PM -0.05 31.91 0.198 7.77 3.47 14.7
12/20/2020 4:45:00 PM -0.05 31.91 0.198 7.78 3.4 14.72
12/20/2020 5:00:00 PM -0.05 31.91 0.199 7.78 4.05 14.73
12/20/2020 5:15:00 PM -0.05 31.91 0.199 7.79 3.68 14.72
12/20/2020 5:30:00 PM -0.05 31.91 0.199 7.79 3.57 14.72
12/20/2020 5:45:00 PM -0.06 31.892 0.199 7.79 3.51 14.72
12/20/2020 6:00:00 PM -0.06 31.892 0.199 7.8 3.77 14.7
12/20/2020 6:15:00 PM -0.06 31.892 0.2 7.79 4.4 14.69
12/20/2020 6:30:00 PM -0.06 31.892 0.2 7.8 3.71 14.66
12/20/2020 6:45:00 PM -0.06 31.892 0.2 7.79 3.64 14.64
12/20/2020 7:00:00 PM -0.06 31.892 0.2 7.79 3.52 14.61
12/20/2020 7:15:00 PM -0.06 31.892 0.2 7.78 3.47 14.58
12/20/2020 7:30:00 PM -0.06 31.892 0.201 7.78 3.42 14.54
12/20/2020 7:45:00 PM -0.06 31.892 0.201 7.78 3.51 14.52
12/20/2020 8:00:00 PM -0.06 31.892 0.201 7.76 4.09 14.49
12/20/2020 8:15:00 PM -0.06 31.892 0.202 7.76 4.24 14.44
12/20/2020 8:30:00 PM -0.06 31.892 0.202 7.75 3.63 14.4
12/20/2020 8:45:00 PM -0.06 31.892 0.202 7.75 4.66 14.36
12/20/2020 9:00:00 PM -0.06 31.892 0.202 7.74 3.65 14.32
12/20/2020 9:15:00 PM -0.06 31.892 0.202 7.73 3.53 14.28
12/20/2020 9:30:00 PM -0.06 31.892 0.202 7.72 3.48 14.24
12/20/2020 9:45:00 PM -0.06 31.892 0.202 7.71 3.69 14.2
12/20/2020 10:00:00 PM -0.06 31.892 0.202 7.7 4.29 14.17
12/20/2020 10:15:00 PM -0.06 31.892 0.202 7.7 3.69 14.14
12/20/2020 10:30:00 PM -0.06 31.892 0.202 7.68 3.6 14.1
12/20/2020 10:45:00 PM -0.06 31.892 0.202 7.69 3.58 14.07
12/20/2020 11:00:00 PM -0.06 31.892 0.202 7.68 4 14.05
12/20/2020 11:15:00 PM -0.06 31.892 0.202 7.67 3.62 14.03
12/20/2020 11:30:00 PM -0.06 31.892 0.202 7.67 3.5 13.98
12/20/2020 11:45:00 PM -0.06 31.892 0.202 7.66 3.72 13.97
12/21/2020 12:00:00 AM -0.06 31.892 0.202 7.66 3.53 13.95
12/21/2020 12:15:00 AM -0.06 31.892 0.202 7.65 3.55 13.93
12/21/2020 12:30:00 AM -0.06 31.892 0.202 7.64 3.67 13.91
12/21/2020 12:45:00 AM -0.06 31.892 0.202 7.64 3.57 13.9
12/21/2020 1:00:00 AM -0.06 31.892 0.202 7.64 3.55 13.88
12/21/2020 1:15:00 AM -0.07 31.874 0.202 7.63 4.4 13.87
12/21/2020 1:30:00 AM -0.07 31.874 0.202 7.63 3.76 13.86
12/21/2020 1:45:00 AM -0.06 31.892 0.202 7.62 3.65 13.85
12/21/2020 2:00:00 AM -0.07 31.874 0.202 7.62 3.83 13.84
12/21/2020 2:15:00 AM -0.07 31.874 0.202 7.62 3.85 13.83
12/21/2020 2:30:00 AM -0.07 31.874 0.202 7.62 8.32 13.83
12/21/2020 2:45:00 AM -0.07 31.874 0.202 7.61 3.75 13.83
12/21/2020 3:00:00 AM -0.07 31.874 0.202 7.61 3.8 13.82
12/21/2020 3:15:00 AM -0.07 31.874 0.202 7.6 17.23 13.81
12/21/2020 3:30:00 AM -0.07 31.874 0.202 7.61 4.57 13.81
12/21/2020 3:45:00 AM -0.07 31.874 0.202 7.61 4.62 13.81
12/21/2020 4:00:00 AM -0.07 31.874 0.202 7.6 3.83 13.81
12/21/2020 4:15:00 AM -0.07 31.874 0.202 7.61 4.1 13.8
12/21/2020 4:30:00 AM -0.07 31.874 0.202 7.6 3.86 13.81
12/21/2020 4:45:00 AM -0.07 31.874 0.202 7.6 3.69 13.8
12/21/2020 5:00:00 AM -0.07 31.874 0.202 7.6 3.75 13.8
12/21/2020 5:15:00 AM -0.07 31.874 0.202 7.6 3.73 13.81
12/21/2020 5:30:00 AM -0.07 31.874 0.202 7.6 3.83 13.8
12/21/2020 5:45:00 AM -0.07 31.874 0.202 7.6 3.86 13.81
12/21/2020 6:00:00 AM -0.07 31.874 0.203 7.6 3.86 13.82
12/21/2020 6:15:00 AM -0.07 31.874 0.203 7.6 3.67 13.81
12/21/2020 6:30:00 AM -0.07 31.874 0.203 7.6 3.71 13.82
12/21/2020 6:45:00 AM -0.07 31.874 0.203 7.6 4.66 13.82
12/21/2020 7:00:00 AM -0.07 31.874 0.203 7.6 4.03 13.83
12/21/2020 7:15:00 AM -0.07 31.874 0.203 7.6 3.89 13.83
12/21/2020 7:30:00 AM -0.07 31.874 0.203 7.6 4.02 13.83
12/21/2020 7:45:00 AM -0.07 31.874 0.203 7.6 3.9 13.84
12/21/2020 8:00:00 AM -0.07 31.874 0.203 7.6 3.67 13.85
12/21/2020 8:15:00 AM -0.07 31.874 0.203 7.61 3.84 13.86
12/21/2020 8:30:00 AM -0.07 31.874 0.203 7.6 3.84 13.85
12/21/2020 8:45:00 AM -0.07 31.874 0.203 7.6 3.73 13.86
12/21/2020 9:00:00 AM -0.07 31.874 0.203 7.6 3.66 13.86
12/21/2020 9:15:00 AM -0.06 31.892 0.203 7.61 3.59 13.87
12/21/2020 9:30:00 AM -0.06 31.892 0.203 7.61 3.87 13.89
12/21/2020 9:45:00 AM -0.06 31.892 0.203 7.61 3.72 13.9
12/21/2020 10:00:00 AM -0.06 31.892 0.203 7.62 3.69 13.92
12/21/2020 10:15:00 AM -0.06 31.892 0.203 7.62 3.8 13.96
12/21/2020 10:30:00 AM -0.05 31.91 0.203 7.63 3.7 13.99
12/21/2020 10:45:00 AM -0.05 31.91 0.203 7.63 3.68 14.02
12/21/2020 11:00:00 AM -0.05 31.91 0.203 7.64 3.71 14.05
12/21/2020 11:15:00 AM -0.05 31.91 0.203 7.64 3.8 14.08
12/21/2020 11:30:00 AM -0.05 31.91 0.203 7.64 3.63 14.11
12/21/2020 11:45:00 AM -0.04 31.928 0.203 7.64 3.72 14.15
12/21/2020 12:00:00 PM -0.04 31.928 0.203 7.66 3.78 14.18
12/21/2020 12:15:00 PM -0.03 31.946 0.203 7.66 3.85 14.23
12/21/2020 12:30:00 PM -0.03 31.946 0.203 7.68 3.83 14.27
12/21/2020 12:45:00 PM -0.03 31.946 0.203 7.68 3.82 14.3
12/21/2020 1:00:00 PM -0.02 31.964 0.203 7.7 3.75 14.34
12/21/2020 1:15:00 PM -0.02 31.964 0.203 7.71 3.98 14.38
12/21/2020 1:30:00 PM -0.02 31.964 0.203 7.72 3.84 14.41
12/21/2020 1:45:00 PM -0.02 31.964 0.203 7.73 4.06 14.45
12/21/2020 2:00:00 PM -0.02 31.964 0.204 7.74 3.82 14.47
12/21/2020 2:15:00 PM -0.02 31.964 0.204 7.75 3.62 14.49
12/21/2020 2:30:00 PM -0.01 31.982 0.204 7.76 3.84 14.54
12/21/2020 2:45:00 PM -0.02 31.964 0.205 7.76 4.02 14.56
12/21/2020 3:00:00 PM -0.01 31.982 0.206 7.78 3.69 14.57
12/21/2020 3:15:00 PM -0.02 31.964 0.206 7.79 3.65 14.59
12/21/2020 3:30:00 PM -0.02 31.964 0.207 7.8 3.73 14.61
12/21/2020 3:45:00 PM -0.02 31.964 0.208 7.8 3.69 14.61
12/21/2020 4:00:00 PM -0.02 31.964 0.208 7.81 3.55 14.62
12/21/2020 4:15:00 PM -0.03 31.946 0.209 7.82 3.5 14.64
12/21/2020 4:30:00 PM -0.03 31.946 0.209 7.82 3.87 14.62
12/21/2020 4:45:00 PM -0.03 31.946 0.209 7.82 3.69 14.61
12/21/2020 5:00:00 PM -0.04 31.928 0.209 7.82 3.77 14.6
12/21/2020 5:15:00 PM -0.04 31.928 0.209 7.82 3.61 14.56
12/21/2020 5:30:00 PM -0.04 31.928 0.209 7.82 3.7 14.54
12/21/2020 5:45:00 PM -0.04 31.928 0.209 7.82 3.55 14.51
12/21/2020 6:00:00 PM -0.04 31.928 0.209 7.81 3.66 14.47
12/21/2020 6:15:00 PM -0.05 31.91 0.209 7.8 3.46 14.43
12/21/2020 6:30:00 PM -0.05 31.91 0.209 7.79 3.72 14.37
12/21/2020 6:45:00 PM -0.05 31.91 0.209 7.78 3.48 14.33
12/21/2020 7:00:00 PM -0.05 31.91 0.209 7.78 3.42 14.29
12/21/2020 7:15:00 PM -0.05 31.91 0.209 7.77 3.52 14.25
12/21/2020 7:30:00 PM -0.05 31.91 0.209 7.76 3.51 14.21
12/21/2020 7:45:00 PM -0.05 31.91 0.208 7.75 3.61 14.18
12/21/2020 8:00:00 PM -0.05 31.91 0.208 7.75 3.52 14.14
12/21/2020 8:15:00 PM -0.05 31.91 0.208 7.74 3.63 14.09
12/21/2020 8:30:00 PM -0.05 31.91 0.208 7.73 3.61 14.06
12/21/2020 8:45:00 PM -0.06 31.892 0.208 7.72 3.62 14.03
12/21/2020 9:00:00 PM -0.06 31.892 0.208 7.71 3.55 13.99
12/21/2020 9:15:00 PM -0.06 31.892 0.207 7.7 3.55 13.95
12/21/2020 9:30:00 PM -0.06 31.892 0.207 7.69 3.43 13.92
12/21/2020 9:45:00 PM -0.06 31.892 0.207 7.69 3.48 13.89
12/21/2020 10:00:00 PM -0.06 31.892 0.207 7.68 3.5 13.86
12/21/2020 10:15:00 PM -0.06 31.892 0.207 7.67 3.55 13.84
12/21/2020 10:30:00 PM -0.03 31.946 0.207 7.66 3.8 13.77
12/21/2020 10:45:00 PM -0.06 31.892 0.207 7.66 6.95 13.79
12/21/2020 11:00:00 PM -0.06 31.892 0.206 7.66 3.79 13.77
12/21/2020 11:15:00 PM -0.06 31.892 0.206 7.65 3.46 13.76
12/21/2020 11:30:00 PM -0.06 31.892 0.206 7.65 3.87 13.75
12/21/2020 11:45:00 PM -0.06 31.892 0.206 7.63 3.65 13.73
12/22/2020 12:00:00 AM -0.06 31.892 0.206 7.64 3.87 13.73
12/22/2020 12:15:00 AM -0.06 31.892 0.206 7.64 3.55 13.7
12/22/2020 12:30:00 AM -0.06 31.892 0.206 7.64 3.62 13.71
12/22/2020 12:45:00 AM -0.06 31.892 0.206 7.64 4.26 13.71
12/22/2020 1:00:00 AM -0.06 31.892 0.205 7.63 3.75 13.7
12/22/2020 1:15:00 AM -0.06 31.892 0.206 7.63 3.88 13.71
12/22/2020 1:30:00 AM -0.06 31.892 0.205 7.62 3.92 13.71
12/22/2020 1:45:00 AM -0.06 31.892 0.205 7.63 3.63 13.7
12/22/2020 2:00:00 AM -0.06 31.892 0.205 7.63 3.96 13.7
12/22/2020 2:15:00 AM -0.06 31.892 0.205 7.63 3.7 13.7
12/22/2020 2:30:00 AM -0.06 31.892 0.205 7.63 3.79 13.7
12/22/2020 2:45:00 AM -0.06 31.892 0.205 7.63 3.83 13.7
12/22/2020 3:00:00 AM -0.06 31.892 0.205 7.63 3.59 13.72
12/22/2020 3:15:00 AM -0.06 31.892 0.204 7.63 3.63 13.72
12/22/2020 3:30:00 AM -0.06 31.892 0.205 7.63 7.29 13.73
12/22/2020 3:45:00 AM -0.06 31.892 0.205 7.63 4.74 13.73
12/22/2020 4:00:00 AM -0.07 31.874 0.205 7.63 3.9 13.74
12/22/2020 4:15:00 AM -0.06 31.892 0.205 7.63 3.83 13.75
12/22/2020 4:30:00 AM -0.07 31.874 0.204 7.63 3.71 13.74
12/22/2020 4:45:00 AM -0.07 31.874 0.204 7.63 4.04 13.76
12/22/2020 5:00:00 AM -0.07 31.874 0.204 7.64 4.32 13.77
12/22/2020 5:15:00 AM -0.07 31.874 0.205 7.63 4.61 13.77
12/22/2020 5:30:00 AM -0.07 31.874 0.205 7.64 4.22 13.78
12/22/2020 5:45:00 AM -0.07 31.874 0.205 7.64 3.69 13.79
12/22/2020 6:00:00 AM -0.07 31.874 0.205 7.64 3.75 13.8
12/22/2020 6:15:00 AM -0.07 31.874 0.205 7.64 3.85 13.8
12/22/2020 6:30:00 AM -0.07 31.874 0.205 7.64 3.67 13.8
12/22/2020 6:45:00 AM -0.07 31.874 0.205 7.64 3.73 13.8
12/22/2020 7:00:00 AM -0.07 31.874 0.205 7.65 3.76 13.82
12/22/2020 7:15:00 AM -0.07 31.874 0.205 7.64 3.95 13.82
12/22/2020 7:30:00 AM -0.07 31.874 0.205 7.64 3.83 13.82
12/22/2020 7:45:00 AM -0.07 31.874 0.205 7.65 3.85 13.82
12/22/2020 8:00:00 AM -0.07 31.874 0.205 7.65 4.01 13.82
12/22/2020 8:15:00 AM -0.06 31.892 0.205 7.65 3.8 13.82
12/22/2020 8:30:00 AM -0.06 31.892 0.205 7.65 3.84 13.83
12/22/2020 8:45:00 AM -0.06 31.892 0.205 7.65 3.89 13.83
12/22/2020 9:00:00 AM -0.06 31.892 0.205 7.65 3.7 13.84
12/22/2020 9:15:00 AM -0.06 31.892 0.205 7.66 3.69 13.84
12/22/2020 9:30:00 AM -0.06 31.892 0.205 7.66 3.9 13.86
12/22/2020 9:45:00 AM -0.05 31.91 0.206 7.66 3.85 13.87
12/22/2020 10:00:00 AM -0.05 31.91 0.206 7.66 3.85 13.89
12/22/2020 10:15:00 AM -0.05 31.91 0.206 7.67 3.87 13.91
12/22/2020 10:30:00 AM -0.05 31.91 0.206 7.67 4.2 13.93
12/22/2020 10:45:00 AM -0.04 31.928 0.206 7.68 4.03 13.95
12/22/2020 11:00:00 AM -0.03 31.946 0.206 7.68 4.01 13.98
12/22/2020 11:15:00 AM -0.03 31.946 0.206 7.69 3.86 13.99
12/22/2020 11:30:00 AM -0.03 31.946 0.206 7.7 3.94 14.02
12/22/2020 11:45:00 AM -0.02 31.964 0.206 7.7 3.87 14.05
12/22/2020 12:00:00 PM -0.02 31.964 0.206 7.71 3.83 14.08
12/22/2020 12:15:00 PM -0.01 31.982 0.206 7.71 4.01 14.12
12/22/2020 12:30:00 PM -0.01 31.982 0.206 7.72 3.94 14.15
12/22/2020 12:45:00 PM -0.01 31.982 0.206 7.73 3.83 14.18
12/22/2020 1:00:00 PM -0.01 31.982 0.206 7.74 4.08 14.2
12/22/2020 1:15:00 PM -0.01 31.982 0.206 7.75 3.98 14.23
12/22/2020 1:30:00 PM 0 32 0.206 7.75 3.96 14.26
12/22/2020 1:45:00 PM -0.01 31.982 0.207 7.76 3.9 14.27
12/22/2020 2:00:00 PM -0.01 31.982 0.207 7.76 3.88 14.28
12/22/2020 2:15:00 PM 0 32 0.207 7.77 3.87 14.3
12/22/2020 2:30:00 PM 0 32 0.207 7.77 3.98 14.31
12/22/2020 2:45:00 PM 0 32 0.207 7.78 4.02 14.32
12/22/2020 3:00:00 PM 0 32 0.208 7.79 3.9 14.33
12/22/2020 3:15:00 PM 0 32 0.208 7.79 3.85 14.34
12/22/2020 3:30:00 PM 0 32 0.208 7.8 3.89 14.35
12/22/2020 3:45:00 PM 0 32 0.208 7.79 3.98 14.34
12/22/2020 4:00:00 PM -0.01 31.982 0.208 7.8 4.03 14.32
12/22/2020 4:15:00 PM -0.01 31.982 0.209 7.8 3.95 14.32
12/22/2020 4:30:00 PM -0.01 31.982 0.209 7.8 3.99 14.31
12/22/2020 4:45:00 PM -0.01 31.982 0.209 7.8 4.02 14.28
12/22/2020 5:00:00 PM -0.02 31.964 0.21 7.79 3.89 14.27
12/22/2020 5:15:00 PM -0.02 31.964 0.21 7.79 3.94 14.23
12/22/2020 5:30:00 PM -0.02 31.964 0.21 7.78 4.03 14.2
12/22/2020 5:45:00 PM -0.02 31.964 0.211 7.78 4.11 14.16
12/22/2020 6:00:00 PM -0.02 31.964 0.211 7.76 4.03 14.12
12/22/2020 6:15:00 PM -0.02 31.964 0.211 7.76 4.11 14.09
12/22/2020 6:30:00 PM -0.03 31.946 0.212 7.75 4.07 14.05
12/22/2020 6:45:00 PM -0.03 31.946 0.212 7.75 4.08 14.03
12/22/2020 7:00:00 PM -0.03 31.946 0.212 7.74 4.01 14
12/22/2020 7:15:00 PM -0.03 31.946 0.213 7.74 4.02 13.97
12/22/2020 7:30:00 PM -0.04 31.928 0.213 7.73 3.94 13.95
12/22/2020 7:45:00 PM -0.04 31.928 0.213 7.72 3.9 13.93
12/22/2020 8:00:00 PM -0.04 31.928 0.214 7.71 3.85 13.91
12/22/2020 8:15:00 PM -0.04 31.928 0.214 7.71 3.89 13.87
12/22/2020 8:30:00 PM -0.04 31.928 0.214 7.7 3.81 13.86
12/22/2020 8:45:00 PM -0.04 31.928 0.214 7.7 4.02 13.84
12/22/2020 9:00:00 PM -0.05 31.91 0.214 7.7 4.22 13.83
12/22/2020 9:15:00 PM -0.05 31.91 0.215 7.69 3.97 13.81
12/22/2020 9:30:00 PM -0.05 31.91 0.215 7.69 3.93 13.81
12/22/2020 9:45:00 PM -0.05 31.91 0.215 7.67 3.89 13.79
12/22/2020 10:00:00 PM -0.05 31.91 0.215 7.66 3.83 13.78
12/22/2020 10:15:00 PM -0.05 31.91 0.216 7.66 4.07 13.77
12/22/2020 10:30:00 PM -0.04 31.928 0.216 7.65 4.03 13.74
12/22/2020 10:45:00 PM -0.06 31.892 0.216 7.65 4.15 13.77
12/22/2020 11:00:00 PM -0.06 31.892 0.216 7.66 4.01 13.77
12/22/2020 11:15:00 PM -0.06 31.892 0.216 7.66 4.09 13.76
12/22/2020 11:30:00 PM -0.06 31.892 0.216 7.66 4.03 13.76
12/22/2020 11:45:00 PM -0.06 31.892 0.216 7.66 3.88 13.76
12/23/2020 12:00:00 AM -0.06 31.892 0.216 7.66 3.88 13.77
12/23/2020 12:15:00 AM -0.06 31.892 0.216 7.66 4.08 13.77
12/23/2020 12:30:00 AM -0.06 31.892 0.216 7.66 3.9 13.77
12/23/2020 12:45:00 AM -0.06 31.892 0.216 7.66 4.1 13.77
12/23/2020 1:00:00 AM -0.06 31.892 0.216 7.66 4.21 13.77
12/23/2020 1:15:00 AM -0.06 31.892 0.216 7.66 3.98 13.79
12/23/2020 1:30:00 AM -0.06 31.892 0.216 7.66 4.09 13.79
12/23/2020 1:45:00 AM -0.06 31.892 0.216 7.66 4.03 13.78
12/23/2020 2:00:00 AM -0.06 31.892 0.216 7.66 4.16 13.8
12/23/2020 2:15:00 AM -0.06 31.892 0.216 7.67 4.22 13.8
12/23/2020 2:30:00 AM -0.06 31.892 0.216 7.67 4 13.81
12/23/2020 2:45:00 AM -0.06 31.892 0.216 7.67 3.95 13.82
12/23/2020 3:00:00 AM -0.06 31.892 0.216 7.67 4.07 13.82
12/23/2020 3:15:00 AM -0.06 31.892 0.216 7.67 4.2 13.82
12/23/2020 3:30:00 AM -0.06 31.892 0.216 7.67 4.05 13.84
12/23/2020 3:45:00 AM -0.06 31.892 0.216 7.67 4.17 13.83
12/23/2020 4:00:00 AM -0.06 31.892 0.215 7.67 4.21 13.84
12/23/2020 4:15:00 AM -0.06 31.892 0.215 7.68 4.18 13.85
12/23/2020 4:30:00 AM -0.06 31.892 0.215 7.68 4.17 13.86
12/23/2020 4:45:00 AM -0.07 31.874 0.215 7.68 4.18 13.85
12/23/2020 5:00:00 AM -0.07 31.874 0.215 7.68 3.93 13.86
12/23/2020 5:15:00 AM -0.07 31.874 0.215 7.68 3.9 13.86
12/23/2020 5:30:00 AM -0.07 31.874 0.215 7.68 3.89 13.88
12/23/2020 5:45:00 AM -0.07 31.874 0.214 7.68 5.77 13.88
12/23/2020 6:00:00 AM -0.07 31.874 0.214 7.68 4.14 13.87
12/23/2020 6:15:00 AM -0.07 31.874 0.214 7.68 4.14 13.89
12/23/2020 6:30:00 AM -0.07 31.874 0.214 7.69 4.19 13.9
12/23/2020 6:45:00 AM -0.07 31.874 0.214 7.68 4.05 13.9
12/23/2020 7:00:00 AM -0.08 31.856 0.214 7.68 3.94 13.89
12/23/2020 7:15:00 AM -0.08 31.856 0.214 7.69 4.08 13.91
12/23/2020 7:30:00 AM -0.08 31.856 0.213 7.69 4.01 13.91
12/23/2020 7:45:00 AM -0.08 31.856 0.213 7.69 4.03 13.92
12/23/2020 8:00:00 AM -0.08 31.856 0.213 7.69 3.95 13.93
12/23/2020 8:15:00 AM -0.08 31.856 0.213 7.69 4.05 13.94
12/23/2020 8:30:00 AM -0.07 31.874 0.213 7.7 4.03 13.94
12/23/2020 8:45:00 AM -0.07 31.874 0.213 7.7 4.16 13.96
12/23/2020 9:00:00 AM -0.06 31.892 0.213 7.7 4.03 13.98
12/23/2020 9:15:00 AM -0.06 31.892 0.213 7.7 4.04 13.99
12/23/2020 9:30:00 AM -0.06 31.892 0.213 7.7 4.05 14.02
12/23/2020 9:45:00 AM -0.05 31.91 0.213 7.71 3.96 14.05
12/23/2020 10:00:00 AM -0.04 31.928 0.212 7.71 4.37 14.1
12/23/2020 10:15:00 AM -0.03 31.946 0.212 7.71 4.01 14.13
12/23/2020 10:30:00 AM -0.03 31.946 0.212 7.72 4.02 14.16
12/23/2020 10:45:00 AM -0.02 31.964 0.212 7.72 4 14.19
12/23/2020 11:00:00 AM -0.01 31.982 0.212 7.74 4.05 14.23
12/23/2020 11:15:00 AM 0 32 0.212 7.74 3.97 14.26
12/23/2020 11:30:00 AM 0.02 32.036 0.211 7.75 4.3 14.29
12/23/2020 11:45:00 AM 0.03 32.054 0.211 7.76 3.94 14.31
12/23/2020 12:00:00 PM 0.05 32.09 0.211 7.77 4.07 14.35
12/23/2020 12:15:00 PM 0.07 32.126 0.211 7.78 4.07 14.37
12/23/2020 12:30:00 PM 0.09 32.162 0.211 7.79 3.96 14.4
12/23/2020 12:45:00 PM 0.1 32.18 0.21 7.8 3.97 14.44
12/23/2020 1:00:00 PM 0.12 32.216 0.21 7.81 4.03 14.46
12/23/2020 1:15:00 PM 0.14 32.252 0.21 7.82 3.9 14.49
12/23/2020 1:30:00 PM 0.15 32.27 0.21 7.83 4.11 14.51
12/23/2020 1:45:00 PM 0.16 32.288 0.21 7.84 4.13 14.54
12/23/2020 2:00:00 PM 0.17 32.306 0.209 7.85 3.98 14.57
12/23/2020 2:15:00 PM 0.18 32.324 0.209 7.86 4.1 14.58
12/23/2020 2:30:00 PM 0.2 32.36 0.209 7.86 4.23 14.6
12/23/2020 2:45:00 PM 0.2 32.36 0.209 7.87 4.09 14.62
12/23/2020 3:00:00 PM 0.2 32.36 0.209 7.88 4.65 14.63
12/23/2020 3:15:00 PM 0.21 32.378 0.209 7.89 4.19 14.64
12/23/2020 3:30:00 PM 0.2 32.36 0.209 7.89 4.01 14.64
12/23/2020 3:45:00 PM 0.2 32.36 0.209 7.89 4.16 14.64
12/23/2020 4:00:00 PM 0.19 32.342 0.209 7.9 4.04 14.64
12/23/2020 4:15:00 PM 0.19 32.342 0.209 7.9 4.14 14.62
12/23/2020 4:30:00 PM 0.19 32.342 0.209 7.9 3.88 14.61
12/23/2020 4:45:00 PM 0.17 32.306 0.209 7.9 4.12 14.59
12/23/2020 5:00:00 PM 0.16 32.288 0.209 7.89 4.03 14.57
12/23/2020 5:15:00 PM 0.14 32.252 0.209 7.88 4.26 14.54
12/23/2020 5:30:00 PM 0.13 32.234 0.209 7.88 4.18 14.5
12/23/2020 5:45:00 PM 0.12 32.216 0.209 7.87 4.17 14.45
12/23/2020 6:00:00 PM 0.11 32.198 0.209 7.86 4.19 14.41
12/23/2020 6:15:00 PM 0.09 32.162 0.209 7.85 3.97 14.37
12/23/2020 6:30:00 PM 0.08 32.144 0.209 7.84 4.13 14.34
12/23/2020 6:45:00 PM 0.07 32.126 0.209 7.83 4.11 14.3
12/23/2020 7:00:00 PM 0.06 32.108 0.209 7.82 4.2 14.27
12/23/2020 7:15:00 PM 0.05 32.09 0.209 7.81 3.98 14.24
12/23/2020 7:30:00 PM 0.04 32.072 0.209 7.8 4.13 14.18
12/23/2020 7:45:00 PM 0.03 32.054 0.209 7.79 4.1 14.17
12/23/2020 8:00:00 PM 0.02 32.036 0.209 7.78 3.98 14.14
12/23/2020 8:15:00 PM 0.01 32.018 0.209 7.77 4.04 14.11
12/23/2020 8:30:00 PM 0 32 0.209 7.77 4.46 14.09
12/23/2020 8:45:00 PM 0 32 0.209 7.76 4.25 14.06
12/23/2020 9:00:00 PM -0.01 31.982 0.209 7.75 4.19 14.04
12/23/2020 9:15:00 PM -0.01 31.982 0.209 7.75 3.87 14.02
12/23/2020 9:30:00 PM -0.02 31.964 0.209 7.74 4.71 14
12/23/2020 9:45:00 PM -0.02 31.964 0.209 7.73 4.14 13.98
12/23/2020 10:00:00 PM -0.03 31.946 0.209 7.72 4.05 13.97
12/23/2020 10:15:00 PM -0.03 31.946 0.208 7.72 4.06 13.94
12/23/2020 10:30:00 PM 0 32 0.208 7.69 4.44 13.88
12/23/2020 10:45:00 PM -0.04 31.928 0.208 7.71 4.23 13.93
12/23/2020 11:00:00 PM -0.04 31.928 0.208 7.7 4.39 13.93
12/23/2020 11:15:00 PM -0.03 31.946 0.208 7.7 4.77 13.93
12/23/2020 11:30:00 PM -0.04 31.928 0.208 7.7 4.11 13.92
12/23/2020 11:45:00 PM -0.04 31.928 0.208 7.7 3.95 13.92
12/24/2020 12:00:00 AM -0.03 31.946 0.207 7.7 4.06 13.92
12/24/2020 12:15:00 AM -0.03 31.946 0.207 7.69 4.04 13.92
12/24/2020 12:30:00 AM -0.03 31.946 0.207 7.69 3.99 13.92
12/24/2020 12:45:00 AM -0.03 31.946 0.207 7.7 4.08 13.92
12/24/2020 1:00:00 AM -0.03 31.946 0.207 7.7 4.34 13.93
12/24/2020 1:15:00 AM -0.03 31.946 0.207 7.7 4.21 13.94
12/24/2020 1:30:00 AM -0.03 31.946 0.206 7.7 4.09 13.94
12/24/2020 1:45:00 AM -0.03 31.946 0.206 7.7 4.72 13.94
12/24/2020 2:00:00 AM -0.02 31.964 0.206 7.7 3.93 13.94
12/24/2020 2:15:00 AM -0.02 31.964 0.206 7.7 4.72 13.94
12/24/2020 2:30:00 AM -0.02 31.964 0.206 7.7 5.87 13.95
12/24/2020 2:45:00 AM -0.02 31.964 0.206 7.7 4.5 13.94
12/24/2020 3:00:00 AM -0.02 31.964 0.206 7.7 4.31 13.94
12/24/2020 3:15:00 AM -0.02 31.964 0.206 7.7 3.98 13.95
12/24/2020 3:30:00 AM -0.02 31.964 0.205 7.7 3.99 13.94
12/24/2020 3:45:00 AM -0.01 31.982 0.205 7.7 4.29 13.95
12/24/2020 4:00:00 AM -0.01 31.982 0.205 7.7 4.25 13.95
12/24/2020 4:15:00 AM -0.01 31.982 0.205 7.7 4.1 13.95
12/24/2020 4:30:00 AM 0 32 0.205 7.7 4.08 13.95
12/24/2020 4:45:00 AM 0 32 0.205 7.7 4.11 13.95
12/24/2020 5:00:00 AM 0.01 32.018 0.205 7.7 4.07 13.96
12/24/2020 5:15:00 AM 0.01 32.018 0.205 7.7 4.07 13.95
12/24/2020 5:30:00 AM 0.02 32.036 0.205 7.7 4.06 13.96
12/24/2020 5:45:00 AM 0.03 32.054 0.205 7.7 4.1 13.95
12/24/2020 6:00:00 AM 0.03 32.054 0.205 7.71 4.49 13.95
12/24/2020 6:15:00 AM 0.04 32.072 0.205 7.71 4.34 13.95
12/24/2020 6:30:00 AM 0.05 32.09 0.204 7.71 4.16 13.95
12/24/2020 6:45:00 AM 0.05 32.09 0.204 7.7 5.47 13.94
12/24/2020 7:00:00 AM 0.06 32.108 0.204 7.71 4.11 13.94
12/24/2020 7:15:00 AM 0.07 32.126 0.204 7.71 4.07 13.94
12/24/2020 7:30:00 AM 0.08 32.144 0.204 7.71 4.16 13.94
12/24/2020 7:45:00 AM 0.08 32.144 0.204 7.71 4.01 13.93
12/24/2020 8:00:00 AM 0.09 32.162 0.204 7.71 3.87 13.91
12/24/2020 8:15:00 AM 0.1 32.18 0.204 7.71 4 13.91
12/24/2020 8:30:00 AM 0.11 32.198 0.204 7.7 3.97 13.91
12/24/2020 8:45:00 AM 0.13 32.234 0.204 7.71 4.03 13.91
12/24/2020 9:00:00 AM 0.18 32.324 0.205 7.69 4.14 13.87
12/24/2020 9:15:00 AM 0.24 32.432 0.205 7.69 3.95 13.84
12/24/2020 9:30:00 AM 0.17 32.306 0.204 7.71 4.09 13.89
12/24/2020 9:45:00 AM 0.17 32.306 0.204 7.71 4.28 13.92
12/24/2020 10:00:00 AM 0.18 32.324 0.204 7.72 4.17 13.94
12/24/2020 10:15:00 AM 0.19 32.342 0.204 7.72 4.19 13.96
12/24/2020 10:30:00 AM 0.21 32.378 0.204 7.72 4.41 13.97
12/24/2020 10:45:00 AM 0.24 32.432 0.204 7.73 4.4 13.99
12/24/2020 11:00:00 AM 0.25 32.45 0.203 7.74 4.17 14.02
12/24/2020 11:15:00 AM 0.27 32.486 0.203 7.74 4.24 14.05
12/24/2020 11:30:00 AM 0.29 32.522 0.203 7.75 4.12 14.07
12/24/2020 11:45:00 AM 0.32 32.576 0.203 7.75 4.23 14.09
12/24/2020 12:00:00 PM 0.33 32.594 0.203 7.76 4.04 14.11
12/24/2020 12:15:00 PM 0.35 32.63 0.204 7.76 4.18 14.13
12/24/2020 12:30:00 PM 0.37 32.666 0.205 7.77 4.31 14.15
12/24/2020 12:45:00 PM 0.39 32.702 0.206 7.78 4.6 14.17
12/24/2020 1:00:00 PM 0.42 32.756 0.207 7.79 4.84 14.17
12/24/2020 1:15:00 PM 0.42 32.756 0.207 7.79 5.92 14.18
12/24/2020 1:30:00 PM 0.44 32.792 0.208 7.8 5.32 14.18
12/24/2020 1:45:00 PM 0.46 32.828 0.208 7.8 5.47 14.19
12/24/2020 2:00:00 PM 0.49 32.882 0.208 7.8 5.43 14.18
12/24/2020 2:15:00 PM 0.51 32.918 0.209 7.8 5.94 14.18
12/24/2020 2:30:00 PM 0.52 32.936 0.21 7.79 6.18 14.16
12/24/2020 2:45:00 PM 0.53 32.954 0.211 7.79 6.61 14.15
12/24/2020 3:00:00 PM 0.55 32.99 0.213 7.79 6.75 14.12
12/24/2020 3:15:00 PM 0.55 32.99 0.214 7.79 7.61 14.09
12/24/2020 3:30:00 PM 0.58 33.044 0.217 7.78 8.79 14.06
12/24/2020 3:45:00 PM 0.57 33.026 0.22 7.77 10.45 14.03
12/24/2020 4:00:00 PM 0.57 33.026 0.223 7.76 11.41 13.99
12/24/2020 4:15:00 PM 0.56 33.008 0.226 7.75 13.97 13.96
12/24/2020 4:30:00 PM 0.56 33.008 0.23 7.73 17.59 13.93
12/24/2020 4:45:00 PM 0.55 32.99 0.234 7.71 21.28 13.9
12/24/2020 5:00:00 PM 0.55 32.99 0.238 7.69 35.14 13.86
12/24/2020 5:15:00 PM 0.54 32.972 0.241 7.68 51.1 13.84
12/24/2020 5:30:00 PM 0.52 32.936 0.242 7.66 73.44 13.82
12/24/2020 5:45:00 PM 0.5 32.9 0.243 7.63 77.28 13.81
12/24/2020 6:00:00 PM 0.48 32.864 0.242 7.62 109.96 13.79
12/24/2020 6:15:00 PM 0.46 32.828 0.24 7.6 119.25 13.78
12/24/2020 6:30:00 PM 0.44 32.792 0.234 7.57 131.03 13.78
12/24/2020 6:45:00 PM 0.41 32.738 0.228 7.53 118.69 13.77
12/24/2020 7:00:00 PM 0.4 32.72 0.223 7.49 177.31 13.76
12/24/2020 7:15:00 PM 0.39 32.702 0.217 7.46 187.16 13.75
12/24/2020 7:30:00 PM 0.4 32.72 0.211 7.44 149.65 13.74
12/24/2020 7:45:00 PM 0.41 32.738 0.206 7.42 216.69 13.73
12/24/2020 8:00:00 PM 0.39 32.702 0.198 7.42 179.19 13.71
12/24/2020 8:15:00 PM 0.39 32.702 0.191 7.42 266.44 13.7
12/24/2020 8:30:00 PM 0.41 32.738 0.185 7.41 265.24 13.68
12/24/2020 8:45:00 PM 0.44 32.792 0.177 7.41 204.18 13.68
12/24/2020 9:00:00 PM 0.47 32.846 0.169 7.39 254.97 13.68
12/24/2020 9:15:00 PM 0.5 32.9 0.163 7.36 231.32 13.67
12/24/2020 9:30:00 PM 0.49 32.882 0.156 7.34 276.03 13.67
12/24/2020 9:45:00 PM 0.48 32.864 0.151 7.33 271.76 13.67
12/24/2020 10:00:00 PM 0.48 32.864 0.147 7.31 313.2 13.68
12/24/2020 10:15:00 PM 0.49 32.882 0.144 7.3 447.43 13.68
12/24/2020 10:30:00 PM 0.49 32.882 0.141 7.29 304.84 13.68
12/24/2020 10:45:00 PM 0.5 32.9 0.138 7.28 335.81 13.67
12/24/2020 11:00:00 PM 0.52 32.936 0.136 7.26 387 13.65
12/24/2020 11:15:00 PM 0.55 32.99 0.135 7.25 427.71 13.62
12/24/2020 11:30:00 PM 0.57 33.026 0.133 7.23 347.79 13.61
12/24/2020 11:45:00 PM 0.6 33.08 0.132 7.23 381.55 13.6
12/25/2020 12:00:00 AM 0.63 33.134 0.13 7.22 367.77 13.59
12/25/2020 12:15:00 AM 0.67 33.206 0.128 7.21 411.28 13.59
12/25/2020 12:30:00 AM 0.71 33.278 0.127 7.2 391.39 13.58
12/25/2020 12:45:00 AM 0.73 33.314 0.125 7.2 467.04 13.57
12/25/2020 1:00:00 AM 0.72 33.296 0.124 7.18 442.53 13.53
12/25/2020 1:15:00 AM 0.72 33.296 0.121 7.17 338.41 13.54
12/25/2020 1:30:00 AM 0.75 33.35 0.118 7.15 485.49 13.52
12/25/2020 1:45:00 AM 0.79 33.422 0.114 7.13 418.42 13.48
12/25/2020 2:00:00 AM 0.82 33.476 0.11 7.11 544.8 13.44
12/25/2020 2:15:00 AM 0.85 33.53 0.094 7.04 743.36 13.33
12/25/2020 2:30:00 AM 0.88 33.584 0.066 7.04 1407.58 13.25
12/25/2020 2:45:00 AM 0.85 33.53 0.097 7.01 161.51 13.26
12/25/2020 3:00:00 AM 0.77 33.386 0.099 6.98 78.81 13.24
12/25/2020 3:15:00 AM 0.72 33.296 0.098 6.99 147.19 13.22
12/25/2020 3:30:00 AM 0.78 33.404 0.097 6.96 1267.24 11.14
12/25/2020 3:45:00 AM 0.89 33.602 0.095 6.94 1991.17 10.88
12/25/2020 4:00:00 AM 1 33.8 0.094 6.93 2143.15 9.25
12/25/2020 4:15:00 AM 1.1 33.98 0.091 6.91 2091.84 8.51
12/25/2020 4:30:00 AM 1.18 34.124 0.089 6.89 2023.56 7.54
12/25/2020 4:45:00 AM 1.25 34.25 0.087 6.88 2129.23 5.59
12/25/2020 5:00:00 AM 1.32 34.376 0.084 6.9 2445.89 3.81
12/25/2020 5:15:00 AM 1.39 34.502 0.081 6.89 1439.43 2.93
12/25/2020 5:30:00 AM 1.45 34.61 0.077 6.83 1453.7 2.18
12/25/2020 5:45:00 AM 1.5 34.7 0.076 6.89 1051.76 1.89
12/25/2020 6:00:00 AM 1.55 34.79 0.1 6.8 182.71 4.43
12/25/2020 6:15:00 AM 1.6 34.88 0.098 6.8 269.82 7.08
12/25/2020 6:30:00 AM 1.64 34.952 0.096 6.81 412.97 9.01
12/25/2020 6:45:00 AM 1.67 35.006 0.095 6.82 615.29 9.34
12/25/2020 7:00:00 AM 1.71 35.078 0.094 6.82 968.94 7.46
12/25/2020 7:15:00 AM 1.73 35.114 0.094 6.79 750.18 5.97
12/25/2020 7:30:00 AM 1.75 35.15 0.094 6.78 804.91 4.36
12/25/2020 7:45:00 AM 1.77 35.186 0.093 6.79 1099.17 2.82
12/25/2020 8:00:00 AM 1.79 35.222 0.093 6.8 1380.59 1.97
12/25/2020 8:15:00 AM 1.8 35.24 0.093 6.82 1367.61 1.17
12/25/2020 8:30:00 AM 1.81 35.258 0.093 6.81 1487.95 0.7
12/25/2020 8:45:00 AM 1.82 35.276 0.092 6.79 1889.08 0.45
12/25/2020 9:00:00 AM 1.83 35.294 0.091 6.77 2325.14 0.41
12/25/2020 9:15:00 AM 1.83 35.294 0.089 6.76 3345.4 0.39
12/25/2020 9:30:00 AM 1.84 35.312 0.087 6.74 2446.34 0.38
12/25/2020 9:45:00 AM 1.84 35.312 0.085 6.73 2532.47 0.37
12/25/2020 10:00:00 AM 1.83 35.294 0.082 6.74 3593.93 0.36
12/25/2020 10:15:00 AM 1.83 35.294 0.08 6.74 5483.11 0.36
12/25/2020 10:30:00 AM 1.82 35.276 0.076 6.73 5370.57 0.35
12/25/2020 10:45:00 AM 1.82 35.276 0.086 6.61 344.05 2.54
12/25/2020 11:00:00 AM 1.8 35.24 0.088 6.64 211.77 1.84
12/25/2020 11:15:00 AM 1.8 35.24 0.09 6.68 138.33 1.14
12/25/2020 11:30:00 AM 1.81 35.258 0.091 6.68 157.32 0.58
12/25/2020 11:45:00 AM 1.82 35.276 0.091 6.68 173.99 0.37
12/25/2020 12:00:00 PM 1.84 35.312 0.092 6.68 193.22 0.35
12/25/2020 12:15:00 PM 1.87 35.366 0.092 6.68 196.15 0.34
12/25/2020 12:30:00 PM 1.89 35.402 0.093 6.68 175.01 0.34
12/25/2020 12:45:00 PM 1.92 35.456 0.092 6.69 188.19 0.33
12/25/2020 1:00:00 PM 1.95 35.51 0.092 6.68 239.97 0.33
12/25/2020 1:15:00 PM 1.98 35.564 0.092 6.68 384.37 0.33
12/25/2020 1:30:00 PM 2.01 35.618 0.092 6.68 474.71 0.32
12/25/2020 1:45:00 PM 2.03 35.654 0.092 6.67 932.09 0.31
12/25/2020 2:00:00 PM 2.05 35.69 0.091 6.63 1236.28 0.31
12/25/2020 2:15:00 PM 2.07 35.726 0.091 6.65 1764.55 0.31
12/25/2020 2:30:00 PM 2.08 35.744 0.09 6.69 2419.67 0.31
12/25/2020 2:45:00 PM 2.1 35.78 0.09 6.69 3155.3 0.31
12/25/2020 3:00:00 PM 2.11 35.798 0.09 6.69 3325.37 0.3
12/25/2020 3:15:00 PM 2.12 35.816 0.089 6.69 4155.04 0.3
12/25/2020 3:30:00 PM 2.12 35.816 0.088 6.69 5600.91 0.3
12/25/2020 3:45:00 PM 2.12 35.816 0.088 6.69 8632.19 0.3
12/25/2020 4:00:00 PM 2.12 35.816 0.087 6.68 12308.21 0.3
12/25/2020 4:15:00 PM 2.12 35.816 0.085 6.68 14526.38 0.29
12/25/2020 4:30:00 PM 2.12 35.816 0.082 6.68 15223.37 0.29
12/25/2020 4:45:00 PM 2.11 35.798 0.09 6.61 392.87 2.26
12/25/2020 5:00:00 PM 2.11 35.798 0.086 6.65 306.72 1.85
12/25/2020 5:15:00 PM 2.1 35.78 0.082 6.65 416.34 0.8
12/25/2020 5:30:00 PM 2.1 35.78 0.08 6.64 314.62 0.35
12/25/2020 5:45:00 PM 2.09 35.762 0.078 6.65 377.61 0.3
12/25/2020 6:00:00 PM 2.09 35.762 0.079 6.65 470.04 0.3
12/25/2020 6:15:00 PM 2.08 35.744 0.079 6.65 351.66 0.29
12/25/2020 6:30:00 PM 2.08 35.744 0.078 6.65 434.48 0.29
12/25/2020 6:45:00 PM 2.08 35.744 0.076 6.65 1188.53 0.28
12/25/2020 7:00:00 PM 2.09 35.762 0.085 6.6 279.01 1
12/25/2020 7:15:00 PM 2.09 35.762 0.085 6.67 316.49 0.31
12/25/2020 7:30:00 PM 2.09 35.762 0.082 6.68 430.06 0.28
12/25/2020 7:45:00 PM 2.09 35.762 0.078 6.7 301.38 0.28
12/25/2020 8:00:00 PM 2.1 35.78 0.085 6.59 151.65 1.02
12/25/2020 8:15:00 PM 2.11 35.798 0.083 6.69 283.32 0.3
12/25/2020 8:30:00 PM 2.11 35.798 0.081 6.71 549.42 0.28
12/25/2020 8:45:00 PM 2.12 35.816 0.08 6.6 292.38 0.52
12/25/2020 9:00:00 PM 2.12 35.816 0.079 6.67 817.45 0.28
12/25/2020 9:15:00 PM 2.12 35.816 0.077 6.67 468.37 0.28
12/25/2020 9:30:00 PM 2.12 35.816 0.075 6.68 663.44 0.28
12/25/2020 9:45:00 PM 2.12 35.816 0.086 6.57 126.32 0.66
12/25/2020 10:00:00 PM 2.12 35.816 0.084 6.63 282.68 0.31
12/25/2020 10:15:00 PM 2.12 35.816 0.081 6.65 400.7 0.28
12/25/2020 10:30:00 PM 2.12 35.816 0.077 6.67 522.12 0.27
12/25/2020 10:45:00 PM 2.12 35.816 0.082 6.57 152.36 0.58
12/25/2020 11:00:00 PM 2.11 35.798 0.079 6.66 461.28 0.27
12/25/2020 11:15:00 PM 2.11 35.798 0.075 6.67 606.57 0.27
12/25/2020 11:30:00 PM 2.1 35.78 0.073 6.69 704.86 0.27
12/25/2020 11:45:00 PM 2.1 35.78 0.088 6.57 288.31 0.69
12/26/2020 12:00:00 AM 2.09 35.762 0.087 6.64 214.3 0.3
12/26/2020 12:15:00 AM 2.09 35.762 0.086 6.66 256.66 0.27
12/26/2020 12:30:00 AM 2.08 35.744 0.086 6.67 358.34 0.27
12/26/2020 12:45:00 AM 2.07 35.726 0.085 6.68 285.97 0.27
12/26/2020 1:00:00 AM 2.07 35.726 0.084 6.68 270.93 0.27
12/26/2020 1:15:00 AM 2.06 35.708 0.084 6.68 257.11 0.27
12/26/2020 1:30:00 AM 2.05 35.69 0.084 6.68 399.28 0.27
12/26/2020 1:45:00 AM 2.04 35.672 0.083 6.69 308.89 0.27
12/26/2020 2:00:00 AM 2.04 35.672 0.083 6.68 340.14 0.27
12/26/2020 2:15:00 AM 2.03 35.654 0.083 6.68 327.37 0.27
12/26/2020 2:30:00 AM 2.02 35.636 0.083 6.68 330.59 0.27
12/26/2020 2:45:00 AM 2.01 35.618 0.083 6.67 312.77 0.27
12/26/2020 3:00:00 AM 2 35.6 0.083 6.68 245.98 0.26
12/26/2020 3:15:00 AM 1.99 35.582 0.083 6.68 242.76 0.26
12/26/2020 3:30:00 AM 1.99 35.582 0.083 6.68 238.54 0.26
12/26/2020 3:45:00 AM 1.98 35.564 0.083 6.68 206.42 0.26
12/26/2020 4:00:00 AM 1.97 35.546 0.083 6.68 198.39 0.26
12/26/2020 4:15:00 AM 1.96 35.528 0.083 6.68 178.5 0.26
12/26/2020 4:30:00 AM 1.95 35.51 0.083 6.67 184.54 0.26
12/26/2020 4:45:00 AM 1.95 35.51 0.083 6.67 160.22 0.26
12/26/2020 5:00:00 AM 1.94 35.492 0.083 6.63 157.11 0.26
12/26/2020 5:15:00 AM 1.93 35.474 0.083 6.64 147.7 0.26
12/26/2020 5:30:00 AM 1.92 35.456 0.083 6.67 146.89 0.26
12/26/2020 5:45:00 AM 1.92 35.456 0.083 6.63 142.55 0.26
12/26/2020 6:00:00 AM 1.91 35.438 0.083 6.64 143.83 0.26
12/26/2020 6:15:00 AM 1.9 35.42 0.083 6.64 142.49 0.26
12/26/2020 6:30:00 AM 1.9 35.42 0.083 6.64 141.3 0.26
12/26/2020 6:45:00 AM 1.89 35.402 0.083 6.66 145.53 0.26
12/26/2020 7:00:00 AM 1.88 35.384 0.083 6.64 146.27 0.26
12/26/2020 7:15:00 AM 1.87 35.366 0.083 6.64 148.3 0.26
12/26/2020 7:30:00 AM 1.87 35.366 0.083 6.64 147.35 0.26
12/26/2020 7:45:00 AM 1.86 35.348 0.083 6.63 145.33 0.26
12/26/2020 8:00:00 AM 1.85 35.33 0.083 6.64 151.14 0.26
12/26/2020 8:15:00 AM 1.85 35.33 0.083 6.63 148.05 0.26
12/26/2020 8:30:00 AM 1.84 35.312 0.083 6.66 149.8 0.26
12/26/2020 8:45:00 AM 1.84 35.312 0.083 6.66 146.51 0.26
12/26/2020 9:00:00 AM 1.83 35.294 0.083 6.62 149.44 0.26
12/26/2020 9:15:00 AM 1.83 35.294 0.083 6.66 144.88 0.26
12/26/2020 9:30:00 AM 1.82 35.276 0.083 6.65 145.95 0.26
12/26/2020 9:45:00 AM 1.82 35.276 0.083 6.66 146.8 0.26
12/26/2020 10:00:00 AM 1.81 35.258 0.083 6.65 148.58 0.26
12/26/2020 10:15:00 AM 1.81 35.258 0.083 6.65 151.61 0.26
12/26/2020 10:30:00 AM 1.8 35.24 0.083 6.65 154.4 0.26
12/26/2020 10:45:00 AM 1.8 35.24 0.082 6.65 158.57 0.26
12/26/2020 11:00:00 AM 1.79 35.222 0.082 6.65 164.48 0.26
12/26/2020 11:15:00 AM 1.79 35.222 0.082 6.64 167.01 0.26
12/26/2020 11:30:00 AM 1.78 35.204 0.082 6.65 168.04 0.26
12/26/2020 11:45:00 AM 1.78 35.204 0.082 6.65 165.89 0.26
12/26/2020 12:00:00 PM 1.77 35.186 0.082 6.65 170.62 0.26
12/26/2020 12:15:00 PM 1.77 35.186 0.082 6.65 175.86 0.26
12/26/2020 12:30:00 PM 1.76 35.168 0.082 6.65 184.51 0.25
12/26/2020 12:45:00 PM 1.76 35.168 0.082 6.65 194.74 0.25
12/26/2020 1:00:00 PM 1.75 35.15 0.082 6.64 193.43 0.25
12/26/2020 1:15:00 PM 1.75 35.15 0.082 6.64 196.1 0.26
12/26/2020 1:30:00 PM 1.74 35.132 0.081 6.64 195.77 0.25
12/26/2020 1:45:00 PM 1.73 35.114 0.081 6.64 192.84 0.26
12/26/2020 2:00:00 PM 1.73 35.114 0.081 6.64 175.08 0.25
12/26/2020 2:15:00 PM 1.72 35.096 0.08 6.62 158.55 0.25
12/26/2020 2:30:00 PM 1.71 35.078 0.079 6.63 154.21 0.25
12/26/2020 2:45:00 PM 1.7 35.06 0.08 6.63 133.4 0.25
12/26/2020 3:00:00 PM 1.7 35.06 0.109 6.65 185.16 0.25
12/26/2020 3:15:00 PM 1.69 35.042 0.107 6.71 192.71 0.25
12/26/2020 3:30:00 PM 1.68 35.024 0.107 6.7 180.23 0.25
12/26/2020 3:45:00 PM 1.67 35.006 0.106 6.69 170.18 0.25
12/26/2020 4:00:00 PM 1.66 34.988 0.106 6.69 165.32 0.25
12/26/2020 4:15:00 PM 1.65 34.97 0.105 6.69 160.14 0.25
12/26/2020 4:30:00 PM 1.63 34.934 0.105 6.69 157.25 0.25
12/26/2020 4:45:00 PM 1.62 34.916 0.104 6.69 157.43 0.25
12/26/2020 5:00:00 PM 1.61 34.898 0.104 6.66 157.08 0.25
12/26/2020 5:15:00 PM 1.61 34.898 0.103 6.63 162.64 0.25
12/26/2020 5:30:00 PM 1.6 34.88 0.103 6.65 168.22 0.25
12/26/2020 5:45:00 PM 1.59 34.862 0.102 6.65 183.25 0.25
12/26/2020 6:00:00 PM 1.58 34.844 0.102 6.67 177.86 0.25
12/26/2020 6:15:00 PM 1.57 34.826 0.101 6.65 196.54 0.25
12/26/2020 6:30:00 PM 1.56 34.808 0.1 6.65 195.44 0.25
12/26/2020 6:45:00 PM 1.56 34.808 0.099 6.67 228.67 0.25
12/26/2020 7:00:00 PM 1.55 34.79 0.099 6.67 218.19 0.25
12/26/2020 7:15:00 PM 1.54 34.772 0.098 6.67 211.37 0.25
12/26/2020 7:30:00 PM 1.53 34.754 0.097 6.67 244.87 0.25
12/26/2020 7:45:00 PM 1.52 34.736 0.096 6.67 293.68 0.25
12/26/2020 8:00:00 PM 1.51 34.718 0.096 6.63 318.3 0.25
12/26/2020 8:15:00 PM 1.5 34.7 0.094 6.67 336.09 0.25
12/26/2020 8:30:00 PM 1.48 34.664 0.093 6.67 354.76 0.25
12/26/2020 8:45:00 PM 1.47 34.646 0.092 6.67 379.61 0.25
12/26/2020 9:00:00 PM 1.45 34.61 0.091 6.67 350.07 0.25
12/26/2020 9:15:00 PM 1.44 34.592 0.089 6.56 300.63 0.25
12/26/2020 9:30:00 PM 1.43 34.574 0.087 6.67 382.87 0.25
12/26/2020 9:45:00 PM 1.42 34.556 0.085 6.68 275.05 0.25
12/26/2020 10:00:00 PM 1.4 34.52 0.116 6.61 164.75 0.34
12/26/2020 10:15:00 PM 1.39 34.502 0.114 6.72 228.47 0.26
12/26/2020 10:30:00 PM 1.38 34.484 0.112 6.72 325.02 0.25
12/26/2020 10:45:00 PM 1.37 34.466 0.11 6.72 388.26 0.25
12/26/2020 11:00:00 PM 1.36 34.448 0.108 6.73 476.63 0.25
12/26/2020 11:15:00 PM 1.35 34.43 0.107 6.74 624.07 0.25
12/26/2020 11:30:00 PM 1.34 34.412 0.105 6.74 878.75 0.25
12/26/2020 11:45:00 PM 1.33 34.394 0.104 6.71 983.13 0.25
12/27/2020 12:00:00 AM 1.32 34.376 0.102 6.74 1104.22 0.25
12/27/2020 12:15:00 AM 1.31 34.358 0.101 6.74 937.18 0.25
12/27/2020 12:30:00 AM 1.3 34.34 0.099 6.73 1024.54 0.25
12/27/2020 12:45:00 AM 1.3 34.34 0.096 6.73 1012.55 0.25
12/27/2020 1:00:00 AM 1.29 34.322 0.092 6.73 1165 0.25
12/27/2020 1:15:00 AM 1.28 34.304 0.089 6.72 393.83 0.25
12/27/2020 1:30:00 AM 1.26 34.268 0.108 6.66 129.49 0.25
12/27/2020 1:45:00 AM 1.25 34.25 0.101 6.72 130.54 0.25
12/27/2020 2:00:00 AM 1.24 34.232 0.101 6.63 113.37 0.25
12/27/2020 2:15:00 AM 1.22 34.196 0.095 6.7 251.33 0.25
12/27/2020 2:30:00 AM 1.21 34.178 0.102 6.69 123.59 0.25
12/27/2020 2:45:00 AM 1.2 34.16 0.098 6.7 220.35 0.25
12/27/2020 3:00:00 AM 1.19 34.142 0.094 6.7 404.31 0.25
12/27/2020 3:15:00 AM 1.18 34.124 0.088 6.7 485.76 0.25
12/27/2020 3:30:00 AM 1.15 34.07 0.094 6.58 145.52 0.25
12/27/2020 3:45:00 AM 1.14 34.052 0.093 6.69 366.76 0.25
12/27/2020 4:00:00 AM 1.12 34.016 0.09 6.69 612.99 0.25
12/27/2020 4:15:00 AM 1.11 33.998 0.088 6.69 442.65 0.25
12/27/2020 4:30:00 AM 1.09 33.962 0.085 6.69 355.86 0.25
12/27/2020 4:45:00 AM 1.08 33.944 0.083 6.7 469.39 0.25
12/27/2020 5:00:00 AM 1.06 33.908 0.079 6.69 833.96 0.25
12/27/2020 5:15:00 AM 1.05 33.89 0.111 6.61 141.53 0.48
12/27/2020 5:30:00 AM 1.03 33.854 0.112 6.7 140.16 0.33
12/27/2020 5:45:00 AM 1.02 33.836 0.112 6.71 136.43 0.26
12/27/2020 6:00:00 AM 1 33.8 0.111 6.71 134.43 0.25
12/27/2020 6:15:00 AM 0.98 33.764 0.11 6.72 133.45 0.25
12/27/2020 6:30:00 AM 0.97 33.746 0.11 6.72 133.23 0.25
12/27/2020 6:45:00 AM 0.96 33.728 0.109 6.71 133.02 0.25
12/27/2020 7:00:00 AM 0.94 33.692 0.109 6.72 133.29 0.25
12/27/2020 7:15:00 AM 0.93 33.674 0.109 6.71 133.18 0.25
12/27/2020 7:30:00 AM 0.92 33.656 0.109 6.71 132.81 0.25
12/27/2020 7:45:00 AM 0.91 33.638 0.109 6.71 132.07 0.25
12/27/2020 8:00:00 AM 0.9 33.62 0.109 6.7 131.27 0.25
12/27/2020 8:15:00 AM 0.89 33.602 0.109 6.7 130.72 0.25
12/27/2020 8:30:00 AM 0.88 33.584 0.109 6.7 130.44 0.25
12/27/2020 8:45:00 AM 0.87 33.566 0.109 6.7 129.34 0.25
12/27/2020 9:00:00 AM 0.86 33.548 0.109 6.7 129.36 0.25
12/27/2020 9:15:00 AM 0.85 33.53 0.11 6.71 129.24 0.25
12/27/2020 9:30:00 AM 0.84 33.512 0.11 6.71 129.85 0.25
12/27/2020 9:45:00 AM 0.83 33.494 0.11 6.7 129.03 0.25
12/27/2020 10:00:00 AM 0.83 33.494 0.11 6.7 128.1 0.25
12/27/2020 10:15:00 AM 0.82 33.476 0.11 6.7 127.78 0.25
12/27/2020 10:30:00 AM 0.81 33.458 0.111 6.7 127.71 0.25
12/27/2020 10:45:00 AM 0.8 33.44 0.111 6.7 127.41 0.25
12/27/2020 11:00:00 AM 0.79 33.422 0.111 6.65 126.82 0.25
12/27/2020 11:15:00 AM 0.79 33.422 0.111 6.68 127.21 0.25
12/27/2020 11:30:00 AM 0.79 33.422 0.111 6.69 131.87 0.25
12/27/2020 11:45:00 AM 0.79 33.422 0.111 6.69 130.77 0.25
12/27/2020 12:00:00 PM 0.79 33.422 0.111 6.69 129.88 0.25
12/27/2020 12:15:00 PM 0.78 33.404 0.112 6.69 129.48 0.25
12/27/2020 12:30:00 PM 0.78 33.404 0.112 6.69 127.5 0.25
12/27/2020 12:45:00 PM 0.78 33.404 0.112 6.69 127.34 0.25
12/27/2020 1:00:00 PM 0.77 33.386 0.112 6.68 127.25 0.25
12/27/2020 1:15:00 PM 0.77 33.386 0.113 6.68 127.67 0.25
12/27/2020 1:30:00 PM 0.77 33.386 0.113 6.68 128.54 0.25
12/27/2020 1:45:00 PM 0.77 33.386 0.113 6.68 129.23 0.25
12/27/2020 2:00:00 PM 0.77 33.386 0.113 6.68 130.12 0.25
12/27/2020 2:15:00 PM 0.77 33.386 0.114 6.68 130.43 0.25
12/27/2020 2:30:00 PM 0.77 33.386 0.114 6.68 130.56 0.25
12/27/2020 2:45:00 PM 0.78 33.404 0.114 6.68 131.79 0.25
12/27/2020 3:00:00 PM 0.78 33.404 0.114 6.67 133.32 0.25
12/27/2020 3:15:00 PM 0.78 33.404 0.114 6.67 135.07 0.25
12/27/2020 3:30:00 PM 0.78 33.404 0.115 6.67 135.65 0.25
12/27/2020 3:45:00 PM 0.78 33.404 0.115 6.67 138.14 0.25
12/27/2020 4:00:00 PM 0.78 33.404 0.115 6.67 140.05 0.25
12/27/2020 4:15:00 PM 0.78 33.404 0.115 6.66 139.97 0.25
12/27/2020 4:30:00 PM 0.77 33.386 0.116 6.66 140.81 0.25
12/27/2020 4:45:00 PM 0.77 33.386 0.116 6.67 138.47 0.25
12/27/2020 5:00:00 PM 0.76 33.368 0.116 6.67 137.57 0.25
12/27/2020 5:15:00 PM 0.76 33.368 0.116 6.67 133.88 0.25
12/27/2020 5:30:00 PM 0.75 33.35 0.116 6.67 132.08 0.25
12/27/2020 5:45:00 PM 0.75 33.35 0.117 6.67 129.3 0.25
12/27/2020 6:00:00 PM 0.75 33.35 0.117 6.67 130.21 0.25
12/27/2020 6:15:00 PM 0.74 33.332 0.117 6.67 128.63 0.25
12/27/2020 6:30:00 PM 0.74 33.332 0.117 6.67 129.98 0.25
12/27/2020 6:45:00 PM 0.73 33.314 0.117 6.67 133.58 0.25
12/27/2020 7:00:00 PM 0.73 33.314 0.118 6.66 136.33 0.25
12/27/2020 7:15:00 PM 0.73 33.314 0.118 6.67 140.3 0.25
12/27/2020 7:30:00 PM 0.72 33.296 0.118 6.66 140.97 0.25
12/27/2020 7:45:00 PM 0.72 33.296 0.118 6.63 139.98 0.25
12/27/2020 8:00:00 PM 0.71 33.278 0.118 6.64 142.09 0.25
12/27/2020 8:15:00 PM 0.71 33.278 0.119 6.64 141.84 0.25
12/27/2020 8:30:00 PM 0.7 33.26 0.119 6.64 147.47 0.25
12/27/2020 8:45:00 PM 0.7 33.26 0.119 6.64 151.39 0.25
12/27/2020 9:00:00 PM 0.69 33.242 0.119 6.64 159.45 0.25
12/27/2020 9:15:00 PM 0.69 33.242 0.119 6.64 160.26 0.25
12/27/2020 9:30:00 PM 0.69 33.242 0.119 6.64 170.65 0.25
12/27/2020 9:45:00 PM 0.68 33.224 0.12 6.64 172.89 0.25
12/27/2020 10:00:00 PM 0.68 33.224 0.12 6.64 177.62 0.25
12/27/2020 10:15:00 PM 0.67 33.206 0.12 6.64 183.92 0.25
12/27/2020 10:30:00 PM 0.67 33.206 0.12 6.64 185.79 0.25
12/27/2020 10:45:00 PM 0.67 33.206 0.12 6.64 171.4 0.25
12/27/2020 11:00:00 PM 0.67 33.206 0.12 6.64 154.53 0.25
12/27/2020 11:15:00 PM 0.66 33.188 0.121 6.64 148.2 0.25
12/27/2020 11:30:00 PM 0.66 33.188 0.121 6.63 149.34 0.25
12/27/2020 11:45:00 PM 0.66 33.188 0.121 6.63 148.15 0.25
12/28/2020 12:00:00 AM 0.66 33.188 0.121 6.63 142.34 0.25
12/28/2020 12:15:00 AM 0.66 33.188 0.122 6.63 145.18 0.25
12/28/2020 12:30:00 AM 0.66 33.188 0.121 6.63 150.76 0.25
12/28/2020 12:45:00 AM 0.66 33.188 0.122 6.63 156.07 0.25
12/28/2020 1:00:00 AM 0.66 33.188 0.122 6.63 157.91 0.25
12/28/2020 1:15:00 AM 0.66 33.188 0.122 6.63 156.16 0.25
12/28/2020 1:30:00 AM 0.66 33.188 0.122 6.63 153.92 0.25
12/28/2020 1:45:00 AM 0.65 33.17 0.122 6.63 158.78 0.25
12/28/2020 2:00:00 AM 0.65 33.17 0.122 6.63 158.59 0.25
12/28/2020 2:15:00 AM 0.65 33.17 0.123 6.64 156.84 0.25
12/28/2020 2:30:00 AM 0.65 33.17 0.123 6.64 157.55 0.25
12/28/2020 2:45:00 AM 0.65 33.17 0.123 6.64 154.71 0.25
12/28/2020 3:00:00 AM 0.65 33.17 0.123 6.64 157.18 0.25
12/28/2020 3:15:00 AM 0.65 33.17 0.123 6.64 157.84 0.25
12/28/2020 3:30:00 AM 0.65 33.17 0.123 6.64 155.31 0.25
12/28/2020 3:45:00 AM 0.65 33.17 0.124 6.64 158.26 0.25
12/28/2020 4:00:00 AM 0.65 33.17 0.124 6.64 157.49 0.25
12/28/2020 4:15:00 AM 0.64 33.152 0.124 6.64 154.08 0.25
12/28/2020 4:30:00 AM 0.64 33.152 0.123 6.65 155.04 0.25
12/28/2020 4:45:00 AM 0.64 33.152 0.124 6.65 154.22 0.25
12/28/2020 5:00:00 AM 0.64 33.152 0.124 6.65 162.07 0.25
12/28/2020 5:15:00 AM 0.64 33.152 0.125 6.65 159.29 0.25
12/28/2020 5:30:00 AM 0.63 33.134 0.125 6.65 150.15 0.25
12/28/2020 5:45:00 AM 0.63 33.134 0.125 6.65 147.42 0.25
12/28/2020 6:00:00 AM 0.63 33.134 0.125 6.65 149.64 0.25
12/28/2020 6:15:00 AM 0.63 33.134 0.125 6.66 149.23 0.25
12/28/2020 6:30:00 AM 0.63 33.134 0.125 6.66 150.45 0.25
12/28/2020 6:45:00 AM 0.63 33.134 0.125 6.66 151.28 0.25
12/28/2020 7:00:00 AM 0.63 33.134 0.126 6.66 149.97 0.25
12/28/2020 7:15:00 AM 0.63 33.134 0.126 6.66 148.94 0.25
12/28/2020 7:30:00 AM 0.63 33.134 0.126 6.66 144.67 0.25
12/28/2020 7:45:00 AM 0.63 33.134 0.126 6.66 143.66 0.25
12/28/2020 8:00:00 AM 0.63 33.134 0.127 6.66 142.96 0.25
12/28/2020 8:15:00 AM 0.63 33.134 0.127 6.66 143.41 0.25
12/28/2020 8:30:00 AM 0.63 33.134 0.127 6.66 145.86 0.25
12/28/2020 8:45:00 AM 0.63 33.134 0.127 6.66 146.78 0.25
12/28/2020 9:00:00 AM